Provisional Data: Nanticoke Creek near Maine, NY


Please select a monitoring station.
Please select start date.
Please select start date.

Toggle Unit: C/F Toggle Unit: C/F
Sample Time Temperature (C) Temperature (F) Specific Conductivity (mS/cm) pH   Turbidity (NTU+) DO (mg/L)
10/20/2020 12:00:00 AM 10.12 50.216 0.027 7.08 3.91 7.13
10/20/2020 12:15:00 AM 10.15 50.27 0.027 7.06 3.98 7.05
10/20/2020 12:30:00 AM 10.14 50.252 0.028 7.09 3.99 7.37
10/20/2020 12:45:00 AM 10.15 50.27 0.029 7.08 3.68 7.27
10/20/2020 1:00:00 AM 10.15 50.27 0.028 7.08 6.94 7.27
10/20/2020 1:15:00 AM 10.36 50.648 0.029 7.1 3.92 7.48
10/20/2020 1:30:00 AM 10.61 51.098 0.03 7.13 3.68 7.95
10/20/2020 1:45:00 AM 10.59 51.062 0.029 7.15 3.83 8.17
10/20/2020 2:00:00 AM 10.42 50.756 0.028 7.11 4.41 7.37
10/20/2020 2:15:00 AM 10.2 50.36 0.028 7.11 4.91 7.24
10/20/2020 2:30:00 AM 10.27 50.486 0.029 7.09 3.85 7.56
10/20/2020 2:45:00 AM 10.51 50.918 0.028 7.11 3.72 7.79
10/20/2020 3:00:00 AM 10.74 51.332 0.028 7.13 3.42 8.03
10/20/2020 3:15:00 AM 10.78 51.404 0.03 7.12 3.42 7.97
10/20/2020 3:30:00 AM 10.83 51.494 0.028 7.13 3.23 8.16
10/20/2020 3:45:00 AM 10.85 51.53 0.03 7.14 3.43 8.2
10/20/2020 4:00:00 AM 10.73 51.314 0.028 7.16 4.13 7.8
10/20/2020 4:15:00 AM 10.66 51.188 0.029 7.09 4.21 7.45
10/20/2020 4:30:00 AM 10.45 50.81 0.028 7.07 4.21 7.32
10/20/2020 4:45:00 AM 10.21 50.378 0.031 7.09 4.74 7.43
10/20/2020 5:00:00 AM 10.22 50.396 0.031 7.11 4.1 7.39
10/20/2020 5:15:00 AM 10.48 50.864 0.029 7.06 3.63 7.23
10/20/2020 5:30:00 AM 10.67 51.206 0.029 7.09 3.55 7.18
10/20/2020 5:45:00 AM 10.66 51.188 0.03 7.08 3.69 7.39
10/20/2020 6:00:00 AM 10.68 51.224 0.03 7.09 3.52 7.22
10/20/2020 6:15:00 AM 10.66 51.188 0.028 7.08 3.32 7.17
10/20/2020 6:30:00 AM 10.7 51.26 0.029 7.05 3.53 7.4
10/20/2020 6:45:00 AM 10.91 51.638 0.031 7.09 3.43 7.66
10/20/2020 7:00:00 AM 11.01 51.818 0.03 7.1 3.18 7.73
10/20/2020 7:15:00 AM 11.04 51.872 0.029 7.08 3.76 7.44
10/20/2020 7:30:00 AM 10.85 51.53 0.028 7.08 4.65 7.17
10/20/2020 7:45:00 AM 10.43 50.774 0.027 7.09 4.4 6.97
10/20/2020 8:00:00 AM 10.24 50.432 0.031 7.09 5.35 7.32
10/20/2020 8:15:00 AM 10.17 50.306 0.033 7.09 4.55 7.44
10/20/2020 8:30:00 AM 10.24 50.432 0.033 7.07 4.03 7.27
10/20/2020 8:45:00 AM 10.42 50.756 0.031 7.08 4.03 6.92
10/20/2020 9:00:00 AM 10.5 50.9 0.031 7.07 3.96 6.9
10/20/2020 9:15:00 AM 10.55 50.99 0.029 7.1 4.38 7.41
10/20/2020 9:30:00 AM 10.54 50.972 0.03 7.1 4.75 7.66
10/20/2020 9:45:00 AM 10.55 50.99 0.032 7.08 4.43 7.55
10/20/2020 10:00:00 AM 10.54 50.972 0.032 7.08 4.25 7.3
10/20/2020 10:15:00 AM 10.52 50.936 0.032 7.06 6.92 7.27
10/20/2020 10:30:00 AM 10.54 50.972 0.032 7.06 5.14 7.29
10/20/2020 10:45:00 AM 10.58 51.044 0.03 7.07 4.09 7.18
10/20/2020 11:00:00 AM 10.61 51.098 0.03 7.08 3.97 7.27
10/20/2020 11:15:00 AM 10.64 51.152 0.031 7.07 4.25 7.21
10/20/2020 11:30:00 AM 10.67 51.206 0.03 7.07 4.07 7.09
10/20/2020 11:45:00 AM 10.68 51.224 0.03 7.07 4.15 7.38
10/20/2020 12:00:00 PM 10.7 51.26 0.028 7.07 4.45 7.11
10/20/2020 12:15:00 PM 10.69 51.242 0.03 7.07 4.35 7.12
10/20/2020 12:30:00 PM 10.73 51.314 0.031 7.07 4.24 7.14
10/20/2020 12:45:00 PM 10.74 51.332 0.029 7.08 4.21 7.14
10/20/2020 1:00:00 PM 10.73 51.314 0.03 7.08 4.16 7.07
10/20/2020 1:15:00 PM 10.72 51.296 0.029 7.07 4.34 6.98
10/20/2020 1:30:00 PM 10.72 51.296 0.029 7.09 4.67 7.02
10/20/2020 1:45:00 PM 10.7 51.26 0.029 7.08 4.47 7.12
10/20/2020 2:00:00 PM 10.7 51.26 0.03 7.07 4.06 7.09
10/20/2020 2:15:00 PM 10.69 51.242 0.028 7.06 4.23 7.07
10/20/2020 2:30:00 PM 10.82 51.476 0.03 7.1 4.19 7.07
10/20/2020 2:45:00 PM 10.88 51.584 0.032 7.09 4.46 7.36
10/20/2020 3:00:00 PM 10.85 51.53 0.031 7.1 4.66 7.47
10/20/2020 3:15:00 PM 10.77 51.386 0.031 7.1 4.43 7.32
10/20/2020 3:30:00 PM 10.76 51.368 0.03 7.08 4.65 7.21
10/20/2020 3:45:00 PM 10.81 51.458 0.033 7.08 4.65 7.27
10/20/2020 4:00:00 PM 10.91 51.638 0.029 7.09 3.88 7.3
10/20/2020 4:15:00 PM 10.94 51.692 0.031 7.11 3.98 7.34
10/20/2020 4:30:00 PM 10.96 51.728 0.031 7.08 3.8 7.27
10/20/2020 4:45:00 PM 10.93 51.674 0.031 7.09 4.34 7.24
10/20/2020 5:00:00 PM 10.86 51.548 0.029 7.08 4.26 7.07
10/20/2020 5:15:00 PM 10.83 51.494 0.028 7.07 4.05 6.55
10/20/2020 5:30:00 PM 10.94 51.692 0.029 7.06 3.89 6.77
10/20/2020 5:45:00 PM 11.07 51.926 0.031 7.06 3.95 6.79
10/20/2020 6:00:00 PM 10.97 51.746 0.032 7.07 4.75 7.14
10/20/2020 6:15:00 PM 10.93 51.674 0.03 7.07 4.26 7.08
10/20/2020 6:30:00 PM 10.94 51.692 0.031 7.08 5.24 7.45
10/20/2020 6:45:00 PM 10.9 51.62 0.031 7.09 5.35 7.37
10/20/2020 7:00:00 PM 11 51.8 0.03 7.09 4.62 7.21
10/20/2020 7:15:00 PM 11.05 51.89 0.031 7.08 4.38 7.14
10/20/2020 7:30:00 PM 11.17 52.106 0.031 7.08 4.23 7.16
10/20/2020 7:45:00 PM 11.25 52.25 0.032 7.08 3.98 7.42
10/20/2020 8:00:00 PM 11.1 51.98 0.03 7.07 4.6 7.33
10/20/2020 8:15:00 PM 11.05 51.89 0.031 7.07 4.48 7.17
10/20/2020 8:30:00 PM 11.04 51.872 0.031 7.07 4.8 7.19
10/20/2020 8:45:00 PM 11.18 52.124 0.031 7.07 4.23 7.05
10/20/2020 9:00:00 PM 11.44 52.592 0.03 7.11 4.81 7.45
10/20/2020 9:15:00 PM 11.42 52.556 0.03 7.1 3.99 8.15
10/20/2020 9:30:00 PM 11.57 52.826 0.03 7.16 4.24 8.39
10/20/2020 9:45:00 PM 11.49 52.682 0.031 7.14 4.56 8.21
10/20/2020 10:00:00 PM 11.54 52.772 0.031 7.14 3.93 8.04
10/20/2020 10:15:00 PM 11.36 52.448 0.03 7.09 4.65 7.97
10/20/2020 10:30:00 PM 11.32 52.376 0.028 7.12 4.85 7.79
10/20/2020 10:45:00 PM 11.42 52.556 0.03 7.12 4.32 8.05
10/20/2020 11:00:00 PM 11.36 52.448 0.03 7.13 4.46 7.9
10/20/2020 11:15:00 PM 11.48 52.664 0.029 7.13 4.27 8.06
10/20/2020 11:30:00 PM 11.45 52.61 0.029 7.12 4.06 8.06
10/20/2020 11:45:00 PM 11.41 52.538 0.029 7.12 4.1 8.07
10/21/2020 12:00:00 AM 11.42 52.556 0.029 7.13 3.71 8.09
10/21/2020 12:15:00 AM 11.4 52.52 0.03 7.14 3.81 8.1
10/21/2020 12:30:00 AM 11.37 52.466 0.029 7.14 3.79 8.08
10/21/2020 12:45:00 AM 11.37 52.466 0.031 7.13 4.13 8.06
10/21/2020 1:00:00 AM 11.35 52.43 0.03 7.13 3.61 8.08
10/21/2020 1:15:00 AM 11.33 52.394 0.03 7.14 3.57 8.08
10/21/2020 1:30:00 AM 11.32 52.376 0.029 7.13 3.74 8.06
10/21/2020 1:45:00 AM 11.3 52.34 0.029 7.12 3.3 8.03
10/21/2020 2:00:00 AM 11.29 52.322 0.03 7.13 3.49 8.04
10/21/2020 2:15:00 AM 11.27 52.286 0.029 7.12 3.53 8
10/21/2020 2:30:00 AM 11.25 52.25 0.03 7.11 3.48 7.93
10/21/2020 2:45:00 AM 11.23 52.214 0.029 7.12 3.46 7.88
10/21/2020 3:00:00 AM 11.22 52.196 0.029 7.12 3.78 7.94
10/21/2020 3:15:00 AM 11.21 52.178 0.029 7.12 3.73 7.94
10/21/2020 3:30:00 AM 11.19 52.142 0.03 7.12 3.65 7.94
10/21/2020 3:45:00 AM 11.18 52.124 0.029 7.13 3.57 7.94
10/21/2020 4:00:00 AM 11.17 52.106 0.028 7.11 3.73 7.84
10/21/2020 4:15:00 AM 11.15 52.07 0.027 7.12 3.34 7.95
10/21/2020 4:30:00 AM 11.13 52.034 0.027 7.12 3.31 8.01
10/21/2020 4:45:00 AM 11.12 52.016 0.027 7.12 3.33 7.96
10/21/2020 5:00:00 AM 11.12 52.016 0.028 7.12 3.46 7.98
10/21/2020 5:15:00 AM 11.1 51.98 0.028 7.11 3.71 7.88
10/21/2020 5:30:00 AM 11.09 51.962 0.028 7.12 4.68 7.99
10/21/2020 5:45:00 AM 11.08 51.944 0.028 7.12 3.48 7.97
10/21/2020 6:00:00 AM 11.07 51.926 0.027 7.11 4.01 7.92
10/21/2020 6:15:00 AM 11.05 51.89 0.029 7.11 3.39 7.95
10/21/2020 6:30:00 AM 11.05 51.89 0.028 7.12 4.04 7.86
10/21/2020 6:45:00 AM 11.04 51.872 0.028 7.11 3.83 7.89
10/21/2020 7:00:00 AM 11.04 51.872 0.028 7.1 3.9 7.85
10/21/2020 7:15:00 AM 11.02 51.836 0.028 7.11 3.6 7.9
10/21/2020 7:30:00 AM 11.02 51.836 0.029 7.11 3.87 7.92
10/21/2020 7:45:00 AM 11 51.8 0.027 7.11 3.66 7.98
10/21/2020 8:00:00 AM 11 51.8 0.028 7.11 3.43 7.9
10/21/2020 8:15:00 AM 11.01 51.818 0.026 7.11 3.31 7.9
10/21/2020 8:30:00 AM 11.02 51.836 0.027 7.11 3.25 7.88
10/21/2020 8:45:00 AM 11.03 51.854 0.028 7.11 3.4 7.87
10/21/2020 9:00:00 AM 11.05 51.89 0.027 7.11 3.19 7.87
10/21/2020 9:15:00 AM 11.1 51.98 0.029 7.1 3.24 7.84
10/21/2020 9:30:00 AM 11.15 52.07 0.029 7.1 3.28 7.84
10/21/2020 9:45:00 AM 11.14 52.052 0.03 7.12 3.5 7.77
10/21/2020 10:00:00 AM 11.17 52.106 0.028 7.09 4.43 7.76
10/21/2020 10:15:00 AM 11.2 52.16 0.028 7.09 3.56 7.85
10/21/2020 10:30:00 AM 11.63 52.934 0.03 7.11 3.51 7.89
10/21/2020 10:45:00 AM 11.84 53.312 0.029 7.12 3.9 7.92
10/21/2020 11:00:00 AM 11.86 53.348 0.028 7.11 3.64 7.96
10/21/2020 11:15:00 AM 12.11 53.798 0.027 7.12 3.41 7.94
10/21/2020 11:30:00 AM 12.25 54.05 0.028 7.13 3.57 7.98
10/21/2020 11:45:00 AM 12.39 54.302 0.029 7.12 3.63 7.99
10/21/2020 12:00:00 PM 12.46 54.428 0.028 7.12 3.64 7.96
10/21/2020 12:15:00 PM 12.63 54.734 0.029 7.13 3.9 7.98
10/21/2020 12:30:00 PM 12.73 54.914 0.029 7.13 4.85 7.97
10/21/2020 12:45:00 PM 12.91 55.238 0.031 7.14 4.01 8.14
10/21/2020 1:00:00 PM 13.15 55.67 0.031 7.15 3.68 8.19
10/21/2020 1:15:00 PM 13.31 55.958 0.033 7.16 3.69 8.31
10/21/2020 1:30:00 PM 13.39 56.102 0.032 7.17 3.99 8.56
10/21/2020 1:45:00 PM 13.54 56.372 0.032 7.17 3.93 8.56
10/21/2020 2:00:00 PM 13.71 56.678 0.032 7.18 3.65 8.59
10/21/2020 2:15:00 PM 13.83 56.894 0.032 7.19 4.05 8.69
10/21/2020 2:30:00 PM 13.9 57.02 0.032 7.2 3.64 8.82
10/21/2020 2:45:00 PM 14 57.2 0.033 7.21 3.77 8.89
10/21/2020 3:00:00 PM 14.09 57.362 0.032 7.22 3.61 9.03
10/21/2020 3:15:00 PM 14.18 57.524 0.032 7.23 3.81 9.26
10/21/2020 3:30:00 PM 14.32 57.776 0.031 7.23 3.8 9.04
10/21/2020 3:45:00 PM 14.66 58.388 0.034 7.26 4.07 9.51
10/21/2020 4:00:00 PM 14.62 58.316 0.033 7.27 3.16 9.48
10/21/2020 4:15:00 PM 14.91 58.838 0.034 7.31 3.17 9.83
10/21/2020 4:30:00 PM 14.52 58.136 0.034 7.29 3.14 9.74
10/21/2020 4:45:00 PM 14.57 58.226 0.034 7.29 3.15 9.8
10/21/2020 5:00:00 PM 14.61 58.298 0.033 7.29 3.85 9.75
10/21/2020 5:15:00 PM 14.37 57.866 0.034 7.27 4.05 9.53
10/21/2020 5:30:00 PM 14.63 58.334 0.034 7.27 3.3 9.58
10/21/2020 5:45:00 PM 14.73 58.514 0.034 7.27 3.33 9.43
10/21/2020 6:00:00 PM 14.16 57.488 0.034 7.23 4.6 8.83
10/21/2020 6:15:00 PM 14.44 57.992 0.033 7.23 4.03 9.25
10/21/2020 6:30:00 PM 14.31 57.758 0.036 7.24 3.91 9.22
10/21/2020 6:45:00 PM 14.06 57.308 0.035 7.22 4.15 8.66
10/21/2020 7:00:00 PM 14.19 57.542 0.033 7.21 4.17 8.57
10/21/2020 7:15:00 PM 14.28 57.704 0.034 7.19 3.34 8.65
10/21/2020 7:30:00 PM 14.35 57.83 0.032 7.21 3.18 8.65
10/21/2020 7:45:00 PM 14.44 57.992 0.033 7.21 3 8.63
10/21/2020 8:00:00 PM 14.63 58.334 0.034 7.23 3.35 9.18
10/21/2020 8:15:00 PM 14.63 58.334 0.033 7.22 3.21 9.07
10/21/2020 8:30:00 PM 14.54 58.172 0.032 7.21 3.13 8.72
10/21/2020 8:45:00 PM 14.52 58.136 0.032 7.23 3.17 8.85
10/21/2020 9:00:00 PM 14.44 57.992 0.031 7.22 3.34 8.79
10/21/2020 9:15:00 PM 14.38 57.884 0.032 7.18 3.28 8.53
10/21/2020 9:30:00 PM 14.53 58.154 0.031 7.18 3.31 8.75
10/21/2020 9:45:00 PM 14.56 58.208 0.03 7.18 3.11 8.52
10/21/2020 10:00:00 PM 14.49 58.082 0.031 7.18 4.24 8.34
10/21/2020 10:15:00 PM 14.45 58.01 0.031 7.17 3.83 8.47
10/21/2020 10:30:00 PM 14.44 57.992 0.031 7.17 3.87 8.31
10/21/2020 10:45:00 PM 14.42 57.956 0.03 7.17 3.54 8.36
10/21/2020 11:00:00 PM 14.47 58.046 0.03 7.16 3.51 8.29
10/21/2020 11:15:00 PM 14.6 58.28 0.03 7.19 3.59 8.66
10/21/2020 11:30:00 PM 14.8 58.64 0.031 7.2 3.6 8.59
10/21/2020 11:45:00 PM 14.6 58.28 0.031 7.19 3.48 8.6
10/22/2020 12:00:00 AM 14.62 58.316 0.032 7.19 3.62 8.48
10/22/2020 12:15:00 AM 14.62 58.316 0.03 7.18 3.88 8.63
10/22/2020 12:30:00 AM 14.62 58.316 0.032 7.18 3.48 8.42
10/22/2020 12:45:00 AM 14.61 58.298 0.029 7.17 3.11 8.39
10/22/2020 1:00:00 AM 14.68 58.424 0.032 7.17 3.31 8.28
10/22/2020 1:15:00 AM 14.74 58.532 0.03 7.18 3.52 8.46
10/22/2020 1:30:00 AM 14.64 58.352 0.03 7.18 3.64 8.21
10/22/2020 1:45:00 AM 14.79 58.622 0.031 7.18 3.93 8.21
10/22/2020 2:00:00 AM 15.07 59.126 0.031 7.18 3.26 7.83
10/22/2020 2:15:00 AM 15.12 59.216 0.031 7.17 3.67 7.68
10/22/2020 2:30:00 AM 14.88 58.784 0.03 7.15 3.52 7.76
10/22/2020 2:45:00 AM 14.71 58.478 0.031 7.16 3.63 7.8
10/22/2020 3:00:00 AM 14.79 58.622 0.031 7.15 4.03 7.63
10/22/2020 3:15:00 AM 14.96 58.928 0.032 7.15 3.75 7.53
10/22/2020 3:30:00 AM 14.99 58.982 0.03 7.15 3.96 7.5
10/22/2020 3:45:00 AM 15.02 59.036 0.03 7.14 3.28 7.45
10/22/2020 4:00:00 AM 14.97 58.946 0.029 7.14 4.06 7.45
10/22/2020 4:15:00 AM 15.03 59.054 0.03 7.14 3.87 7.44
10/22/2020 4:30:00 AM 14.95 58.91 0.028 7.14 3.81 7.44
10/22/2020 4:45:00 AM 14.96 58.928 0.03 7.13 3.98 7.39
10/22/2020 5:00:00 AM 14.97 58.946 0.029 7.12 3.7 7.34
10/22/2020 5:15:00 AM 14.94 58.892 0.028 7.13 4.55 7.35
10/22/2020 5:30:00 AM 14.86 58.748 0.03 7.12 4.13 7.35
10/22/2020 5:45:00 AM 14.89 58.802 0.029 7.13 4.02 7.33
10/22/2020 6:00:00 AM 14.87 58.766 0.029 7.13 4.15 7.31
10/22/2020 6:15:00 AM 14.86 58.748 0.029 7.12 3.67 7.28
10/22/2020 6:30:00 AM 14.84 58.712 0.029 7.11 3.8 7.23
10/22/2020 6:45:00 AM 14.82 58.676 0.029 7.11 3.71 7.18
10/22/2020 7:00:00 AM 14.78 58.604 0.03 7.12 3.65 7.23
10/22/2020 7:15:00 AM 14.77 58.586 0.028 7.12 3.71 7.22
10/22/2020 7:30:00 AM 14.74 58.532 0.026 7.12 3.61 7.23
10/22/2020 7:45:00 AM 14.69 58.442 0.027 7.12 3.69 7.23
10/22/2020 8:00:00 AM 14.66 58.388 0.028 7.11 3.68 7.18
10/22/2020 8:15:00 AM 14.65 58.37 0.027 7.1 3.65 7.15
10/22/2020 8:30:00 AM 14.65 58.37 0.027 7.1 3.66 7.13
10/22/2020 8:45:00 AM 14.63 58.334 0.028 7.09 4.22 7.13
10/22/2020 9:00:00 AM 14.64 58.352 0.025 7.1 3.72 7.11
10/22/2020 9:15:00 AM 14.65 58.37 0.028 7.09 3.41 7.12
10/22/2020 9:30:00 AM 14.66 58.388 0.028 7.09 3.52 7.09
10/22/2020 9:45:00 AM 14.66 58.388 0.027 7.09 4.42 7.07
10/22/2020 10:00:00 AM 14.67 58.406 0.027 7.09 3.91 7.06
10/22/2020 10:15:00 AM 14.67 58.406 0.027 7.09 3.67 7.07
10/22/2020 10:30:00 AM 14.68 58.424 0.026 7.1 3.6 7.08
10/22/2020 10:45:00 AM 14.73 58.514 0.027 7.1 3.83 7.06
10/22/2020 11:00:00 AM 14.71 58.478 0.027 7.09 3.99 7.02
10/22/2020 11:15:00 AM 14.69 58.442 0.027 7.08 3.59 6.99
10/22/2020 11:30:00 AM 14.72 58.496 0.027 7.09 3.6 6.99
10/22/2020 11:45:00 AM 14.79 58.622 0.027 7.09 3.56 7.05
10/22/2020 12:00:00 PM 14.75 58.55 0.027 7.09 3.78 7.13
10/22/2020 12:15:00 PM 14.84 58.712 0.026 7.1 3.67 7.3
10/22/2020 12:30:00 PM 14.85 58.73 0.026 7.11 3.5 7.43
10/22/2020 12:45:00 PM 14.93 58.874 0.028 7.1 3.57 7.32
10/22/2020 1:00:00 PM 14.92 58.856 0.028 7.12 3.43 7.44
10/22/2020 1:15:00 PM 14.98 58.964 0.027 7.1 4.29 7.64
10/22/2020 1:30:00 PM 14.99 58.982 0.027 7.1 4.05 7.56
10/22/2020 1:45:00 PM 15.02 59.036 0.027 7.12 4.29 7.64
10/22/2020 2:00:00 PM 15.02 59.036 0.028 7.11 4.3 7.69
10/22/2020 2:15:00 PM 15.05 59.09 0.026 7.13 3.67 7.83
10/22/2020 2:30:00 PM 15.09 59.162 0.028 7.13 3.44 7.89
10/22/2020 2:45:00 PM 15.1 59.18 0.027 7.14 5.39 7.82
10/22/2020 3:00:00 PM 15.07 59.126 0.028 7.14 5.73 8.25
10/22/2020 3:15:00 PM 15.08 59.144 0.029 7.11 5.2 7.81
10/22/2020 3:30:00 PM 15.11 59.198 0.028 7.12 5.51 7.84
10/22/2020 3:45:00 PM 15.1 59.18 0.027 7.12 4.86 7.72
10/22/2020 4:00:00 PM 15.11 59.198 0.028 7.12 4.07 7.64
10/22/2020 4:15:00 PM 15.17 59.306 0.026 7.11 4.3 7.54
10/22/2020 4:30:00 PM 15.26 59.468 0.028 7.12 4.09 7.49
10/22/2020 4:45:00 PM 15.28 59.504 0.027 7.13 4.15 7.45
10/22/2020 5:00:00 PM 15.31 59.558 0.026 7.12 3.74 7.45
10/22/2020 5:15:00 PM 15.32 59.576 0.027 7.12 4.54 7.42
10/22/2020 5:30:00 PM 15.34 59.612 0.028 7.12 4.19 7.5
10/22/2020 5:45:00 PM 15.31 59.558 0.028 7.11 4.45 7.37
10/22/2020 6:00:00 PM 15.33 59.594 0.027 7.11 4.21 7.41
10/22/2020 6:15:00 PM 15.33 59.594 0.027 7.1 4.47 7.27
10/22/2020 6:30:00 PM 15.33 59.594 0.027 7.1 4.53 7.15
10/22/2020 6:45:00 PM 15.26 59.468 0.026 7.1 6.04 7.42
10/22/2020 7:00:00 PM 15.32 59.576 0.027 7.1 4.32 7.41
10/22/2020 7:15:00 PM 15.27 59.486 0.026 7.1 4.21 7.27
10/22/2020 7:30:00 PM 15.29 59.522 0.026 7.1 5.93 7.1
10/22/2020 7:45:00 PM 15.32 59.576 0.027 7.1 4.64 7.4
10/22/2020 8:00:00 PM 15.37 59.666 0.026 7.12 4.92 7.45
10/22/2020 8:15:00 PM 15.34 59.612 0.027 7.13 4.62 7.5
10/22/2020 8:30:00 PM 15.33 59.594 0.027 7.11 4.26 7.51
10/22/2020 8:45:00 PM 15.3 59.54 0.027 7.11 4.6 7.42
10/22/2020 9:00:00 PM 15.36 59.648 0.027 7.11 5.21 7.33
10/22/2020 9:15:00 PM 15.37 59.666 0.027 7.11 4.12 7.21
10/22/2020 9:30:00 PM 15.37 59.666 0.025 7.1 4.37 7.27
10/22/2020 9:45:00 PM 15.39 59.702 0.027 7.11 4.03 7.39
10/22/2020 10:00:00 PM 15.43 59.774 0.027 7.11 4.44 7.39
10/22/2020 10:15:00 PM 15.64 60.152 0.028 7.15 4.26 8.14
10/22/2020 10:30:00 PM 15.54 59.972 0.027 7.15 4.15 8.19
10/22/2020 10:45:00 PM 15.43 59.774 0.025 7.14 3.74 7.79
10/22/2020 11:00:00 PM 15.71 60.278 0.028 7.19 3.89 7.69
10/22/2020 11:15:00 PM 15.8 60.44 0.028 7.23 3.89 8.08
10/22/2020 11:30:00 PM 15.8 60.44 0.028 7.23 4.19 7.97
10/22/2020 11:45:00 PM 15.73 60.314 0.027 7.22 4.07 7.84
10/23/2020 12:00:00 AM 15.73 60.314 0.027 7.22 3.74 7.83
10/23/2020 12:15:00 AM 15.67 60.206 0.026 7.21 3.68 7.75
10/23/2020 12:30:00 AM 15.62 60.116 0.026 7.19 3.56 7.68
10/23/2020 12:45:00 AM 15.57 60.026 0.025 7.18 3.42 7.57
10/23/2020 1:00:00 AM 15.52 59.936 0.026 7.18 3.61 7.55
10/23/2020 1:15:00 AM 15.47 59.846 0.027 7.16 3.59 7.44
10/23/2020 1:30:00 AM 15.44 59.792 0.026 7.17 3.71 7.41
10/23/2020 1:45:00 AM 15.38 59.684 0.026 7.15 3.68 7.35
10/23/2020 2:00:00 AM 15.35 59.63 0.026 7.14 3.76 7.31
10/23/2020 2:15:00 AM 15.31 59.558 0.023 7.14 3.63 7.25
10/23/2020 2:30:00 AM 15.25 59.45 0.026 7.14 3.66 7.22
10/23/2020 2:45:00 AM 15.2 59.36 0.025 7.13 5.4 7.17
10/23/2020 3:00:00 AM 15.14 59.252 0.027 7.12 3.74 7.16
10/23/2020 3:15:00 AM 15.09 59.162 0.026 7.12 3.48 7.13
10/23/2020 3:30:00 AM 15.05 59.09 0.026 7.12 3.79 7.1
10/23/2020 3:45:00 AM 15 59 0.024 7.12 3.76 7.08
10/23/2020 4:00:00 AM 14.95 58.91 0.024 7.11 3.93 7.06
10/23/2020 4:15:00 AM 14.93 58.874 0.023 7.11 4.04 7.09
10/23/2020 4:30:00 AM 14.89 58.802 0.024 7.11 7.54 7.04
10/23/2020 4:45:00 AM 14.85 58.73 0.025 7.11 3.92 7
10/23/2020 5:00:00 AM 14.82 58.676 0.024 7.1 4.21 7.03
10/23/2020 5:15:00 AM 14.77 58.586 0.025 7.1 4.29 6.95
10/23/2020 5:30:00 AM 14.74 58.532 0.025 7.1 3.69 6.93
10/23/2020 5:45:00 AM 14.71 58.478 0.023 7.09 3.92 6.89
10/23/2020 6:00:00 AM 14.68 58.424 0.024 7.1 3.96 6.91
10/23/2020 6:15:00 AM 14.65 58.37 0.022 7.09 3.53 6.88
10/23/2020 6:30:00 AM 14.63 58.334 0.025 7.09 3.67 6.92
10/23/2020 6:45:00 AM 14.54 58.172 0.022 7.09 3.84 6.8
10/23/2020 7:00:00 AM 14.56 58.208 0.023 7.09 4.42 6.88
10/23/2020 7:15:00 AM 14.46 58.028 0.023 7.1 5.15 6.86
10/23/2020 7:30:00 AM 14.43 57.974 0.022 7.09 4.15 6.81
10/23/2020 7:45:00 AM 14.42 57.956 0.022 7.08 4.44 6.75
10/23/2020 8:00:00 AM 14.41 57.938 0.024 7.08 4.75 6.84
10/23/2020 8:15:00 AM 14.38 57.884 0.024 7.08 4.31 6.78
10/23/2020 8:30:00 AM 14.33 57.794 0.022 7.08 4.08 6.76
10/23/2020 8:45:00 AM 14.33 57.794 0.024 7.08 3.87 6.87
10/23/2020 9:00:00 AM 14.34 57.812 0.023 7.08 3.86 6.81
10/23/2020 9:15:00 AM 14.37 57.866 0.023 7.08 3.9 6.87
10/23/2020 9:30:00 AM 14.44 57.992 0.024 7.09 3.85 7.1
10/23/2020 9:45:00 AM 14.37 57.866 0.023 7.09 5.54 6.93
10/23/2020 10:00:00 AM 14.4 57.92 0.024 7.09 5.69 6.91
10/23/2020 10:15:00 AM 14.45 58.01 0.023 7.09 5.37 6.87
10/23/2020 10:30:00 AM 14.5 58.1 0.023 7.09 4.83 6.88
10/23/2020 10:45:00 AM 14.54 58.172 0.023 7.08 4.34 6.92
10/23/2020 11:00:00 AM 15.06 59.108 0.023 7.09 4.67 6.96
10/23/2020 11:15:00 AM 15.02 59.036 0.022 7.11 4.13 7.08
10/23/2020 11:30:00 AM 15.29 59.522 0.022 7.11 4.3 7.09
10/23/2020 11:45:00 AM 15.33 59.594 0.024 7.12 4.35 7.15
10/23/2020 12:00:00 PM 15.55 59.99 0.025 7.13 4.7 7.18
10/23/2020 12:15:00 PM 15.51 59.918 0.024 7.13 4.41 7.25
10/23/2020 12:30:00 PM 15.72 60.296 0.023 7.14 4.2 7.31
10/23/2020 12:45:00 PM 15.72 60.296 0.025 7.15 4.02 7.33
10/23/2020 1:00:00 PM 15.82 60.476 0.024 7.15 4.03 7.39
10/23/2020 1:15:00 PM 15.9 60.62 0.023 7.15 4.78 7.39
10/23/2020 1:30:00 PM 15.93 60.674 0.025 7.15 4.15 7.45
10/23/2020 1:45:00 PM 15.99 60.782 0.023 7.15 4.3 7.51
10/23/2020 2:00:00 PM 16.04 60.872 0.025 7.16 4.24 7.51
10/23/2020 2:15:00 PM 15.96 60.728 0.024 7.17 4.11 7.55
10/23/2020 2:30:00 PM 16.08 60.944 0.025 7.18 4.07 7.65
10/23/2020 2:45:00 PM 16.19 61.142 0.026 7.19 4.29 7.69
10/23/2020 3:00:00 PM 16.18 61.124 0.026 7.19 4.37 7.74
10/23/2020 3:15:00 PM 16.18 61.124 0.025 7.19 4.12 7.81
10/23/2020 3:30:00 PM 16.28 61.304 0.026 7.2 3.89 7.86
10/23/2020 3:45:00 PM 16.28 61.304 0.026 7.2 4.04 7.95
10/23/2020 4:00:00 PM 16.31 61.358 0.024 7.2 4.33 8.02
10/23/2020 4:15:00 PM 16.29 61.322 0.025 7.21 3.71 8.23
10/23/2020 4:30:00 PM 16.3 61.34 0.025 7.24 3.65 8.45
10/23/2020 4:45:00 PM 16.35 61.43 0.026 7.25 4.02 8.45
10/23/2020 5:00:00 PM 16.39 61.502 0.023 7.25 3.65 8.41
10/23/2020 5:15:00 PM 16.49 61.682 0.026 7.27 3.55 8.69
10/23/2020 5:30:00 PM 16.51 61.718 0.026 7.28 3.35 8.76
10/23/2020 5:45:00 PM 16.5 61.7 0.025 7.28 3.63 8.69
10/23/2020 6:00:00 PM 16.51 61.718 0.025 7.28 3.8 8.83
10/23/2020 6:15:00 PM 16.6 61.88 0.025 7.31 3.54 8.9
10/23/2020 6:30:00 PM 16.61 61.898 0.026 7.3 3.58 8.87
10/23/2020 6:45:00 PM 16.59 61.862 0.025 7.28 3.47 8.81
10/23/2020 7:00:00 PM 16.62 61.916 0.026 7.29 3.44 8.79
10/23/2020 7:15:00 PM 16.67 62.006 0.025 7.31 3.84 8.78
10/23/2020 7:30:00 PM 16.61 61.898 0.025 7.27 4.98 8.77
10/23/2020 7:45:00 PM 16.55 61.79 0.024 7.27 3.64 8.4
10/23/2020 8:00:00 PM 16.86 62.348 0.026 7.33 3.69 9.02
10/23/2020 8:15:00 PM 16.95 62.51 0.026 7.35 3.24 9.06
10/23/2020 8:30:00 PM 16.94 62.492 0.026 7.34 3.37 9.01
10/23/2020 8:45:00 PM 16.95 62.51 0.025 7.34 3.47 8.92
10/23/2020 9:00:00 PM 16.93 62.474 0.027 7.33 3.51 8.91
10/23/2020 9:15:00 PM 16.84 62.312 0.025 7.31 3.33 8.66
10/23/2020 9:30:00 PM 16.84 62.312 0.026 7.31 7.58 8.65
10/23/2020 9:45:00 PM 16.77 62.186 0.025 7.3 4.05 8.5
10/23/2020 10:00:00 PM 16.71 62.078 0.025 7.3 4.32 8.47
10/23/2020 10:15:00 PM 16.65 61.97 0.026 7.28 3.26 8.29
10/23/2020 10:30:00 PM 16.56 61.808 0.025 7.27 3.84 8.13
10/23/2020 10:45:00 PM 16.46 61.628 0.026 7.25 4.67 7.94
10/23/2020 11:00:00 PM 16.44 61.592 0.025 7.24 4.74 7.83
10/23/2020 11:15:00 PM 16.35 61.43 0.025 7.22 3.59 7.7
10/23/2020 11:30:00 PM 16.38 61.484 0.026 7.22 3.56 7.67
10/23/2020 11:45:00 PM 16.36 61.448 0.024 7.22 3.84 7.62
10/24/2020 12:00:00 AM 16.33 61.394 0.025 7.21 3.68 7.57
10/24/2020 12:15:00 AM 16.21 61.178 0.024 7.19 3.38 7.36
10/24/2020 12:30:00 AM 16.22 61.196 0.024 7.19 3.42 7.43
10/24/2020 12:45:00 AM 16.18 61.124 0.024 7.19 3.52 7.46
10/24/2020 1:00:00 AM 16.18 61.124 0.024 7.21 5.69 7.53
10/24/2020 1:15:00 AM 16.05 60.89 0.023 7.19 4.48 7.32
10/24/2020 1:30:00 AM 15.96 60.728 0.024 7.18 3.91 7.16
10/24/2020 1:45:00 AM 15.96 60.728 0.024 7.18 3.92 7.22
10/24/2020 2:00:00 AM 15.95 60.71 0.024 7.18 3.6 7.22
10/24/2020 2:15:00 AM 15.92 60.656 0.023 7.17 3.67 7.24
10/24/2020 2:30:00 AM 15.91 60.638 0.024 7.18 3.82 7.28
10/24/2020 2:45:00 AM 15.91 60.638 0.025 7.18 3.82 7.31
10/24/2020 3:00:00 AM 15.92 60.656 0.025 7.2 2.45 7.31
10/24/2020 3:15:00 AM 15.89 60.602 0.022 7.19 3.45 7.17
10/24/2020 3:30:00 AM 15.86 60.548 0.023 7.16 4.41 6.82
10/24/2020 3:45:00 AM 15.88 60.584 0.023 7.16 3.83 6.94
10/24/2020 4:00:00 AM 15.93 60.674 0.025 7.17 4.33 7.36
10/24/2020 4:15:00 AM 15.88 60.584 0.024 7.19 4.37 7.39
10/24/2020 4:30:00 AM 15.79 60.422 0.023 7.18 6.13 7.09
10/24/2020 4:45:00 AM 15.72 60.296 0.024 7.16 4.44 6.95
10/24/2020 5:00:00 AM 15.7 60.26 0.023 7.15 4.22 6.99
10/24/2020 5:15:00 AM 15.75 60.35 0.022 7.16 6.34 7.12
10/24/2020 5:30:00 AM 15.69 60.242 0.023 7.18 4.51 7.1
10/24/2020 5:45:00 AM 15.68 60.224 0.022 7.17 3.73 7.16
10/24/2020 6:00:00 AM 15.71 60.278 0.023 7.19 3.79 7.17
10/24/2020 6:15:00 AM 15.71 60.278 0.023 7.17 3.93 7.03
10/24/2020 6:30:00 AM 15.67 60.206 0.023 7.17 4.18 6.94
10/24/2020 6:45:00 AM 15.67 60.206 0.023 7.15 3.76 6.89
10/24/2020 7:00:00 AM 15.67 60.206 0.023 7.15 4.11 6.84
10/24/2020 7:15:00 AM 15.5 59.9 0.023 7.16 3.98 6.86
10/24/2020 7:30:00 AM 15.51 59.918 0.022 7.15 4.24 6.81
10/24/2020 7:45:00 AM 15.45 59.81 0.023 7.15 4.14 6.73
10/24/2020 8:00:00 AM 15.44 59.792 0.022 7.13 4.25 6.65
10/24/2020 8:15:00 AM 15.37 59.666 0.022 7.14 4.01 6.75
10/24/2020 8:30:00 AM 15.3 59.54 0.022 7.15 4.69 6.84
10/24/2020 8:45:00 AM 15.28 59.504 0.021 7.14 3.83 6.78
10/24/2020 9:00:00 AM 15.26 59.468 0.02 7.13 3.85 6.8
10/24/2020 9:15:00 AM 15.21 59.378 0.022 7.14 3.97 6.7
10/24/2020 9:30:00 AM 15.26 59.468 0.023 7.12 3.9 6.61
10/24/2020 9:45:00 AM 15.16 59.288 0.022 7.14 3.61 6.76
10/24/2020 10:00:00 AM 15.15 59.27 0.022 7.14 3.78 6.76
10/24/2020 10:15:00 AM 15.09 59.162 0.022 7.14 3.75 6.76
10/24/2020 10:30:00 AM 15.1 59.18 0.022 7.14 4.13 6.78
10/24/2020 10:45:00 AM 15.09 59.162 0.023 7.14 3.71 6.78
10/24/2020 11:00:00 AM 15.08 59.144 0.021 7.13 5.44 6.81
10/24/2020 11:15:00 AM 15.04 59.072 0.021 7.14 4.24 6.86
10/24/2020 11:30:00 AM 15.02 59.036 0.023 7.14 3.76 6.85
10/24/2020 11:45:00 AM 15 59 0.022 7.14 3.76 6.89
10/24/2020 12:00:00 PM 14.99 58.982 0.022 7.15 4.03 6.92
10/24/2020 12:15:00 PM 14.96 58.928 0.021 7.14 3.83 6.88
10/24/2020 12:30:00 PM 14.94 58.892 0.022 7.14 3.54 6.9
10/24/2020 12:45:00 PM 14.98 58.964 0.022 7.14 5.7 6.89
10/24/2020 1:00:00 PM 15.03 59.054 0.021 7.13 4.18 6.88
10/24/2020 1:15:00 PM 14.97 58.946 0.022 7.14 4.08 6.86
10/24/2020 1:30:00 PM 14.96 58.928 0.02 7.14 3.92 6.86
10/24/2020 1:45:00 PM 14.94 58.892 0.022 7.14 4.34 6.89
10/24/2020 2:00:00 PM 14.93 58.874 0.021 7.14 4.44 6.9
10/24/2020 2:15:00 PM 14.97 58.946 0.02 7.15 4.37 6.95
10/24/2020 2:30:00 PM 14.83 58.694 0.021 7.15 4.25 6.92
10/24/2020 2:45:00 PM 14.88 58.784 0.021 7.14 4.21 6.92
10/24/2020 3:00:00 PM 14.81 58.658 0.021 7.15 3.95 6.94
10/24/2020 3:15:00 PM 14.85 58.73 0.02 7.16 4.29 6.93
10/24/2020 3:30:00 PM 14.92 58.856 0.022 7.15 4.28 7.03
10/24/2020 3:45:00 PM 14.74 58.532 0.02 7.15 3.82 6.98
10/24/2020 4:00:00 PM 14.75 58.55 0.019 7.14 3.93 6.96
10/24/2020 4:15:00 PM 14.66 58.388 0.02 7.14 3.91 6.92
10/24/2020 4:30:00 PM 14.68 58.424 0.021 7.14 3.92 6.85
10/24/2020 4:45:00 PM 14.56 58.208 0.02 7.14 3.8 6.93
10/24/2020 5:00:00 PM 14.6 58.28 0.021 7.14 4.05 6.8
10/24/2020 5:15:00 PM 14.8 58.64 0.021 7.15 4.28 6.91
10/24/2020 5:30:00 PM 14.54 58.172 0.02 7.14 4.86 6.86
10/24/2020 5:45:00 PM 14.42 57.956 0.02 7.13 3.91 6.84
10/24/2020 6:00:00 PM 14.39 57.902 0.02 7.13 3.67 6.77
10/24/2020 6:15:00 PM 14.33 57.794 0.02 7.12 4.13 6.8
10/24/2020 6:30:00 PM 14.49 58.082 0.019 7.14 4.34 6.77
10/24/2020 6:45:00 PM 14.14 57.452 0.019 7.13 4.56 6.96
10/24/2020 7:00:00 PM 14.26 57.668 0.019 7.14 4.57 6.87
10/24/2020 7:15:00 PM 14.19 57.542 0.02 7.11 4.06 6.84
10/24/2020 7:30:00 PM 14.26 57.668 0.02 7.12 5.47 6.87
10/24/2020 7:45:00 PM 14.14 57.452 0.021 7.12 4.45 6.9
10/24/2020 8:00:00 PM 14.15 57.47 0.018 7.12 5.14 6.84
10/24/2020 8:15:00 PM 14.05 57.29 0.02 7.11 3.77 6.97
10/24/2020 8:30:00 PM 14.11 57.398 0.02 7.13 4.02 6.98
10/24/2020 8:45:00 PM 13.88 56.984 0.019 7.13 3.73 7.12
10/24/2020 9:00:00 PM 13.84 56.912 0.021 7.13 3.93 7.12
10/24/2020 9:15:00 PM 13.88 56.984 0.02 7.13 3.62 7.22
10/24/2020 9:30:00 PM 13.84 56.912 0.019 7.13 3.96 7.14
10/24/2020 9:45:00 PM 13.8 56.84 0.019 7.14 3.81 7.19
10/24/2020 10:00:00 PM 13.71 56.678 0.02 7.14 4.16 7.37
10/24/2020 10:15:00 PM 13.67 56.606 0.019 7.16 4.01 7.47
10/24/2020 10:30:00 PM 13.59 56.462 0.02 7.15 4 7.53
10/24/2020 10:45:00 PM 13.52 56.336 0.02 7.16 4.59 7.57
10/24/2020 11:00:00 PM 13.47 56.246 0.018 7.17 3.91 7.62
10/24/2020 11:15:00 PM 13.46 56.228 0.02 7.16 4.1 7.53
10/24/2020 11:30:00 PM 13.41 56.138 0.02 7.15 4.18 7.34
10/24/2020 11:45:00 PM 13.42 56.156 0.019 7.13 3.98 7.16
10/25/2020 12:00:00 AM 13.3 55.94 0.018 7.15 4.13 7.27
10/25/2020 12:15:00 AM 13.25 55.85 0.02 7.15 4.19 7.28
10/25/2020 12:30:00 AM 13.17 55.706 0.021 7.16 7.81 7.3
10/25/2020 12:45:00 AM 13.14 55.652 0.019 7.17 4.38 7.24
10/25/2020 1:00:00 AM 13.06 55.508 0.021 7.15 4.15 7.29
10/25/2020 1:15:00 AM 13.05 55.49 0.021 7.15 4.1 7.22
10/25/2020 1:30:00 AM 12.91 55.238 0.019 7.15 5 7.32
10/25/2020 1:45:00 AM 12.74 54.932 0.022 7.16 6.73 7.36
10/25/2020 2:00:00 AM 12.76 54.968 0.021 7.15 4.62 7.07
10/25/2020 2:15:00 AM 12.69 54.842 0.02 7.15 4.13 7.31
10/25/2020 2:30:00 AM 12.66 54.788 0.021 7.14 4.04 7.28
10/25/2020 2:45:00 AM 12.54 54.572 0.021 7.14 4.1 7.25
10/25/2020 3:00:00 AM 12.51 54.518 0.02 7.14 4.48 7.26
10/25/2020 3:15:00 AM 12.38 54.284 0.021 7.16 6.53 7.29
10/25/2020 3:30:00 AM 12.33 54.194 0.02 7.15 4.58 7.31
10/25/2020 3:45:00 AM 12.23 54.014 0.02 7.15 4.22 7.32
10/25/2020 4:00:00 AM 12.24 54.032 0.02 7.14 4.49 7.3
10/25/2020 4:15:00 AM 12.14 53.852 0.019 7.15 4.65 7.34
10/25/2020 4:30:00 AM 12.18 53.924 0.019 7.15 4.15 7.39
10/25/2020 4:45:00 AM 11.97 53.546 0.019 7.15 4.74 7.31
10/25/2020 5:00:00 AM 11.97 53.546 0.02 7.15 4.2 7.36
10/25/2020 5:15:00 AM 11.96 53.528 0.019 7.14 4.03 7.33
10/25/2020 5:30:00 AM 11.85 53.33 0.018 7.16 4.17 7.29
10/25/2020 5:45:00 AM 11.87 53.366 0.02 7.15 4.32 7.34
10/25/2020 6:00:00 AM 11.74 53.132 0.019 7.15 4.45 7.26
10/25/2020 6:15:00 AM 11.66 52.988 0.018 7.15 4.13 7.33
10/25/2020 6:30:00 AM 11.62 52.916 0.017 7.14 4.46 7.29
10/25/2020 6:45:00 AM 11.64 52.952 0.018 7.12 4.38 7.31
10/25/2020 7:00:00 AM 11.5 52.7 0.018 7.15 4.25 7.29
10/25/2020 7:15:00 AM 11.37 52.466 0.019 7.13 3.92 7.24
10/25/2020 7:30:00 AM 11.35 52.43 0.017 7.13 4.22 7.27
10/25/2020 7:45:00 AM 11.28 52.304 0.017 7.12 4.98 7.14
10/25/2020 8:00:00 AM 11.33 52.394 0.017 7.13 4.22 7.39
10/25/2020 8:15:00 AM 11.07 51.926 0.016 7.14 4.05 7.36
10/25/2020 8:30:00 AM 11.1 51.98 0.015 7.14 4.69 7.28
10/25/2020 8:45:00 AM 11.03 51.854 0.014 7.15 4.25 7.41
10/25/2020 9:00:00 AM 10.98 51.764 0.015 7.15 4.06 7.38
10/25/2020 9:15:00 AM 10.88 51.584 0.016 7.16 3.9 7.48
10/25/2020 9:30:00 AM 10.89 51.602 0.015 7.15 8.47 7.45
10/25/2020 9:45:00 AM 10.91 51.638 0.016 7.16 4.08 7.45
10/25/2020 10:00:00 AM 11.04 51.872 0.017 7.15 3.82 7.31
10/25/2020 10:15:00 AM 11.05 51.89 0.016 7.14 4.08 7.14
10/25/2020 10:30:00 AM 10.67 51.206 0.015 7.15 4.92 7.51
10/25/2020 10:45:00 AM 10.75 51.35 0.016 7.15 4.46 7.46
10/25/2020 11:00:00 AM 10.73 51.314 0.016 7.16 3.98 7.52
10/25/2020 11:15:00 AM 10.78 51.404 0.015 7.17 3.73 7.55
10/25/2020 11:30:00 AM 10.71 51.278 0.016 7.16 3.87 7.64
10/25/2020 11:45:00 AM 10.75 51.35 0.017 7.16 3.96 7.71
10/25/2020 12:00:00 PM 10.73 51.314 0.017 7.16 3.97 7.8
10/25/2020 12:15:00 PM 10.67 51.206 0.016 7.18 3.52 7.94
10/25/2020 12:30:00 PM 10.85 51.53 0.016 7.18 4.15 7.92
10/25/2020 12:45:00 PM 10.91 51.638 0.017 7.19 3.47 7.89
10/25/2020 1:00:00 PM 10.89 51.602 0.017 7.19 3.54 7.92
10/25/2020 1:15:00 PM 10.92 51.656 0.019 7.19 3.63 7.98
10/25/2020 1:30:00 PM 10.94 51.692 0.018 7.18 3.51 7.94
10/25/2020 1:45:00 PM 10.96 51.728 0.019 7.18 3.63 7.97
10/25/2020 2:00:00 PM 10.97 51.746 0.019 7.19 3.78 8.01
10/25/2020 2:15:00 PM 11.06 51.908 0.018 7.2 3.47 8.05
10/25/2020 2:30:00 PM 10.91 51.638 0.018 7.2 3.33 8.06
10/25/2020 2:45:00 PM 11 51.8 0.018 7.22 3.28 8.08
10/25/2020 3:00:00 PM 11.01 51.818 0.018 7.2 3.43 8.17
10/25/2020 3:15:00 PM 10.96 51.728 0.018 7.21 3.49 8.21
10/25/2020 3:30:00 PM 10.82 51.476 0.018 7.21 3.52 8.45
10/25/2020 3:45:00 PM 11.12 52.016 0.019 7.21 3.66 8.49
10/25/2020 4:00:00 PM 11.18 52.124 0.018 7.21 4.93 8.32
10/25/2020 4:15:00 PM 11.15 52.07 0.018 7.22 5.25 8.64
10/25/2020 4:30:00 PM 11.06 51.908 0.019 7.25 4.2 9.17
10/25/2020 4:45:00 PM 10.97 51.746 0.019 7.28 3.52 9.59
10/25/2020 5:00:00 PM 11.14 52.052 0.018 7.29 3.48 8.32
10/25/2020 5:15:00 PM 11.34 52.412 0.018 7.32 4.06 9.83
10/25/2020 5:30:00 PM 11.41 52.538 0.019 7.35 3.41 10.13
10/25/2020 5:45:00 PM 11.44 52.592 0.019 7.36 3.75 10.24
10/25/2020 6:00:00 PM 11.46 52.628 0.019 7.36 4.25 10.27
10/25/2020 6:15:00 PM 11.52 52.736 0.019 7.38 3.69 10.35
10/25/2020 6:30:00 PM 11.53 52.754 0.019 7.38 3.44 10.32
10/25/2020 6:45:00 PM 11.08 51.944 0.019 7.33 3.38 9.57
10/25/2020 7:00:00 PM 11.33 52.394 0.019 7.36 3 10.22
10/25/2020 7:15:00 PM 11.37 52.466 0.019 7.39 3.12 10.21
10/25/2020 7:30:00 PM 11.37 52.466 0.02 7.37 3.33 10.2
10/25/2020 7:45:00 PM 11.36 52.448 0.02 7.39 3.5 10.11
10/25/2020 8:00:00 PM 11.32 52.376 0.021 7.39 3.44 10.06
10/25/2020 8:15:00 PM 11.28 52.304 0.02 7.38 3.25 10
10/25/2020 8:30:00 PM 11.23 52.214 0.019 7.38 3.21 9.94
10/25/2020 8:45:00 PM 11.18 52.124 0.02 7.37 3.03 9.9
10/25/2020 9:00:00 PM 11.13 52.034 0.02 7.36 3.15 9.85
10/25/2020 9:15:00 PM 11.09 51.962 0.018 7.36 3.2 9.79
10/25/2020 9:30:00 PM 11.05 51.89 0.02 7.35 3.28 9.76
10/25/2020 9:45:00 PM 11 51.8 0.02 7.35 3.11 9.75
10/25/2020 10:00:00 PM 10.96 51.728 0.02 7.34 3.03 9.68
10/25/2020 10:15:00 PM 10.92 51.656 0.019 7.34 3.21 9.68
10/25/2020 10:30:00 PM 10.91 51.638 0.021 7.34 3.18 9.63
10/25/2020 10:45:00 PM 10.87 51.566 0.018 7.33 3.19 9.59
10/25/2020 11:00:00 PM 10.84 51.512 0.018 7.32 3.14 9.56
10/25/2020 11:15:00 PM 10.81 51.458 0.018 7.32 3.27 9.53
10/25/2020 11:30:00 PM 10.76 51.368 0.019 7.32 3.33 9.52
10/25/2020 11:45:00 PM 10.73 51.314 0.019 7.32 3.33 9.49
10/26/2020 12:00:00 AM 10.7 51.26 0.02 7.31 3.65 9.44
10/26/2020 12:15:00 AM 10.66 51.188 0.019 7.3 3.45 9.38
10/26/2020 12:30:00 AM 10.62 51.116 0.02 7.29 3.53 9.33
10/26/2020 12:45:00 AM 10.6 51.08 0.02 7.29 3.3 9.29
10/26/2020 1:00:00 AM 10.57 51.026 0.02 7.29 3.31 9.3
10/26/2020 1:15:00 AM 10.54 50.972 0.02 7.29 3.78 9.26
10/26/2020 1:30:00 AM 10.51 50.918 0.019 7.28 3.45 9.26
10/26/2020 1:45:00 AM 10.48 50.864 0.022 7.29 3.52 9.3
10/26/2020 2:00:00 AM 10.45 50.81 0.019 7.28 3.3 9.28
10/26/2020 2:15:00 AM 10.44 50.792 0.019 7.28 3.26 9.23
10/26/2020 2:30:00 AM 10.42 50.756 0.021 7.27 3.32 9.21
10/26/2020 2:45:00 AM 10.4 50.72 0.021 7.27 3.53 9.17
10/26/2020 3:00:00 AM 10.38 50.684 0.02 7.26 3.39 9.19
10/26/2020 3:15:00 AM 10.37 50.666 0.022 7.26 3.26 9.14
10/26/2020 3:30:00 AM 10.35 50.63 0.02 7.26 3.36 9.1
10/26/2020 3:45:00 AM 10.34 50.612 0.021 7.25 3.56 9.09
10/26/2020 4:00:00 AM 10.33 50.594 0.02 7.25 3.38 9.06
10/26/2020 4:15:00 AM 10.3 50.54 0.02 7.25 3.64 9
10/26/2020 4:30:00 AM 10.27 50.486 0.021 7.25 3.54 9
10/26/2020 4:45:00 AM 10.26 50.468 0.022 7.24 3.62 8.98
10/26/2020 5:00:00 AM 10.24 50.432 0.021 7.24 3.62 8.98
10/26/2020 5:15:00 AM 10.22 50.396 0.02 7.25 3.46 8.95
10/26/2020 5:30:00 AM 10.21 50.378 0.022 7.24 3.57 8.93
10/26/2020 5:45:00 AM 10.18 50.324 0.021 7.25 3.57 8.9
10/26/2020 6:00:00 AM 10.16 50.288 0.023 7.23 3.37 8.9
10/26/2020 6:15:00 AM 10.13 50.234 0.02 7.23 3.25 8.9
10/26/2020 6:30:00 AM 10.12 50.216 0.023 7.22 3.33 8.87
10/26/2020 6:45:00 AM 10.1 50.18 0.02 7.22 3.41 8.85
10/26/2020 7:00:00 AM 10.09 50.162 0.021 7.22 3.37 8.83
10/26/2020 7:15:00 AM 10.07 50.126 0.02 7.22 3.62 8.84
10/26/2020 7:30:00 AM 10.06 50.108 0.021 7.22 3.48 8.82
10/26/2020 7:45:00 AM 10.05 50.09 0.02 7.21 3.3 8.79
10/26/2020 8:00:00 AM 10.04 50.072 0.022 7.21 3.7 8.8
10/26/2020 8:15:00 AM 10.03 50.054 0.023 7.21 3.51 8.77
10/26/2020 8:30:00 AM 10.02 50.036 0.021 7.21 3.4 8.77
10/26/2020 8:45:00 AM 10.01 50.018 0.022 7.22 3.47 8.75
10/26/2020 9:00:00 AM 10 50 0.021 7.22 3.32 8.8
10/26/2020 9:15:00 AM 9.99 49.982 0.021 7.21 3.28 8.79
10/26/2020 9:30:00 AM 9.98 49.964 0.022 7.21 3.5 8.79
10/26/2020 9:45:00 AM 10.02 50.036 0.021 7.21 4.06 8.85
10/26/2020 10:00:00 AM 9.99 49.982 0.022 7.2 4.01 8.8
10/26/2020 10:15:00 AM 10 50 0.021 7.2 4.28 8.75
10/26/2020 10:30:00 AM 10 50 0.021 7.2 3.5 8.72
10/26/2020 10:45:00 AM 9.99 49.982 0.022 7.2 3.42 8.71
10/26/2020 11:00:00 AM 10.01 50.018 0.023 7.2 3.53 8.67
10/26/2020 11:15:00 AM 10.02 50.036 0.021 7.2 3.11 8.68
10/26/2020 11:30:00 AM 10.08 50.144 0.022 7.2 3.33 8.74
10/26/2020 11:45:00 AM 10.05 50.09 0.021 7.2 3.45 8.69
10/26/2020 12:00:00 PM 10.06 50.108 0.022 7.2 3.22 8.69
10/26/2020 12:15:00 PM 10.18 50.324 0.021 7.23 3.49 8.88
10/26/2020 12:30:00 PM 10.22 50.396 0.022 7.23 3.76 8.94
10/26/2020 12:45:00 PM 10.21 50.378 0.021 7.23 4.51 8.93
10/26/2020 1:00:00 PM 10.21 50.378 0.022 7.22 3.95 8.91
10/26/2020 1:15:00 PM 10.2 50.36 0.023 7.21 3.65 8.84
10/26/2020 1:30:00 PM 10.25 50.45 0.022 7.23 3.94 8.91
10/26/2020 1:45:00 PM 10.24 50.432 0.023 7.22 3.92 8.84
10/26/2020 2:00:00 PM 10.18 50.324 0.023 7.21 3.62 8.89
10/26/2020 2:15:00 PM 10.15 50.27 0.023 7.2 3.76 8.77
10/26/2020 2:30:00 PM 10.19 50.342 0.023 7.21 3.62 8.76
10/26/2020 2:45:00 PM 10.14 50.252 0.024 7.19 3.63 8.77
10/26/2020 3:00:00 PM 10.3 50.54 0.023 7.22 3.85 8.84
10/26/2020 3:15:00 PM 10.33 50.594 0.025 7.21 4.08 8.84
10/26/2020 3:30:00 PM 10.37 50.666 0.025 7.22 4.06 8.84
10/26/2020 3:45:00 PM 10.37 50.666 0.025 7.22 4 8.92
10/26/2020 4:00:00 PM 10.38 50.684 0.024 7.22 3.6 8.94
10/26/2020 4:15:00 PM 10.41 50.738 0.025 7.23 3.74 8.96
10/26/2020 4:30:00 PM 10.45 50.81 0.025 7.23 10.17 8.99
10/26/2020 4:45:00 PM 10.43 50.774 0.025 7.22 3.79 9.01
10/26/2020 5:00:00 PM 10.41 50.738 0.025 7.22 3.66 8.96
10/26/2020 5:15:00 PM 10.42 50.756 0.025 7.21 3.59 8.99
10/26/2020 5:30:00 PM 10.42 50.756 0.025 7.21 3.8 8.89
10/26/2020 5:45:00 PM 10.43 50.774 0.026 7.22 3.5 8.98
10/26/2020 6:00:00 PM 10.46 50.828 0.025 7.22 3.52 9.04
10/26/2020 6:15:00 PM 10.49 50.882 0.026 7.25 3.51 9.31
10/26/2020 6:30:00 PM 10.48 50.864 0.025 7.24 4.4 9.27
10/26/2020 6:45:00 PM 10.44 50.792 0.025 7.26 4.43 9.12
10/26/2020 7:00:00 PM 10.49 50.882 0.026 7.24 4.2 9.28
10/26/2020 7:15:00 PM 10.45 50.81 0.025 7.21 4.59 9.19
10/26/2020 7:30:00 PM 10.39 50.702 0.026 7.19 4.73 8.83
10/26/2020 7:45:00 PM 10.5 50.9 0.025 7.21 4.35 9.19
10/26/2020 8:00:00 PM 10.52 50.936 0.025 7.2 4.14 9.22
10/26/2020 8:15:00 PM 10.44 50.792 0.026 7.2 4.21 9.19
10/26/2020 8:30:00 PM 10.4 50.72 0.023 7.19 4.75 8.98
10/26/2020 8:45:00 PM 10.36 50.648 0.025 7.18 4.54 8.81
10/26/2020 9:00:00 PM 10.32 50.576 0.025 7.18 5.15 8.48
10/26/2020 9:15:00 PM 10.37 50.666 0.025 7.17 5.23 8.91
10/26/2020 9:30:00 PM 10.26 50.468 0.027 7.17 5 8.46
10/26/2020 9:45:00 PM 10.27 50.486 0.025 7.17 4.62 8.38
10/26/2020 10:00:00 PM 10.3 50.54 0.027 7.18 4.33 8.67
10/26/2020 10:15:00 PM 10.32 50.576 0.024 7.18 4.51 8.43
10/26/2020 10:30:00 PM 10.38 50.684 0.026 7.19 4.15 8.78
10/26/2020 10:45:00 PM 10.33 50.594 0.026 7.17 4.79 8.54
10/26/2020 11:00:00 PM 10.4 50.72 0.027 7.17 4.21 8.67
10/26/2020 11:15:00 PM 10.56 51.008 0.026 7.21 3.74 9.03
10/26/2020 11:30:00 PM 10.53 50.954 0.026 7.22 4.18 9.02
10/26/2020 11:45:00 PM 10.62 51.116 0.025 7.22 3.94 9
10/27/2020 12:00:00 AM 10.58 51.044 0.025 7.23 3.51 8.97
10/27/2020 12:15:00 AM 10.62 51.116 0.026 7.23 3.68 8.93
10/27/2020 12:30:00 AM 10.62 51.116 0.026 7.23 3.19 8.93
10/27/2020 12:45:00 AM 10.62 51.116 0.025 7.23 3.32 8.9
10/27/2020 1:00:00 AM 10.61 51.098 0.026 7.23 3.5 8.85
10/27/2020 1:15:00 AM 10.61 51.098 0.025 7.22 3.21 8.81
10/27/2020 1:30:00 AM 10.6 51.08 0.027 7.22 3.33 8.76
10/27/2020 1:45:00 AM 10.57 51.026 0.026 7.22 3.11 8.74
10/27/2020 2:00:00 AM 10.56 51.008 0.027 7.21 3.22 8.69
10/27/2020 2:15:00 AM 10.54 50.972 0.027 7.21 3.23 8.66
10/27/2020 2:30:00 AM 10.52 50.936 0.027 7.2 3.38 8.64
10/27/2020 2:45:00 AM 10.51 50.918 0.027 7.2 3.22 8.6
10/27/2020 3:00:00 AM 10.49 50.882 0.027 7.2 3.35 8.6
10/27/2020 3:15:00 AM 10.47 50.846 0.026 7.2 3.36 8.59
10/27/2020 3:30:00 AM 10.45 50.81 0.026 7.2 3.31 8.55
10/27/2020 3:45:00 AM 10.43 50.774 0.027 7.19 3.35 8.56
10/27/2020 4:00:00 AM 10.42 50.756 0.028 7.19 3.35 8.53
10/27/2020 4:15:00 AM 10.4 50.72 0.026 7.19 3.24 8.5
10/27/2020 4:30:00 AM 10.38 50.684 0.026 7.19 3.18 8.49
10/27/2020 4:45:00 AM 10.36 50.648 0.027 7.19 3.31 8.49
10/27/2020 5:00:00 AM 10.34 50.612 0.028 7.18 3.48 8.39
10/27/2020 5:15:00 AM 10.32 50.576 0.027 7.18 3.28 8.44
10/27/2020 5:30:00 AM 10.29 50.522 0.026 7.18 3.37 8.41
10/27/2020 5:45:00 AM 10.27 50.486 0.027 7.18 3.45 8.41
10/27/2020 6:00:00 AM 10.25 50.45 0.028 7.18 3.42 8.41
10/27/2020 6:15:00 AM 10.24 50.432 0.027 7.18 3.38 8.44
10/27/2020 6:30:00 AM 10.21 50.378 0.028 7.18 3.48 8.4
10/27/2020 6:45:00 AM 10.2 50.36 0.026 7.17 3.37 8.39
10/27/2020 7:00:00 AM 10.18 50.324 0.026 7.18 4.53 8.42
10/27/2020 7:15:00 AM 10.16 50.288 0.027 7.18 3.61 8.5
10/27/2020 7:30:00 AM 10.14 50.252 0.027 7.18 3.45 8.46
10/27/2020 7:45:00 AM 10.11 50.198 0.027 7.18 3.66 8.48
10/27/2020 8:00:00 AM 10.1 50.18 0.027 7.19 3.36 8.48
10/27/2020 8:15:00 AM 10.09 50.162 0.027 7.19 3.42 8.48
10/27/2020 8:30:00 AM 10.08 50.144 0.027 7.18 3.37 8.48
10/27/2020 8:45:00 AM 10.08 50.144 0.028 7.19 3.75 8.5
10/27/2020 9:00:00 AM 10.07 50.126 0.028 7.19 3.5 8.51
10/27/2020 9:15:00 AM 10.06 50.108 0.027 7.19 3.5 8.53
10/27/2020 9:30:00 AM 10.05 50.09 0.026 7.19 3.31 8.54
10/27/2020 9:45:00 AM 10.04 50.072 0.026 7.19 3.54 8.55
10/27/2020 10:00:00 AM 10.04 50.072 0.028 7.19 3.25 8.57
10/27/2020 10:15:00 AM 10.04 50.072 0.028 7.19 3.27 8.56
10/27/2020 10:30:00 AM 10.04 50.072 0.027 7.19 3.34 8.55
10/27/2020 10:45:00 AM 10.05 50.09 0.027 7.18 3.37 8.59
10/27/2020 11:00:00 AM 10.07 50.126 0.028 7.19 3.57 8.62
10/27/2020 11:15:00 AM 10.07 50.126 0.029 7.19 3.57 8.64
10/27/2020 11:30:00 AM 10.09 50.162 0.026 7.19 3.58 8.67
10/27/2020 11:45:00 AM 10.12 50.216 0.027 7.19 3.44 8.7
10/27/2020 12:00:00 PM -99999.99 -179968 -99999.99 -99999.99 -99999.99 -99999.99
10/27/2020 12:15:00 PM 10.26 50.468 0.248 7.21 3.09 8.65
10/27/2020 12:30:00 PM 10.25 50.45 0.246 7.18 2.87 8.65
10/27/2020 12:45:00 PM 10.25 50.45 0.244 7.17 3.04 8.72
10/27/2020 1:00:00 PM 10.29 50.522 0.244 7.17 2.98 8.74
10/27/2020 1:15:00 PM 10.35 50.63 0.243 7.17 2.89 8.81
10/27/2020 1:30:00 PM 10.36 50.648 0.241 7.18 2.78 8.87
10/27/2020 1:45:00 PM 10.41 50.738 0.241 7.2 2.84 8.9
10/27/2020 2:00:00 PM 10.46 50.828 0.24 7.21 2.73 8.96
10/27/2020 2:15:00 PM 10.49 50.882 0.239 7.23 2.8 9.01
10/27/2020 2:30:00 PM 10.5 50.9 0.239 7.24 2.81 9.03
10/27/2020 2:45:00 PM 10.55 50.99 0.235 7.26 2.64 9.34
10/27/2020 3:00:00 PM 10.58 51.044 0.234 7.29 2.73 9.47
10/27/2020 3:15:00 PM 10.63 51.134 0.233 7.31 2.67 9.65
10/27/2020 3:30:00 PM 10.69 51.242 0.232 7.32 2.71 9.75
10/27/2020 3:45:00 PM 10.75 51.35 0.232 7.33 2.65 9.86
10/27/2020 4:00:00 PM 10.8 51.44 0.231 7.34 2.68 9.96
10/27/2020 4:15:00 PM 10.84 51.512 0.231 7.36 2.65 10.02
10/27/2020 4:30:00 PM 10.86 51.548 0.232 7.36 2.66 10.09
10/27/2020 4:45:00 PM 10.83 51.494 0.234 7.37 2.62 10.04
10/27/2020 5:00:00 PM 10.86 51.548 0.233 7.37 2.59 10.07
10/27/2020 5:15:00 PM 10.81 51.458 0.236 7.38 2.62 9.93
10/27/2020 5:30:00 PM 10.72 51.296 0.242 7.36 2.69 9.45
10/27/2020 5:45:00 PM 10.76 51.368 0.236 7.37 2.72 9.62
10/27/2020 6:00:00 PM 10.71 51.278 0.242 7.37 2.67 9.45
10/27/2020 6:15:00 PM 10.96 51.728 0.232 7.4 6.65 10.2
10/27/2020 6:30:00 PM 10.78 51.404 0.239 7.36 4.08 9.56
10/27/2020 6:45:00 PM 10.75 51.35 0.241 7.36 4.69 9.53
10/27/2020 7:00:00 PM 10.85 51.53 0.237 7.39 3.49 10.02
10/27/2020 7:15:00 PM 10.82 51.476 0.236 7.39 2.93 9.87
10/27/2020 7:30:00 PM 10.79 51.422 0.242 7.39 3.14 9.53
10/27/2020 7:45:00 PM 10.89 51.602 0.23 7.41 3.2 10.12
10/27/2020 8:00:00 PM 10.86 51.548 0.231 7.4 3.08 10.09
10/27/2020 8:15:00 PM 10.85 51.53 0.229 7.39 3.22 10.12
10/27/2020 8:30:00 PM 10.84 51.512 0.229 7.39 4.66 10.13
10/27/2020 8:45:00 PM 10.81 51.458 0.23 7.38 3.24 9.98
10/27/2020 9:00:00 PM 10.79 51.422 0.229 7.38 3.22 9.97
10/27/2020 9:15:00 PM 10.77 51.386 0.229 7.37 3.04 9.91
10/27/2020 9:30:00 PM 10.72 51.296 0.23 7.36 3.22 9.85
10/27/2020 9:45:00 PM 10.69 51.242 0.23 7.35 3.24 9.77
10/27/2020 10:00:00 PM 10.66 51.188 0.23 7.34 3.22 9.74
10/27/2020 10:15:00 PM 10.64 51.152 0.23 7.34 3.33 9.69
10/27/2020 10:30:00 PM 10.61 51.098 0.23 7.33 3.52 9.64
10/27/2020 10:45:00 PM 10.6 51.08 0.23 7.33 3.75 9.6
10/27/2020 11:00:00 PM 10.56 51.008 0.229 7.33 3.29 9.58
10/27/2020 11:15:00 PM 10.54 50.972 0.23 7.33 3.31 9.55
10/27/2020 11:30:00 PM 10.53 50.954 0.23 7.32 3.37 9.51
10/27/2020 11:45:00 PM 10.51 50.918 0.229 7.32 3.28 9.48
10/28/2020 12:00:00 AM 10.49 50.882 0.23 7.32 3.44 9.44
10/28/2020 12:15:00 AM 10.47 50.846 0.23 7.31 3.39 9.42
10/28/2020 12:30:00 AM 10.45 50.81 0.23 7.31 3.23 9.4
10/28/2020 12:45:00 AM 10.44 50.792 0.229 7.31 3.49 9.38
10/28/2020 1:00:00 AM 10.41 50.738 0.23 7.31 3.47 9.35
10/28/2020 1:15:00 AM 10.4 50.72 0.23 7.3 3.55 9.33
10/28/2020 1:30:00 AM 10.37 50.666 0.229 7.3 3.74 9.31
10/28/2020 1:45:00 AM 10.37 50.666 0.229 7.3 3.46 9.3
10/28/2020 2:00:00 AM 10.34 50.612 0.229 7.3 3.37 9.28
10/28/2020 2:15:00 AM 10.33 50.594 0.229 7.3 3.32 9.27
10/28/2020 2:30:00 AM 10.31 50.558 0.229 7.29 3.3 9.26
10/28/2020 2:45:00 AM 10.28 50.504 0.228 7.29 3.29 9.26
10/28/2020 3:00:00 AM 10.27 50.486 0.228 7.29 3.25 9.25
10/28/2020 3:15:00 AM 10.25 50.45 0.228 7.29 3.33 9.25
10/28/2020 3:30:00 AM 10.24 50.432 0.228 7.29 3.41 9.24
10/28/2020 3:45:00 AM 10.21 50.378 0.228 7.29 4.37 9.23
10/28/2020 4:00:00 AM 10.2 50.36 0.228 7.29 3.16 9.22
10/28/2020 4:15:00 AM 10.18 50.324 0.227 7.29 3.23 9.22
10/28/2020 4:30:00 AM 10.16 50.288 0.227 7.29 3.57 9.21
10/28/2020 4:45:00 AM 10.14 50.252 0.227 7.28 3.27 9.2
10/28/2020 5:00:00 AM 10.13 50.234 0.227 7.28 3.33 9.18
10/28/2020 5:15:00 AM 10.11 50.198 0.226 7.28 3.28 9.19
10/28/2020 5:30:00 AM 10.11 50.198 0.226 7.27 3.21 9.16
10/28/2020 5:45:00 AM 10.09 50.162 0.226 7.27 3.33 9.15
10/28/2020 6:00:00 AM 10.06 50.108 0.226 7.27 3.36 9.17
10/28/2020 6:15:00 AM 10.05 50.09 0.226 7.27 4.69 9.16
10/28/2020 6:30:00 AM 10.04 50.072 0.225 7.27 4.57 9.16
10/28/2020 6:45:00 AM 10.01 50.018 0.225 7.27 4.89 9.17
10/28/2020 7:00:00 AM 9.98 49.964 0.225 7.27 3.79 9.18
10/28/2020 7:15:00 AM 9.96 49.928 0.224 7.27 3.48 9.19
10/28/2020 7:30:00 AM 9.94 49.892 0.224 7.27 3.54 9.18
10/28/2020 7:45:00 AM 9.93 49.874 0.224 7.26 3.35 9.15
10/28/2020 8:00:00 AM 9.91 49.838 0.224 7.26 3.34 9.15
10/28/2020 8:15:00 AM 9.9 49.82 0.223 7.26 3.33 9.17
10/28/2020 8:30:00 AM 9.89 49.802 0.223 7.25 3.31 9.15
10/28/2020 8:45:00 AM 9.88 49.784 0.223 7.25 3.43 9.15
10/28/2020 9:00:00 AM 9.87 49.766 0.223 7.25 3.41 9.17
10/28/2020 9:15:00 AM 9.86 49.748 0.222 7.26 3.41 9.16
10/28/2020 9:30:00 AM 9.87 49.766 0.222 7.25 3.4 9.19
10/28/2020 9:45:00 AM 9.86 49.748 0.222 7.25 3.34 9.22
10/28/2020 10:00:00 AM 9.87 49.766 0.222 7.25 3.39 9.23
10/28/2020 10:15:00 AM 9.86 49.748 0.222 7.25 3.25 9.25
10/28/2020 10:30:00 AM 9.88 49.784 0.222 7.25 3.33 9.26
10/28/2020 10:45:00 AM 9.88 49.784 0.222 7.25 3.34 9.29
10/28/2020 11:00:00 AM 9.88 49.784 0.222 7.26 3.21 9.29
10/28/2020 11:15:00 AM 9.89 49.802 0.222 7.26 3.41 9.31
10/28/2020 11:30:00 AM 9.9 49.82 0.222 7.26 3.24 9.35
10/28/2020 11:45:00 AM 9.92 49.856 0.222 7.26 3.3 9.38
10/28/2020 12:00:00 PM 9.94 49.892 0.222 7.26 3.27 9.41
10/28/2020 12:15:00 PM 9.99 49.982 0.223 7.26 3.17 9.49
10/28/2020 12:30:00 PM 10.04 50.072 0.223 7.28 3.36 9.58
10/28/2020 12:45:00 PM 10.08 50.144 0.224 7.28 3.37 9.67
10/28/2020 1:00:00 PM 10.13 50.234 0.224 7.28 3.28 9.72
10/28/2020 1:15:00 PM 10.16 50.288 0.224 7.29 3.25 9.78
10/28/2020 1:30:00 PM 10.2 50.36 0.225 7.31 3.34 9.86
10/28/2020 1:45:00 PM 10.26 50.468 0.225 7.32 3.25 9.88
10/28/2020 2:00:00 PM 10.32 50.576 0.225 7.34 3.19 10.01
10/28/2020 2:15:00 PM 10.39 50.702 0.226 7.35 3.15 10.11
10/28/2020 2:30:00 PM 10.48 50.864 0.226 7.36 3.22 10.16
10/28/2020 2:45:00 PM 10.54 50.972 0.226 7.38 3.26 10.26
10/28/2020 3:00:00 PM 10.59 51.062 0.227 7.38 3.1 10.31
10/28/2020 3:15:00 PM 10.64 51.152 0.227 7.39 3.06 10.37
10/28/2020 3:30:00 PM 10.69 51.242 0.227 7.41 3.06 10.42
10/28/2020 3:45:00 PM 10.73 51.314 0.227 7.41 3.13 10.47
10/28/2020 4:00:00 PM 10.78 51.404 0.227 7.42 3.03 10.52
10/28/2020 4:15:00 PM 10.81 51.458 0.228 7.43 3.09 10.57
10/28/2020 4:30:00 PM 10.84 51.512 0.228 7.44 3.11 10.6
10/28/2020 4:45:00 PM 10.85 51.53 0.228 7.45 3.07 10.63
10/28/2020 5:00:00 PM 10.87 51.566 0.228 7.46 3.09 10.67
10/28/2020 5:15:00 PM 10.89 51.602 0.228 7.47 3.17 10.7
10/28/2020 5:30:00 PM 10.9 51.62 0.228 7.48 3.21 10.73
10/28/2020 5:45:00 PM 10.91 51.638 0.228 7.48 3.11 10.74
10/28/2020 6:00:00 PM 10.9 51.62 0.228 7.49 3.08 10.74
10/28/2020 6:15:00 PM 10.88 51.584 0.228 7.49 3.1 10.73
10/28/2020 6:30:00 PM 10.85 51.53 0.228 7.49 3.14 10.72
10/28/2020 6:45:00 PM 10.82 51.476 0.228 7.49 3.48 10.7
10/28/2020 7:00:00 PM 10.8 51.44 0.229 7.5 3.4 10.67
10/28/2020 7:15:00 PM 10.77 51.386 0.229 7.49 4.03 10.63
10/28/2020 7:30:00 PM 10.74 51.332 0.229 7.48 3.65 10.6
10/28/2020 7:45:00 PM 10.74 51.332 0.229 7.48 3.91 10.57
10/28/2020 8:00:00 PM 10.69 51.242 0.229 7.48 4.66 10.52
10/28/2020 8:15:00 PM 10.65 51.17 0.229 7.46 3.8 10.49
10/28/2020 8:30:00 PM 10.59 51.062 0.229 7.45 3.54 10.44
10/28/2020 8:45:00 PM 10.54 50.972 0.229 7.44 3.61 10.39
10/28/2020 9:00:00 PM 10.49 50.882 0.229 7.43 3.75 10.34
10/28/2020 9:15:00 PM 10.42 50.756 0.229 7.44 3.71 10.28
10/28/2020 9:30:00 PM 10.37 50.666 0.229 7.4 3.88 10.23
10/28/2020 9:45:00 PM 10.3 50.54 0.229 7.39 3.68 10.2
10/28/2020 10:00:00 PM 10.23 50.414 0.229 7.39 3.79 10.16
10/28/2020 10:15:00 PM 10.19 50.342 0.229 7.38 3.93 10.12
10/28/2020 10:30:00 PM 10.13 50.234 0.229 7.37 3.72 10.09
10/28/2020 10:45:00 PM 10.08 50.144 0.229 7.35 3.71 10.04
10/28/2020 11:00:00 PM 10.04 50.072 0.23 7.37 4.31 10.04
10/28/2020 11:15:00 PM 10.02 50.036 0.23 7.4 3.63 10.01
10/28/2020 11:30:00 PM 9.99 49.982 0.23 7.39 4.37 9.97
10/28/2020 11:45:00 PM 9.94 49.892 0.23 7.4 3.85 9.95
10/29/2020 12:00:00 AM 9.92 49.856 0.23 7.39 3.71 9.93
10/29/2020 12:15:00 AM 9.9 49.82 0.23 7.38 3.66 9.91
10/29/2020 12:30:00 AM 9.87 49.766 0.23 7.39 3.79 9.89
10/29/2020 12:45:00 AM 9.83 49.694 0.23 7.39 3.75 9.87
10/29/2020 1:00:00 AM 9.81 49.658 0.23 7.39 4.02 9.86
10/29/2020 1:15:00 AM 9.78 49.604 0.231 7.38 4.02 9.84
10/29/2020 1:30:00 AM 9.73 49.514 0.231 7.37 3.78 9.81
10/29/2020 1:45:00 AM 9.71 49.478 0.231 7.37 5.35 9.79
10/29/2020 2:00:00 AM 9.68 49.424 0.231 7.37 4.08 9.8
10/29/2020 2:15:00 AM 9.66 49.388 0.231 7.37 3.76 9.78
10/29/2020 2:30:00 AM 9.64 49.352 0.231 7.36 3.83 9.76
10/29/2020 2:45:00 AM 9.61 49.298 0.231 7.36 3.85 9.75
10/29/2020 3:00:00 AM 9.57 49.226 0.231 7.35 3.82 9.74
10/29/2020 3:15:00 AM 9.54 49.172 0.232 7.34 3.71 9.73
10/29/2020 3:30:00 AM 9.51 49.118 0.232 7.34 3.69 9.73
10/29/2020 3:45:00 AM 9.49 49.082 0.232 7.34 3.73 9.72
10/29/2020 4:00:00 AM 9.48 49.064 0.232 7.34 3.86 9.71
10/29/2020 4:15:00 AM 9.45 49.01 0.232 7.34 4.18 9.7
10/29/2020 4:30:00 AM 9.42 48.956 0.232 7.34 5.55 9.7
10/29/2020 4:45:00 AM 9.41 48.938 0.233 7.35 4.07 9.68
10/29/2020 5:00:00 AM 9.39 48.902 0.233 7.35 3.9 9.67
10/29/2020 5:15:00 AM 9.37 48.866 0.233 7.34 4.18 9.67
10/29/2020 5:30:00 AM 9.34 48.812 0.233 7.35 5.61 9.67
10/29/2020 5:45:00 AM 9.32 48.776 0.234 7.35 3.74 9.66
10/29/2020 6:00:00 AM 9.3 48.74 0.234 7.35 3.88 9.66
10/29/2020 6:15:00 AM 9.27 48.686 0.234 7.34 3.92 9.66
10/29/2020 6:30:00 AM 9.26 48.668 0.234 7.35 3.9 9.66
10/29/2020 6:45:00 AM 9.25 48.65 0.235 7.35 3.92 9.65
10/29/2020 7:00:00 AM 9.23 48.614 0.235 7.35 3.96 9.66
10/29/2020 7:15:00 AM 9.2 48.56 0.235 7.34 64.44 9.66
10/29/2020 7:30:00 AM 9.19 48.542 0.235 7.35 3.9 9.66
10/29/2020 7:45:00 AM 9.17 48.506 0.235 7.35 3.85 9.65
10/29/2020 8:00:00 AM 9.15 48.47 0.235 7.35 3.8 9.68
10/29/2020 8:15:00 AM 9.13 48.434 0.236 7.35 3.88 9.68
10/29/2020 8:30:00 AM 9.12 48.416 0.236 7.35 3.8 9.7
10/29/2020 8:45:00 AM 9.1 48.38 0.236 7.35 3.81 9.71
10/29/2020 9:00:00 AM 9.09 48.362 0.236 7.34 3.76 9.72
10/29/2020 9:15:00 AM 9.08 48.344 0.236 7.35 3.93 9.73
10/29/2020 9:30:00 AM 9.08 48.344 0.236 7.34 3.77 9.73
10/29/2020 9:45:00 AM 9.07 48.326 0.236 7.35 3.79 9.75
10/29/2020 10:00:00 AM 9.05 48.29 0.236 7.36 3.79 9.76
10/29/2020 10:15:00 AM 9.03 48.254 0.236 7.37 3.74 9.81
10/29/2020 10:30:00 AM 9 48.2 0.236 7.38 3.73 9.89
10/29/2020 10:45:00 AM 9 48.2 0.236 7.39 3.77 9.9
10/29/2020 11:00:00 AM 9 48.2 0.236 7.39 3.87 9.94
10/29/2020 11:15:00 AM 8.97 48.146 0.235 7.39 3.99 10
10/29/2020 11:30:00 AM 8.97 48.146 0.235 7.4 3.87 10.05
10/29/2020 11:45:00 AM 8.96 48.128 0.234 7.41 3.84 10.1
10/29/2020 12:00:00 PM 8.95 48.11 0.234 7.42 4.03 10.16
10/29/2020 12:15:00 PM 8.95 48.11 0.233 7.42 4.02 10.19
10/29/2020 12:30:00 PM 8.95 48.11 0.233 7.43 4.03 10.24
10/29/2020 12:45:00 PM 8.95 48.11 0.232 7.44 4.35 10.28
10/29/2020 1:00:00 PM 8.94 48.092 0.232 7.44 4.1 10.32
10/29/2020 1:15:00 PM 8.94 48.092 0.231 7.46 4.03 10.38
10/29/2020 1:30:00 PM 8.94 48.092 0.23 7.45 4.14 10.44
10/29/2020 1:45:00 PM 8.95 48.11 0.229 7.46 4.38 10.47
10/29/2020 2:00:00 PM 8.96 48.128 0.229 7.47 4.44 10.52
10/29/2020 2:15:00 PM 8.97 48.146 0.228 7.47 4.62 10.58
10/29/2020 2:30:00 PM 9 48.2 0.228 7.44 4.61 10.64
10/29/2020 2:45:00 PM 9.02 48.236 0.228 7.48 4.9 10.69
10/29/2020 3:00:00 PM 9.03 48.254 0.227 7.48 5.95 10.7
10/29/2020 3:15:00 PM 9.02 48.236 0.226 7.5 6.17 10.71
10/29/2020 3:30:00 PM 9.02 48.236 0.225 7.5 6.4 10.73
10/29/2020 3:45:00 PM 9.01 48.218 0.225 7.44 6.11 10.73
10/29/2020 4:00:00 PM 9 48.2 0.223 7.44 5.99 10.73
10/29/2020 4:15:00 PM 8.99 48.182 0.222 7.43 6.01 10.73
10/29/2020 4:30:00 PM 8.98 48.164 0.221 7.45 5.96 10.72
10/29/2020 4:45:00 PM 8.97 48.146 0.22 7.38 6.09 10.72
10/29/2020 5:00:00 PM 8.95 48.11 0.221 7.23 7.12 10.71
10/29/2020 5:15:00 PM 8.95 48.11 0.226 7.3 8.97 10.68
10/29/2020 5:30:00 PM 8.94 48.092 0.23 7.3 11.04 10.65
10/29/2020 5:45:00 PM 8.94 48.092 0.232 7.32 13.58 10.62
10/29/2020 6:00:00 PM 8.94 48.092 0.232 7.27 16.4 10.59
10/29/2020 6:15:00 PM 8.95 48.11 0.233 7.28 17.27 10.57
10/29/2020 6:30:00 PM 8.95 48.11 0.237 7.27 20.32 10.55
10/29/2020 6:45:00 PM 8.94 48.092 0.239 7.26 27.68 10.54
10/29/2020 7:00:00 PM 8.93 48.074 0.238 7.24 47.29 10.53
10/29/2020 7:15:00 PM 8.92 48.056 0.231 7.21 68.81 10.55
10/29/2020 7:30:00 PM 8.93 48.074 0.222 7.15 98.63 10.55
10/29/2020 7:45:00 PM 8.94 48.092 0.217 7.24 114.58 10.54
10/29/2020 8:00:00 PM 8.96 48.128 0.216 7.21 128.6 10.53
10/29/2020 8:15:00 PM 8.97 48.146 0.214 7.15 118.8 10.52
10/29/2020 8:30:00 PM 8.97 48.146 0.21 7.1 169.68 10.52
10/29/2020 8:45:00 PM 8.96 48.128 0.207 7.08 201.3 10.51
10/29/2020 9:00:00 PM 8.95 48.11 0.205 7.09 95.97 10.52
10/29/2020 9:15:00 PM 8.93 48.074 0.203 7.08 89.18 10.51
10/29/2020 9:30:00 PM 8.92 48.056 0.201 7.07 97.71 10.52
10/29/2020 9:45:00 PM 8.91 48.038 0.2 7.08 88.3 10.51
10/29/2020 10:00:00 PM 8.9 48.02 0.198 7.07 82.2 10.51
10/29/2020 10:15:00 PM 8.89 48.002 0.196 7.06 70.52 10.52
10/29/2020 10:30:00 PM 8.87 47.966 0.194 7.07 57.66 10.52
10/29/2020 10:45:00 PM 8.85 47.93 0.192 7.07 50.09 10.52
10/29/2020 11:00:00 PM 8.83 47.894 0.191 7.07 49.52 10.52
10/29/2020 11:15:00 PM 8.81 47.858 0.19 7.07 46.7 10.53
10/29/2020 11:30:00 PM 8.79 47.822 0.188 7.13 41.35 10.54
10/29/2020 11:45:00 PM 8.76 47.768 0.186 7.08 38.21 10.55
10/30/2020 12:00:00 AM 8.73 47.714 0.185 7.1 39.52 10.56
10/30/2020 12:15:00 AM 8.7 47.66 0.183 7.09 30.62 10.57
10/30/2020 12:30:00 AM 8.67 47.606 0.181 7.1 39.1 10.59
10/30/2020 12:45:00 AM 8.64 47.552 0.179 7.09 32.79 10.6
10/30/2020 1:00:00 AM 8.61 47.498 0.178 7.13 31.08 10.6
10/30/2020 1:15:00 AM 8.59 47.462 0.176 7.14 32.49 10.61
10/30/2020 1:30:00 AM 8.57 47.426 0.174 7.18 33.55 10.62
10/30/2020 1:45:00 AM 8.56 47.408 0.173 7.21 32.55 10.62
10/30/2020 2:00:00 AM 8.54 47.372 0.172 7.2 136.86 10.63
10/30/2020 2:15:00 AM 8.52 47.336 0.17 7.19 29.55 10.63
10/30/2020 2:30:00 AM 8.51 47.318 0.17 7.23 34.26 10.63
10/30/2020 2:45:00 AM 8.5 47.3 0.169 7.25 26.31 10.63
10/30/2020 3:00:00 AM 8.49 47.282 0.169 7.25 28.84 10.61
10/30/2020 3:15:00 AM 8.47 47.246 0.169 7.27 27.2 10.62
10/30/2020 3:30:00 AM 8.46 47.228 0.169 7.27 30.78 10.63
10/30/2020 3:45:00 AM 8.44 47.192 0.168 7.27 28.65 10.62
10/30/2020 4:00:00 AM 8.42 47.156 0.168 7.27 27.87 10.64
10/30/2020 4:15:00 AM 8.4 47.12 0.168 7.27 29.34 10.63
10/30/2020 4:30:00 AM 8.38 47.084 0.171 7.25 29.72 10.64
10/30/2020 4:45:00 AM 8.36 47.048 0.17 7.25 29.76 10.65
10/30/2020 5:00:00 AM 8.34 47.012 0.169 7.25 34.07 10.66
10/30/2020 5:15:00 AM 8.32 46.976 0.168 7.24 31.08 10.66
10/30/2020 5:30:00 AM 8.29 46.922 0.168 7.24 34.51 10.68
10/30/2020 5:45:00 AM 8.24 46.832 0.167 7.24 35.58 10.68
10/30/2020 6:00:00 AM 8.19 46.742 0.166 7.24 35.86 10.7
10/30/2020 6:15:00 AM 8.13 46.634 0.166 7.24 34.01 10.7
10/30/2020 6:30:00 AM 8.08 46.544 0.165 7.23 33.31 10.72
10/30/2020 6:45:00 AM 8.05 46.49 0.165 7.22 32.09 10.72
10/30/2020 7:00:00 AM 8.02 46.436 0.164 7.22 24.98 10.73
10/30/2020 7:15:00 AM 7.99 46.382 0.164 7.21 29.89 10.74
10/30/2020 7:30:00 AM 7.95 46.31 0.164 7.21 29.22 10.74
10/30/2020 7:45:00 AM 7.92 46.256 0.163 7.22 28.01 10.76
10/30/2020 8:00:00 AM 7.88 46.184 0.163 7.21 27.77 10.78
10/30/2020 8:15:00 AM 7.85 46.13 0.163 7.2 29.08 10.8
10/30/2020 8:30:00 AM 7.83 46.094 0.162 7.2 28.46 10.8
10/30/2020 8:45:00 AM 7.8 46.04 0.162 7.2 29.01 10.81
10/30/2020 9:00:00 AM 7.78 46.004 0.162 7.2 28.27 10.83
10/30/2020 9:15:00 AM 7.76 45.968 0.162 7.22 29.11 10.85
10/30/2020 9:30:00 AM 7.74 45.932 0.161 7.2 29.39 10.87
10/30/2020 9:45:00 AM 7.73 45.914 0.161 7.22 30.69 10.88
10/30/2020 10:00:00 AM 7.73 45.914 0.161 7.21 39.34 10.9
10/30/2020 10:15:00 AM 7.72 45.896 0.161 7.21 31.86 10.92
10/30/2020 10:30:00 AM 7.71 45.878 0.161 7.23 38.02 10.94
10/30/2020 10:45:00 AM 7.72 45.896 0.16 7.22 28.08 10.95
10/30/2020 11:00:00 AM 7.74 45.932 0.16 7.23 26.53 10.97
10/30/2020 11:15:00 AM 7.77 45.986 0.16 7.25 24.38 11.01
10/30/2020 11:30:00 AM 7.78 46.004 0.16 7.24 22.8 11.02
10/30/2020 11:45:00 AM 7.79 46.022 0.159 7.25 21.07 11.05
10/30/2020 12:00:00 PM 7.8 46.04 0.159 7.25 21.04 11.05
10/30/2020 12:15:00 PM 7.82 46.076 0.159 7.23 19.61 11.07
10/30/2020 12:30:00 PM 7.85 46.13 0.159 7.24 18.03 11.09
10/30/2020 12:45:00 PM 7.87 46.166 0.159 7.24 17.47 11.11
10/30/2020 1:00:00 PM 7.88 46.184 0.159 7.25 16.72 11.12
10/30/2020 1:15:00 PM 7.91 46.238 0.159 7.26 16.15 11.12
10/30/2020 1:30:00 PM 7.99 46.382 0.159 7.25 15.57 11.14
10/30/2020 1:45:00 PM 8.07 46.526 0.159 7.26 15.95 11.17
10/30/2020 2:00:00 PM 8.1 46.58 0.159 7.26 15.54 11.17
10/30/2020 2:15:00 PM 8.12 46.616 0.16 7.26 15.34 11.17
10/30/2020 2:30:00 PM 8.15 46.67 0.16 7.26 15.39 11.17
10/30/2020 2:45:00 PM 8.21 46.778 0.16 7.28 15.36 11.19
10/30/2020 3:00:00 PM 8.26 46.868 0.159 7.27 14.43 11.19
10/30/2020 3:15:00 PM 8.29 46.922 0.159 7.26 14.67 11.2
10/30/2020 3:30:00 PM 8.33 46.994 0.159 7.29 13.95 11.2
10/30/2020 3:45:00 PM 8.37 47.066 0.158 7.27 13.82 11.2
10/30/2020 4:00:00 PM 8.4 47.12 0.158 7.28 13.44 11.19
10/30/2020 4:15:00 PM 8.41 47.138 0.157 7.28 12.89 11.19
10/30/2020 4:30:00 PM 8.38 47.084 0.157 7.27 12.91 11.17
10/30/2020 4:45:00 PM 8.36 47.048 0.157 7.27 13.26 11.15
10/30/2020 5:00:00 PM 8.33 46.994 0.156 7.28 12.7 11.15
10/30/2020 5:15:00 PM 8.3 46.94 0.156 7.27 12.65 11.13
10/30/2020 5:30:00 PM 8.26 46.868 0.156 7.26 12.68 11.12
10/30/2020 5:45:00 PM 8.23 46.814 0.156 7.28 12.6 11.11
10/30/2020 6:00:00 PM 8.2 46.76 0.155 7.27 15.54 11.09
10/30/2020 6:15:00 PM 8.16 46.688 0.155 7.27 12.42 11.08
10/30/2020 6:30:00 PM 8.12 46.616 0.155 7.27 12.82 11.06
10/30/2020 6:45:00 PM 8.08 46.544 0.155 7.27 12.95 11.04
10/30/2020 7:00:00 PM 8.04 46.472 0.155 7.26 12.38 11.04
10/30/2020 7:15:00 PM 8 46.4 0.155 7.24 12.43 11.03
10/30/2020 7:30:00 PM 7.96 46.328 0.155 7.22 12.44 11.02
10/30/2020 7:45:00 PM 7.91 46.238 0.155 7.24 12.06 11.03
10/30/2020 8:00:00 PM 7.86 46.148 0.155 7.24 12.65 11.02
10/30/2020 8:15:00 PM 7.8 46.04 0.155 7.22 12.63 11.02
10/30/2020 8:30:00 PM 7.76 45.968 0.155 7.22 12.2 11.02
10/30/2020 8:45:00 PM 7.72 45.896 0.155 7.23 11.75 11.03
10/30/2020 9:00:00 PM 7.68 45.824 0.155 7.24 12.24 11.03
10/30/2020 9:15:00 PM 7.64 45.752 0.155 7.24 12.2 11.03
10/30/2020 9:30:00 PM 7.59 45.662 0.155 7.25 11.92 11.05
10/30/2020 9:45:00 PM 7.54 45.572 0.155 7.25 11.79 11.06
10/30/2020 10:00:00 PM 7.5 45.5 0.154 7.25 11.48 11.06
10/30/2020 10:15:00 PM 7.46 45.428 0.154 7.24 11.22 11.07
10/30/2020 10:30:00 PM 7.42 45.356 0.154 7.24 11.08 11.08
10/30/2020 10:45:00 PM 7.39 45.302 0.154 7.24 11.34 11.09
10/30/2020 11:00:00 PM 7.35 45.23 0.154 7.23 10.99 11.1
10/30/2020 11:15:00 PM 7.32 45.176 0.154 7.23 11.02 11.11
10/30/2020 11:30:00 PM 7.29 45.122 0.154 7.22 10.87 11.11
10/30/2020 11:45:00 PM 7.26 45.068 0.153 7.22 10.99 11.13
10/31/2020 12:00:00 AM 7.23 45.014 0.154 7.22 10.85 11.13
10/31/2020 12:15:00 AM 7.21 44.978 0.153 7.23 11.17 11.14
10/31/2020 12:30:00 AM 7.18 44.924 0.153 7.23 10.76 11.15
10/31/2020 12:45:00 AM 7.15 44.87 0.153 7.23 10.68 11.15
10/31/2020 1:00:00 AM 7.12 44.816 0.153 7.22 10.83 11.17
10/31/2020 1:15:00 AM 7.1 44.78 0.153 7.22 11.09 11.17
10/31/2020 1:30:00 AM 7.07 44.726 0.153 7.21 10.73 11.17
10/31/2020 1:45:00 AM 7.03 44.654 0.153 7.22 10.62 11.19
10/31/2020 2:00:00 AM 6.99 44.582 0.153 7.22 10.7 11.19
10/31/2020 2:15:00 AM 6.95 44.51 0.154 7.22 10.95 11.2
10/31/2020 2:30:00 AM 6.91 44.438 0.154 7.22 11.08 11.22
10/31/2020 2:45:00 AM 6.87 44.366 0.154 7.22 10.32 11.2
10/31/2020 3:00:00 AM 6.84 44.312 0.154 7.24 10.56 11.23
10/31/2020 3:15:00 AM 6.81 44.258 0.154 7.22 10.37 11.24
10/31/2020 3:30:00 AM 6.79 44.222 0.154 7.23 10.48 11.25
10/31/2020 3:45:00 AM 6.77 44.186 0.154 7.22 10.3 11.25
10/31/2020 4:00:00 AM 6.75 44.15 0.154 7.22 9.96 11.26
10/31/2020 4:15:00 AM 6.73 44.114 0.154 7.24 10.29 11.27
10/31/2020 4:30:00 AM 6.7 44.06 0.154 7.22 10.32 11.27
10/31/2020 4:45:00 AM 6.67 44.006 0.154 7.22 10.11 11.28
10/31/2020 5:00:00 AM 6.65 43.97 0.154 7.21 10.72 11.29
10/31/2020 5:15:00 AM 6.63 43.934 0.154 7.21 10.32 11.29
10/31/2020 5:30:00 AM 6.61 43.898 0.154 7.21 10.22 11.29
10/31/2020 5:45:00 AM 6.59 43.862 0.154 7.22 10.33 11.3
10/31/2020 6:00:00 AM 6.57 43.826 0.154 7.22 10.83 11.31
10/31/2020 6:15:00 AM 6.54 43.772 0.154 7.21 9.96 11.33
10/31/2020 6:30:00 AM 6.51 43.718 0.154 7.21 9.96 11.33
10/31/2020 6:45:00 AM 6.48 43.664 0.154 7.21 9.69 11.35
10/31/2020 7:00:00 AM 6.45 43.61 0.154 7.21 9.65 11.36
10/31/2020 7:15:00 AM 6.43 43.574 0.154 7.23 9.95 11.36
10/31/2020 7:30:00 AM 6.42 43.556 0.154 7.23 9.62 11.37
10/31/2020 7:45:00 AM 6.39 43.502 0.154 7.22 9.71 11.36
10/31/2020 8:00:00 AM 6.36 43.448 0.154 7.2 9.2 11.37
10/31/2020 8:15:00 AM 6.34 43.412 0.154 7.2 9.65 11.4
10/31/2020 8:30:00 AM 6.32 43.376 0.154 7.23 9.28 11.41
10/31/2020 8:45:00 AM 6.32 43.376 0.154 7.23 9.51 11.45
10/31/2020 9:00:00 AM 6.32 43.376 0.154 7.24 9.29 11.47
10/31/2020 9:15:00 AM 6.34 43.412 0.154 7.23 9.21 11.51
10/31/2020 9:30:00 AM 6.36 43.448 0.154 7.24 9.33 11.55
10/31/2020 9:45:00 AM 6.38 43.484 0.154 7.23 9.22 11.58
10/31/2020 10:00:00 AM 6.4 43.52 0.154 7.25 9.18 11.6
10/31/2020 10:15:00 AM 6.43 43.574 0.154 7.25 9.03 11.64
10/31/2020 10:30:00 AM 6.47 43.646 0.154 7.24 8.54 11.65
10/31/2020 10:45:00 AM 6.55 43.79 0.154 7.25 8.71 11.71
10/31/2020 11:00:00 AM 6.64 43.952 0.153 7.27 8.79 11.73
10/31/2020 11:15:00 AM 6.74 44.132 0.153 7.26 8.89 11.75
10/31/2020 11:30:00 AM 6.85 44.33 0.153 7.27 8.47 11.77
10/31/2020 11:45:00 AM 6.89 44.402 0.153 7.27 8.61 11.79
10/31/2020 12:00:00 PM 6.93 44.474 0.153 7.29 8.17 11.81
10/31/2020 12:15:00 PM 6.95 44.51 0.153 7.28 7.86 11.83
10/31/2020 12:30:00 PM 6.98 44.564 0.153 7.3 7.76 11.82
10/31/2020 12:45:00 PM 6.99 44.582 0.153 7.29 7.65 11.84
10/31/2020 1:00:00 PM 7.01 44.618 0.153 7.29 7.84 11.83
10/31/2020 1:15:00 PM 7.03 44.654 0.153 7.29 7.55 11.85
10/31/2020 1:30:00 PM 7.05 44.69 0.153 7.3 7.74 11.85
10/31/2020 1:45:00 PM 7.09 44.762 0.153 7.3 7.3 11.87
10/31/2020 2:00:00 PM 7.14 44.852 0.153 7.31 7.56 11.86
10/31/2020 2:15:00 PM 7.21 44.978 0.153 7.3 7.58 11.86
10/31/2020 2:30:00 PM 7.28 45.104 0.153 7.31 7.38 11.84
10/31/2020 2:45:00 PM 7.36 45.248 0.153 7.31 7.65 11.84
10/31/2020 3:00:00 PM 7.44 45.392 0.153 7.33 7.74 11.83
10/31/2020 3:15:00 PM 7.5 45.5 0.153 7.32 7.22 11.83
10/31/2020 3:30:00 PM 7.57 45.626 0.153 7.34 7.47 11.83
10/31/2020 3:45:00 PM 7.63 45.734 0.153 7.33 7.12 11.82
10/31/2020 4:00:00 PM 7.69 45.842 0.153 7.34 7.02 11.81
10/31/2020 4:15:00 PM 7.71 45.878 0.153 7.35 7.48 11.79
10/31/2020 4:30:00 PM 7.7 45.86 0.153 7.35 7.49 11.77
10/31/2020 4:45:00 PM 7.69 45.842 0.153 7.34 7.44 11.76
10/31/2020 5:00:00 PM 7.67 45.806 0.153 7.33 7.44 11.72
10/31/2020 5:15:00 PM 7.62 45.716 0.153 7.35 7.35 11.69
10/31/2020 5:30:00 PM 7.57 45.626 0.153 7.33 7.43 11.68
10/31/2020 5:45:00 PM 7.53 45.554 0.153 7.32 7.16 11.63
10/31/2020 6:00:00 PM 7.49 45.482 0.154 7.32 7.2 11.6
10/31/2020 6:15:00 PM 7.44 45.392 0.154 7.31 7.34 11.57
10/31/2020 6:30:00 PM 7.39 45.302 0.154 7.31 7.52 11.53
10/31/2020 6:45:00 PM 7.35 45.23 0.154 7.3 7.18 11.5
10/31/2020 7:00:00 PM 7.3 45.14 0.154 7.29 7.12 11.46
10/31/2020 7:15:00 PM 7.24 45.032 0.154 7.29 7.33 11.44
10/31/2020 7:30:00 PM 7.19 44.942 0.155 7.28 7.37 11.42
10/31/2020 7:45:00 PM 7.14 44.852 0.155 7.29 7.55 11.39
10/31/2020 8:00:00 PM 7.09 44.762 0.155 7.27 7.38 11.37
10/31/2020 8:15:00 PM 7.04 44.672 0.155 7.27 7.39 11.36
10/31/2020 8:30:00 PM 6.98 44.564 0.155 7.26 7.55 11.34
10/31/2020 8:45:00 PM 6.93 44.474 0.155 7.25 7.66 11.33
10/31/2020 9:00:00 PM 6.88 44.384 0.155 7.26 8.11 11.33
10/31/2020 9:15:00 PM 6.83 44.294 0.155 7.25 21.1 11.31
10/31/2020 9:30:00 PM 6.78 44.204 0.156 7.25 8.46 11.29
10/31/2020 9:45:00 PM 6.73 44.114 0.156 7.25 7.22 11.3
10/31/2020 10:00:00 PM 6.7 44.06 0.156 7.25 8.37 11.28
10/31/2020 10:15:00 PM 6.65 43.97 0.156 7.24 6.9 11.29
10/31/2020 10:30:00 PM 6.61 43.898 0.156 7.24 6.76 11.3
10/31/2020 10:45:00 PM 6.56 43.808 0.156 7.23 8.05 11.3
10/31/2020 11:00:00 PM 6.52 43.736 0.156 7.23 7.43 11.29
10/31/2020 11:15:00 PM 6.47 43.646 0.156 7.23 7.99 11.28
10/31/2020 11:30:00 PM 6.43 43.574 0.157 7.23 7.35 11.28
10/31/2020 11:45:00 PM 6.38 43.484 0.156 7.25 6.87 11.31
11/1/2020 12:00:00 AM 6.34 43.412 0.157 7.23 6.86 11.3
11/1/2020 12:15:00 AM 6.29 43.322 0.157 7.23 7.08 11.3
11/1/2020 12:30:00 AM 6.24 43.232 0.157 7.23 6.82 11.3
11/1/2020 12:45:00 AM 6.2 43.16 0.157 7.22 6.77 11.31
11/1/2020 1:00:00 AM 6.15 43.07 0.157 7.24 6.83 11.34
11/1/2020 1:15:00 AM 6.1 42.98 0.157 7.22 6.65 11.34
11/1/2020 1:30:00 AM 6.07 42.926 0.158 7.22 6.79 11.33
11/1/2020 1:45:00 AM 6.03 42.854 0.158 7.22 6.69 11.34
11/1/2020 2:00:00 AM 5.99 42.782 0.158 7.21 8.7 11.34
11/1/2020 2:15:00 AM 5.95 42.71 0.158 7.21 6.56 11.35
11/1/2020 2:30:00 AM 5.92 42.656 0.158 7.23 7.02 11.38
11/1/2020 2:45:00 AM 5.9 42.62 0.158 7.22 6.66 11.38
11/1/2020 3:00:00 AM 5.88 42.584 0.159 7.21 6.65 11.37
11/1/2020 3:15:00 AM 5.87 42.566 0.159 7.21 6.67 11.39
11/1/2020 3:30:00 AM 5.81 42.458 0.159 7.24 7.16 11.42
11/1/2020 3:45:00 AM 5.81 42.458 0.159 7.21 7.08 11.38
11/1/2020 4:00:00 AM 5.8 42.44 0.159 7.22 7.18 11.41
11/1/2020 4:15:00 AM 5.79 42.422 0.159 7.22 7.52 11.4
11/1/2020 4:30:00 AM 5.79 42.422 0.159 7.22 7.52 11.42
11/1/2020 4:45:00 AM 5.78 42.404 0.159 7.2 6.7 11.43
11/1/2020 5:00:00 AM 5.78 42.404 0.159 7.21 6.76 11.43
11/1/2020 5:15:00 AM 5.78 42.404 0.159 7.23 6.69 11.43
11/1/2020 5:30:00 AM 5.78 42.404 0.16 7.21 6.63 11.42
11/1/2020 5:45:00 AM 5.78 42.404 0.16 7.23 6.78 11.41
11/1/2020 6:00:00 AM 5.78 42.404 0.16 7.22 6.61 11.42
11/1/2020 6:15:00 AM 5.78 42.404 0.16 7.21 6.82 11.43
11/1/2020 6:30:00 AM 5.79 42.422 0.16 7.23 6.57 11.43
11/1/2020 6:45:00 AM 5.8 42.44 0.161 7.22 6.63 11.4
11/1/2020 7:00:00 AM 5.81 42.458 0.161 7.22 6.6 11.39
11/1/2020 7:15:00 AM 5.82 42.476 0.161 7.22 6.44 11.42
11/1/2020 7:30:00 AM 5.83 42.494 0.161 7.22 6.51 11.41
11/1/2020 7:45:00 AM 5.85 42.53 0.161 7.23 6.53 11.41
11/1/2020 8:00:00 AM 5.87 42.566 0.162 7.23 6.23 11.41
11/1/2020 8:15:00 AM 5.9 42.62 0.162 7.24 23.27 11.44
11/1/2020 8:30:00 AM 5.93 42.674 0.162 7.24 10.18 11.42
11/1/2020 8:45:00 AM 5.96 42.728 0.162 7.25 7.44 11.46
11/1/2020 9:00:00 AM 5.99 42.782 0.162 7.24 6.16 11.48
11/1/2020 9:15:00 AM 6.02 42.836 0.162 7.24 6.45 11.47
11/1/2020 9:30:00 AM 6.05 42.89 0.162 7.25 8.45 11.49
11/1/2020 9:45:00 AM 6.1 42.98 0.162 7.25 5.86 11.52
11/1/2020 10:00:00 AM 6.17 43.106 0.162 7.25 5.88 11.57
11/1/2020 10:15:00 AM 6.24 43.232 0.162 7.26 6.08 11.58
11/1/2020 10:30:00 AM 6.31 43.358 0.163 7.26 5.95 11.6
11/1/2020 10:45:00 AM 6.37 43.466 0.163 7.27 5.97 11.64
11/1/2020 11:00:00 AM 6.42 43.556 0.163 7.28 5.83 11.64
11/1/2020 11:15:00 AM 6.45 43.61 0.163 7.28 5.86 11.63
11/1/2020 11:30:00 AM 6.48 43.664 0.163 7.28 5.72 11.62
11/1/2020 11:45:00 AM 6.5 43.7 0.163 7.29 5.77 11.61
11/1/2020 12:00:00 PM 6.53 43.754 0.163 7.29 5.75 11.61
11/1/2020 12:15:00 PM 6.57 43.826 0.163 7.29 5.61 11.6
11/1/2020 12:30:00 PM 6.6 43.88 0.163 7.29 5.66 11.59
11/1/2020 12:45:00 PM 6.63 43.934 0.164 7.29 5.59 11.58
11/1/2020 1:00:00 PM 6.66 43.988 0.163 7.29 5.47 11.58
11/1/2020 1:15:00 PM 6.69 44.042 0.164 7.31 5.61 11.56
11/1/2020 1:30:00 PM 6.73 44.114 0.164 7.3 5.3 11.54
11/1/2020 1:45:00 PM 6.78 44.204 0.164 7.31 5.58 11.56
11/1/2020 2:00:00 PM 6.83 44.294 0.164 7.3 5.44 11.56
11/1/2020 2:15:00 PM 6.88 44.384 0.164 7.31 5.45 11.55
11/1/2020 2:30:00 PM 6.92 44.456 0.165 7.32 5.26 11.54
11/1/2020 2:45:00 PM 6.96 44.528 0.164 7.33 5.31 11.54
11/1/2020 3:00:00 PM 6.99 44.582 0.165 7.32 5.42 11.5
11/1/2020 3:15:00 PM 7.02 44.636 0.165 7.31 5.32 11.48
11/1/2020 3:30:00 PM 7.04 44.672 0.165 7.32 5.28 11.44
11/1/2020 3:45:00 PM 7.06 44.708 0.165 7.31 5.31 11.42
11/1/2020 4:00:00 PM 7.09 44.762 0.165 7.32 5.23 11.41
11/1/2020 4:15:00 PM 7.1 44.78 0.165 7.33 5.66 11.38
11/1/2020 4:30:00 PM 7.11 44.798 0.165 7.33 5.34 11.36
11/1/2020 4:45:00 PM 7.1 44.78 0.165 7.33 5.38 11.33
11/1/2020 5:00:00 PM 7.08 44.744 0.165 7.3 5.47 11.31
11/1/2020 5:15:00 PM 7.07 44.726 0.166 7.32 5.98 11.28
11/1/2020 5:30:00 PM 7.06 44.708 0.166 7.3 5.66 11.25
11/1/2020 5:45:00 PM 7.03 44.654 0.166 7.3 5.34 11.22
11/1/2020 6:00:00 PM 7 44.6 0.166 7.29 5.45 11.2
11/1/2020 6:15:00 PM 6.98 44.564 0.166 7.29 5.6 11.16
11/1/2020 6:30:00 PM 6.95 44.51 0.166 7.28 5.81 11.16
11/1/2020 6:45:00 PM 6.93 44.474 0.166 7.28 5.72 11.16
11/1/2020 7:00:00 PM 6.91 44.438 0.167 7.28 5.8 11.12
11/1/2020 7:15:00 PM 6.89 44.402 0.167 7.28 5.74 11.11
11/1/2020 7:30:00 PM 6.88 44.384 0.167 7.27 5.85 11.08
11/1/2020 7:45:00 PM 6.85 44.33 0.167 7.28 5.83 11.09
11/1/2020 8:00:00 PM 6.84 44.312 0.167 7.27 5.86 11.09
11/1/2020 8:15:00 PM 6.8 44.24 0.168 7.27 6.11 11.05
11/1/2020 8:30:00 PM 6.77 44.186 0.168 7.26 5.77 11.04
11/1/2020 8:45:00 PM 6.72 44.096 0.168 7.26 5.9 11.04
11/1/2020 9:00:00 PM 6.69 44.042 0.168 7.26 5.73 11.05
11/1/2020 9:15:00 PM 6.65 43.97 0.168 7.26 5.81 11.05
11/1/2020 9:30:00 PM 6.59 43.862 0.168 7.26 5.85 11.05
11/1/2020 9:45:00 PM 6.55 43.79 0.168 7.27 5.79 11.04
11/1/2020 10:00:00 PM 6.49 43.682 0.169 7.26 5.65 11.04
11/1/2020 10:15:00 PM 6.45 43.61 0.169 7.26 5.76 11.04
11/1/2020 10:30:00 PM 6.41 43.538 0.169 7.25 5.69 11.03
11/1/2020 10:45:00 PM 6.36 43.448 0.169 7.27 5.48 11.06
11/1/2020 11:00:00 PM 6.33 43.394 0.169 7.26 5.49 11.07
11/1/2020 11:15:00 PM 6.3 43.34 0.169 7.26 5.55 11.06
11/1/2020 11:30:00 PM 6.26 43.268 0.17 7.25 5.63 11.08
11/1/2020 11:45:00 PM 6.23 43.214 0.17 7.25 5.53 11.06
11/2/2020 12:00:00 AM 6.2 43.16 0.17 7.25 5.25 11.06
11/2/2020 12:15:00 AM 6.17 43.106 0.17 7.26 7.85 11.07
11/2/2020 12:30:00 AM 6.15 43.07 0.17 7.24 87.53 11.08
11/2/2020 12:45:00 AM 6.13 43.034 0.17 7.25 21.03 11.1
11/2/2020 1:00:00 AM 6.11 42.998 0.17 7.24 7.98 11.07
11/2/2020 1:15:00 AM 6.08 42.944 0.17 7.25 8.82 11.12
11/2/2020 1:30:00 AM 6.06 42.908 0.17 7.25 7.61 11.11
11/2/2020 1:45:00 AM 6.03 42.854 0.17 7.27 6.47 11.11
11/2/2020 2:00:00 AM 6.01 42.818 0.171 7.27 9.44 11.12
11/2/2020 2:15:00 AM 5.98 42.764 0.171 7.25 10.63 11.11
11/2/2020 2:30:00 AM 5.96 42.728 0.171 7.26 7.9 11.11
11/2/2020 2:45:00 AM 5.94 42.692 0.171 7.25 8.89 11.14
11/2/2020 3:00:00 AM 5.92 42.656 0.171 7.27 8.78 11.14
11/2/2020 3:15:00 AM 5.87 42.566 0.171 7.26 7.37 11.13
11/2/2020 3:30:00 AM 5.82 42.476 0.171 7.24 8.55 11.16
11/2/2020 3:45:00 AM 5.77 42.386 0.172 7.24 6.43 11.15
11/2/2020 4:00:00 AM 5.73 42.314 0.172 7.24 7.8 11.16
11/2/2020 4:15:00 AM 5.7 42.26 0.172 7.24 5.83 11.2
11/2/2020 4:30:00 AM 5.68 42.224 0.173 7.24 5.66 11.16
11/2/2020 4:45:00 AM 5.64 42.152 0.173 7.23 5.63 11.19
11/2/2020 5:00:00 AM 5.56 42.008 0.173 7.24 5.64 11.21
11/2/2020 5:15:00 AM 5.5 41.9 0.173 7.24 5.46 11.2
11/2/2020 5:30:00 AM 5.41 41.738 0.173 7.24 5.69 11.24
11/2/2020 5:45:00 AM 5.38 41.684 0.174 7.24 5.78 11.21
11/2/2020 6:00:00 AM 5.33 41.594 0.174 7.24 5.7 11.24
11/2/2020 6:15:00 AM 5.3 41.54 0.175 7.24 9.08 11.26
11/2/2020 6:30:00 AM 5.26 41.468 0.175 7.26 6.07 11.29
11/2/2020 6:45:00 AM 5.23 41.414 0.175 7.24 5.74 11.28
11/2/2020 7:00:00 AM 5.18 41.324 0.175 7.24 5.8 11.31
11/2/2020 7:15:00 AM 5.12 41.216 0.176 7.24 5.04 11.3
11/2/2020 7:30:00 AM 5.09 41.162 0.175 7.26 5.68 11.37
11/2/2020 7:45:00 AM 5.07 41.126 0.175 7.25 5.54 11.38
11/2/2020 8:00:00 AM 5.06 41.108 0.175 7.25 5.78 11.41
11/2/2020 8:15:00 AM 5.05 41.09 0.175 7.25 5.45 11.5
11/2/2020 8:30:00 AM 5.05 41.09 0.176 7.25 6.07 11.49
11/2/2020 8:45:00 AM 5.05 41.09 0.176 7.26 5.7 11.6
11/2/2020 9:00:00 AM 5.04 41.072 0.177 7.27 6.16 11.65
11/2/2020 9:15:00 AM 5.04 41.072 0.179 7.27 5.51 11.65
11/2/2020 9:30:00 AM 5.05 41.09 0.177 7.28 5.36 11.75
11/2/2020 9:45:00 AM 5.07 41.126 0.177 7.28 5.34 11.79
11/2/2020 10:00:00 AM 5.1 41.18 0.176 7.29 5.34 11.86
11/2/2020 10:15:00 AM 5.12 41.216 0.176 7.3 5.26 11.91
11/2/2020 10:30:00 AM 5.16 41.288 0.176 7.31 5.2 11.96
11/2/2020 10:45:00 AM 5.19 41.342 0.176 7.32 5.13 11.97
11/2/2020 11:00:00 AM 5.27 41.486 0.176 7.33 5.25 12.04
11/2/2020 11:15:00 AM 5.29 41.522 0.176 7.34 5.31 12.06
11/2/2020 11:30:00 AM 5.32 41.576 0.176 7.34 5.15 12.1
11/2/2020 11:45:00 AM 5.36 41.648 0.176 7.34 5.12 12.12
11/2/2020 12:00:00 PM 5.45 41.81 0.176 7.37 5.09 12.16
11/2/2020 12:15:00 PM 5.47 41.846 0.176 7.36 6.17 12.18
11/2/2020 12:30:00 PM 5.57 42.026 0.176 7.37 6.24 12.19
11/2/2020 12:45:00 PM 5.68 42.224 0.176 7.37 6.34 12.23
11/2/2020 1:00:00 PM 5.74 42.332 0.176 7.39 5.04 12.25
11/2/2020 1:15:00 PM 5.79 42.422 0.176 7.38 5.02 12.26
11/2/2020 1:30:00 PM 5.82 42.476 0.176 7.39 4.97 12.26
11/2/2020 1:45:00 PM 5.82 42.476 0.176 7.4 5.53 12.26
11/2/2020 2:00:00 PM 5.81 42.458 0.176 7.4 5.67 12.29
11/2/2020 2:15:00 PM 5.78 42.404 0.176 7.39 5.64 12.26
11/2/2020 2:30:00 PM 5.8 42.44 0.176 7.4 5.52 12.29
11/2/2020 2:45:00 PM 5.77 42.386 0.176 7.41 5.6 12.28
11/2/2020 3:00:00 PM 5.79 42.422 0.177 7.4 5.44 12.27
11/2/2020 3:15:00 PM 5.77 42.386 0.176 7.41 5.58 12.29
11/2/2020 3:30:00 PM 5.74 42.332 0.177 7.43 5.79 12.28
11/2/2020 3:45:00 PM 5.72 42.296 0.176 7.43 5.61 12.27
11/2/2020 4:00:00 PM 5.67 42.206 0.177 7.42 5.59 12.24
11/2/2020 4:15:00 PM 5.63 42.134 0.177 7.43 5.58 12.23
11/2/2020 4:30:00 PM 5.59 42.062 0.177 7.42 6.13 12.2
11/2/2020 4:45:00 PM 5.57 42.026 0.177 7.42 6.29 12.16
11/2/2020 5:00:00 PM 5.54 41.972 0.177 7.41 6.38 12.12
11/2/2020 5:15:00 PM 5.51 41.918 0.177 7.41 6.5 12.08
11/2/2020 5:30:00 PM 5.5 41.9 0.177 7.39 6.26 12.03
11/2/2020 5:45:00 PM 5.48 41.864 0.177 7.41 5.62 12
11/2/2020 6:00:00 PM 5.47 41.846 0.177 7.4 6.19 11.95
11/2/2020 6:15:00 PM 5.48 41.864 0.177 7.4 5.64 11.92
11/2/2020 6:30:00 PM 5.49 41.882 0.177 7.39 4.64 11.88
11/2/2020 6:45:00 PM 5.49 41.882 0.179 7.38 4.62 11.84
11/2/2020 7:00:00 PM 5.5 41.9 0.179 7.37 4.68 11.81
11/2/2020 7:15:00 PM 5.51 41.918 0.179 7.36 4.72 11.76
11/2/2020 7:30:00 PM 5.51 41.918 0.179 7.37 4.65 11.73
11/2/2020 7:45:00 PM 5.51 41.918 0.179 7.36 4.67 11.71
11/2/2020 8:00:00 PM 5.51 41.918 0.179 7.34 4.83 11.69
11/2/2020 8:15:00 PM 5.5 41.9 0.179 7.34 4.71 11.66
11/2/2020 8:30:00 PM 5.49 41.882 0.179 7.35 4.61 11.64
11/2/2020 8:45:00 PM 5.49 41.882 0.179 7.34 4.63 11.61
11/2/2020 9:00:00 PM 5.47 41.846 0.179 7.33 4.69 11.6
11/2/2020 9:15:00 PM 5.46 41.828 0.178 7.34 4.72 11.6
11/2/2020 9:30:00 PM 5.45 41.81 0.179 7.33 4.76 11.57
11/2/2020 9:45:00 PM 5.43 41.774 0.179 7.33 4.79 11.57
11/2/2020 10:00:00 PM 5.43 41.774 0.179 7.32 4.89 11.57
11/2/2020 10:15:00 PM 5.41 41.738 0.179 7.32 4.72 11.54
11/2/2020 10:30:00 PM 5.4 41.72 0.179 7.31 4.7 11.53
11/2/2020 10:45:00 PM 5.38 41.684 0.179 7.34 4.66 11.54
11/2/2020 11:00:00 PM 5.38 41.684 0.179 7.33 4.83 11.52
11/2/2020 11:15:00 PM 5.37 41.666 0.179 7.32 4.76 11.52
11/2/2020 11:30:00 PM 5.36 41.648 0.179 7.32 4.78 11.52
11/2/2020 11:45:00 PM 5.35 41.63 0.179 7.31 4.7 11.5
11/3/2020 12:00:00 AM 5.35 41.63 0.179 7.3 4.74 11.51
11/3/2020 12:15:00 AM 5.34 41.612 0.179 7.29 4.84 11.5
11/3/2020 12:30:00 AM 5.33 41.594 0.179 7.29 4.87 11.51
11/3/2020 12:45:00 AM 5.33 41.594 0.18 7.29 4.72 11.47
11/3/2020 1:00:00 AM 5.33 41.594 0.179 7.3 4.66 11.48
11/3/2020 1:15:00 AM 5.32 41.576 0.18 7.31 4.78 11.47
11/3/2020 1:30:00 AM 5.31 41.558 0.18 7.3 4.82 11.46
11/3/2020 1:45:00 AM 5.3 41.54 0.18 7.3 4.79 11.47
11/3/2020 2:00:00 AM 5.29 41.522 0.18 7.28 4.66 11.46
11/3/2020 2:15:00 AM 5.27 41.486 0.18 7.28 4.94 11.46
11/3/2020 2:30:00 AM 5.26 41.468 0.18 7.28 4.76 11.45
11/3/2020 2:45:00 AM 5.25 41.45 0.18 7.28 4.87 11.45
11/3/2020 3:00:00 AM 5.25 41.45 0.18 7.29 4.87 11.45
11/3/2020 3:15:00 AM 5.25 41.45 0.181 7.28 4.77 11.44
11/3/2020 3:30:00 AM 5.25 41.45 0.181 7.28 4.8 11.44
11/3/2020 3:45:00 AM 5.25 41.45 0.181 7.28 4.95 11.45
11/3/2020 4:00:00 AM 5.24 41.432 0.181 7.28 4.85 11.44
11/3/2020 4:15:00 AM 5.24 41.432 0.181 7.28 4.82 11.43
11/3/2020 4:30:00 AM 5.24 41.432 0.181 7.28 4.97 11.44
11/3/2020 4:45:00 AM 5.24 41.432 0.182 7.28 5.06 11.41
11/3/2020 5:00:00 AM 5.23 41.414 0.181 7.29 4.95 11.45
11/3/2020 5:15:00 AM 5.24 41.432 0.181 7.28 5.05 11.44
11/3/2020 5:30:00 AM 5.24 41.432 0.181 7.3 5.09 11.43
11/3/2020 5:45:00 AM 5.24 41.432 0.181 7.28 4.97 11.45
11/3/2020 6:00:00 AM 5.26 41.468 0.181 7.3 5.21 11.44
11/3/2020 6:15:00 AM 5.26 41.468 0.181 7.27 5.09 11.43
11/3/2020 6:30:00 AM 5.27 41.486 0.181 7.29 5.18 11.44
11/3/2020 6:45:00 AM 5.28 41.504 0.181 7.27 5.2 11.43
11/3/2020 7:00:00 AM 5.29 41.522 0.181 7.28 5.2 11.45
11/3/2020 7:15:00 AM 5.3 41.54 0.181 7.27 5.29 11.45
11/3/2020 7:30:00 AM 5.3 41.54 0.181 7.27 5.22 11.45
11/3/2020 7:45:00 AM 5.31 41.558 0.182 7.27 5.32 11.43
11/3/2020 8:00:00 AM 5.32 41.576 0.182 7.28 5.17 11.45
11/3/2020 8:15:00 AM 5.32 41.576 0.181 7.28 5.14 11.47
11/3/2020 8:30:00 AM 5.32 41.576 0.182 7.29 5.12 11.49
11/3/2020 8:45:00 AM 5.33 41.594 0.181 7.29 5.01 11.52
11/3/2020 9:00:00 AM 5.34 41.612 0.181 7.3 5.08 11.56
11/3/2020 9:15:00 AM 5.34 41.612 0.181 7.29 5.04 11.57
11/3/2020 9:30:00 AM 5.37 41.666 0.181 7.29 5.07 11.6
11/3/2020 9:45:00 AM 5.37 41.666 0.181 7.31 5.09 11.64
11/3/2020 10:00:00 AM 5.4 41.72 0.181 7.32 5.05 11.7
11/3/2020 10:15:00 AM 5.42 41.756 0.181 7.31 4.99 11.73
11/3/2020 10:30:00 AM 5.47 41.846 0.181 7.32 4.84 11.78
11/3/2020 10:45:00 AM 5.49 41.882 0.182 7.32 4.85 11.78
11/3/2020 11:00:00 AM 5.55 41.99 0.182 7.34 4.83 11.85
11/3/2020 11:15:00 AM 5.59 42.062 0.182 7.33 4.94 11.88
11/3/2020 11:30:00 AM 5.69 42.242 0.182 7.36 4.82 11.93
11/3/2020 11:45:00 AM 5.77 42.386 0.182 7.35 4.94 11.99
11/3/2020 12:00:00 PM 5.87 42.566 0.182 7.37 4.94 12.03
11/3/2020 12:15:00 PM 5.96 42.728 0.182 7.39 4.9 12.06
11/3/2020 12:30:00 PM 6.04 42.872 0.182 7.37 4.78 12.08
11/3/2020 12:45:00 PM 6.16 43.088 0.182 7.38 4.81 12.13
11/3/2020 1:00:00 PM 6.17 43.106 0.182 7.39 4.8 12.16
11/3/2020 1:15:00 PM 6.24 43.232 0.182 7.4 4.82 12.17
11/3/2020 1:30:00 PM 6.26 43.268 0.182 7.42 4.8 12.2
11/3/2020 1:45:00 PM 6.31 43.358 0.183 7.41 4.68 12.19
11/3/2020 2:00:00 PM 6.35 43.43 0.182 7.41 4.81 12.22
11/3/2020 2:15:00 PM 6.38 43.484 0.182 7.42 4.72 12.21
11/3/2020 2:30:00 PM 6.41 43.538 0.183 7.42 4.71 12.22
11/3/2020 2:45:00 PM 6.43 43.574 0.182 7.44 4.75 12.22
11/3/2020 3:00:00 PM 6.44 43.592 0.183 7.44 4.67 12.2
11/3/2020 3:15:00 PM 6.46 43.628 0.183 7.44 4.64 12.21
11/3/2020 3:30:00 PM 6.45 43.61 0.183 7.43 4.67 12.2
11/3/2020 3:45:00 PM 6.45 43.61 0.183 7.43 4.81 12.21
11/3/2020 4:00:00 PM 6.46 43.628 0.182 7.44 4.64 12.2
11/3/2020 4:15:00 PM 6.46 43.628 0.183 7.43 4.69 12.17
11/3/2020 4:30:00 PM 6.43 43.574 0.182 7.43 4.76 12.15
11/3/2020 4:45:00 PM 6.4 43.52 0.182 7.42 5 12.11
11/3/2020 5:00:00 PM 6.37 43.466 0.183 7.45 5.75 12.08
11/3/2020 5:15:00 PM 6.33 43.394 0.183 7.42 4.75 12.02
11/3/2020 5:30:00 PM 6.29 43.322 0.183 7.42 9.53 11.98
11/3/2020 5:45:00 PM 6.24 43.232 0.183 7.41 9.25 11.92
11/3/2020 6:00:00 PM 6.2 43.16 0.183 7.4 7.01 11.88
11/3/2020 6:15:00 PM 6.16 43.088 0.183 7.41 25.36 11.85
11/3/2020 6:30:00 PM 6.12 43.016 0.183 7.39 4.63 11.81
11/3/2020 6:45:00 PM 6.08 42.944 0.183 7.39 4.51 11.78
11/3/2020 7:00:00 PM 6.04 42.872 0.183 7.38 7.45 11.74
11/3/2020 7:15:00 PM 6 42.8 0.183 7.4 20.8 11.73
11/3/2020 7:30:00 PM 5.97 42.746 0.183 7.37 4.49 11.7
11/3/2020 7:45:00 PM 5.93 42.674 0.183 7.37 4.62 11.69
11/3/2020 8:00:00 PM 5.89 42.602 0.183 7.37 4.51 11.66
11/3/2020 8:15:00 PM 5.86 42.548 0.183 7.38 4.6 11.65
11/3/2020 8:30:00 PM 5.82 42.476 0.184 7.37 4.71 11.61
11/3/2020 8:45:00 PM 5.79 42.422 0.184 7.35 4.65 11.61
11/3/2020 9:00:00 PM 5.75 42.35 0.184 7.35 4.63 11.59
11/3/2020 9:15:00 PM 5.71 42.278 0.184 7.35 4.57 11.59
11/3/2020 9:30:00 PM 5.68 42.224 0.184 7.36 4.59 11.58
11/3/2020 9:45:00 PM 5.65 42.17 0.184 7.34 4.72 11.56
11/3/2020 10:00:00 PM 5.61 42.098 0.184 7.34 4.58 11.56
11/3/2020 10:15:00 PM 5.57 42.026 0.184 7.33 4.74 11.55
11/3/2020 10:30:00 PM 5.53 41.954 0.184 7.33 4.58 11.56
11/3/2020 10:45:00 PM 5.49 41.882 0.185 7.34 4.61 11.54
11/3/2020 11:00:00 PM 5.45 41.81 0.184 7.33 4.76 11.56
11/3/2020 11:15:00 PM 5.4 41.72 0.184 7.32 4.6 11.57
11/3/2020 11:30:00 PM 5.37 41.666 0.185 7.31 4.62 11.55
11/3/2020 11:45:00 PM 5.32 41.576 0.185 7.31 4.56 11.56
11/4/2020 12:00:00 AM 5.27 41.486 0.185 7.31 4.68 11.57
11/4/2020 12:15:00 AM 5.23 41.414 0.185 7.32 4.81 11.58
11/4/2020 12:30:00 AM 5.19 41.342 0.185 7.31 4.48 11.59
11/4/2020 12:45:00 AM 5.15 41.27 0.185 7.32 4.51 11.58
11/4/2020 1:00:00 AM 5.1 41.18 0.185 7.3 4.55 11.6
11/4/2020 1:15:00 AM 5.07 41.126 0.185 7.3 4.58 11.61
11/4/2020 1:30:00 AM 5.03 41.054 0.185 7.3 4.55 11.62
11/4/2020 1:45:00 AM 5 41 0.185 7.29 4.58 11.62
11/4/2020 2:00:00 AM 4.96 40.928 0.185 7.31 4.61 11.64
11/4/2020 2:15:00 AM 4.92 40.856 0.185 7.29 4.69 11.64
11/4/2020 2:30:00 AM 4.88 40.784 0.185 7.31 4.66 11.66
11/4/2020 2:45:00 AM 4.84 40.712 0.185 7.31 4.56 11.66
11/4/2020 3:00:00 AM 4.8 40.64 0.185 7.31 4.66 11.68
11/4/2020 3:15:00 AM 4.76 40.568 0.186 7.29 4.57 11.67
11/4/2020 3:30:00 AM 4.72 40.496 0.185 7.3 4.77 11.7
11/4/2020 3:45:00 AM 4.68 40.424 0.185 7.3 4.74 11.7
11/4/2020 4:00:00 AM 4.64 40.352 0.186 7.3 4.79 11.7
11/4/2020 4:15:00 AM 4.6 40.28 0.186 7.31 4.83 11.73
11/4/2020 4:30:00 AM 4.56 40.208 0.186 7.29 5.02 11.73
11/4/2020 4:45:00 AM 4.52 40.136 0.186 7.29 4.96 11.72
11/4/2020 5:00:00 AM 4.49 40.082 0.186 7.3 4.83 11.73
11/4/2020 5:15:00 AM 4.45 40.01 0.186 7.28 4.8 11.76
11/4/2020 5:30:00 AM 4.41 39.938 0.186 7.28 5.15 11.78
11/4/2020 5:45:00 AM 4.37 39.866 0.187 7.28 4.8 11.76
11/4/2020 6:00:00 AM 4.33 39.794 0.186 7.28 4.87 11.78
11/4/2020 6:15:00 AM 4.29 39.722 0.186 7.3 4.96 11.82
11/4/2020 6:30:00 AM 4.26 39.668 0.186 7.28 4.87 11.8
11/4/2020 6:45:00 AM 4.22 39.596 0.186 7.3 4.77 11.84
11/4/2020 7:00:00 AM 4.19 39.542 0.187 7.29 4.83 11.85
11/4/2020 7:15:00 AM 4.16 39.488 0.187 7.3 4.77 11.84
11/4/2020 7:30:00 AM 4.13 39.434 0.187 7.3 4.81 11.88
11/4/2020 7:45:00 AM 4.1 39.38 0.186 7.3 4.85 11.93
11/4/2020 8:00:00 AM 4.09 39.362 0.187 7.31 4.81 11.96
11/4/2020 8:15:00 AM 4.08 39.344 0.187 7.29 4.85 12.01
11/4/2020 8:30:00 AM 4.09 39.362 0.187 7.3 4.68 12.06
11/4/2020 8:45:00 AM 4.1 39.38 0.187 7.31 4.67 12.08
11/4/2020 9:00:00 AM 4.15 39.47 0.187 7.32 4.64 12.15
11/4/2020 9:15:00 AM 4.21 39.578 0.186 7.31 4.67 12.2
11/4/2020 9:30:00 AM 4.28 39.704 0.186 7.33 4.63 12.23
11/4/2020 9:45:00 AM 4.37 39.866 0.186 7.33 4.79 12.28
11/4/2020 10:00:00 AM 4.48 40.064 0.186 7.33 4.63 12.32
11/4/2020 10:15:00 AM 4.61 40.298 0.186 7.33 4.64 12.35
11/4/2020 10:30:00 AM 4.75 40.55 0.186 7.36 4.56 12.39
11/4/2020 10:45:00 AM 4.91 40.838 0.186 7.38 4.57 12.44
11/4/2020 11:00:00 AM 5.06 41.108 0.185 7.38 4.54 12.49
11/4/2020 11:15:00 AM 5.21 41.378 0.186 7.39 4.64 12.49
11/4/2020 11:30:00 AM 5.39 41.702 0.186 7.4 4.52 12.52
11/4/2020 11:45:00 AM 5.56 42.008 0.186 7.4 4.47 12.52
11/4/2020 12:00:00 PM 5.73 42.314 0.186 7.39 4.71 12.56
11/4/2020 12:15:00 PM 5.9 42.62 0.186 7.42 4.92 12.58
11/4/2020 12:30:00 PM 6.07 42.926 0.186 7.41 4.73 12.59
11/4/2020 12:45:00 PM 6.19 43.142 0.187 7.41 4.65 12.58
11/4/2020 1:00:00 PM 6.31 43.358 0.187 7.43 4.96 12.57
11/4/2020 1:15:00 PM 6.46 43.628 0.187 7.44 5.04 12.59
11/4/2020 1:30:00 PM 6.58 43.844 0.187 7.42 4.37 12.58
11/4/2020 1:45:00 PM 6.71 44.078 0.187 7.44 4.7 12.57
11/4/2020 2:00:00 PM 6.76 44.168 0.188 7.43 4.73 12.54
11/4/2020 2:15:00 PM 6.9 44.42 0.187 7.42 4.83 12.55
11/4/2020 2:30:00 PM 6.97 44.546 0.187 7.45 4.43 12.53
11/4/2020 2:45:00 PM 7.03 44.654 0.188 7.44 4.34 12.51
11/4/2020 3:00:00 PM 7.09 44.762 0.187 7.44 4.3 12.48
11/4/2020 3:15:00 PM 7.14 44.852 0.188 7.45 4.39 12.47
11/4/2020 3:30:00 PM 7.16 44.888 0.187 7.47 4.22 12.45
11/4/2020 3:45:00 PM 7.15 44.87 0.188 7.46 4.29 12.42
11/4/2020 4:00:00 PM 7.14 44.852 0.187 7.47 4.46 12.38
11/4/2020 4:15:00 PM 7.11 44.798 0.188 7.46 4.31 12.32
11/4/2020 4:30:00 PM 7.07 44.726 0.188 7.45 4.28 12.26
11/4/2020 4:45:00 PM 7.03 44.654 0.188 7.45 4.19 12.2
11/4/2020 5:00:00 PM 6.99 44.582 0.188 7.45 4.25 12.15
11/4/2020 5:15:00 PM 6.96 44.528 0.188 7.44 4.16 12.08
11/4/2020 5:30:00 PM 6.93 44.474 0.188 7.43 4.26 12.03
11/4/2020 5:45:00 PM 6.91 44.438 0.189 7.42 4.51 11.98
11/4/2020 6:00:00 PM 6.88 44.384 0.188 7.41 4.37 11.91
11/4/2020 6:15:00 PM 6.87 44.366 0.189 7.41 4.53 11.86
11/4/2020 6:30:00 PM 6.85 44.33 0.189 7.4 4.48 11.8
11/4/2020 6:45:00 PM 6.85 44.33 0.189 7.42 4.56 11.75
11/4/2020 7:00:00 PM 6.84 44.312 0.189 7.41 4.45 11.71
11/4/2020 7:15:00 PM 6.84 44.312 0.189 7.39 4.49 11.67
11/4/2020 7:30:00 PM 6.84 44.312 0.189 7.4 4.52 11.61
11/4/2020 7:45:00 PM 6.84 44.312 0.189 7.39 4.43 11.57
11/4/2020 8:00:00 PM 6.84 44.312 0.189 7.37 4.5 11.54
11/4/2020 8:15:00 PM 6.84 44.312 0.189 7.38 4.51 11.48
11/4/2020 8:30:00 PM 6.84 44.312 0.189 7.37 4.57 11.44
11/4/2020 8:45:00 PM 6.84 44.312 0.189 7.35 4.48 11.43
11/4/2020 9:00:00 PM 6.83 44.294 0.189 7.36 4.54 11.37
11/4/2020 9:15:00 PM 6.82 44.276 0.19 7.36 4.44 11.35
11/4/2020 9:30:00 PM 6.81 44.258 0.19 7.34 4.51 11.33
11/4/2020 9:45:00 PM 6.8 44.24 0.19 7.34 4.51 11.3
11/4/2020 10:00:00 PM 6.79 44.222 0.19 7.35 4.49 11.29
11/4/2020 10:15:00 PM 6.77 44.186 0.19 7.35 4.61 11.26
11/4/2020 10:30:00 PM 6.75 44.15 0.189 7.35 4.88 11.25
11/4/2020 10:45:00 PM 6.73 44.114 0.19 7.35 4.68 11.24
11/4/2020 11:00:00 PM 6.7 44.06 0.189 7.34 4.65 11.21
11/4/2020 11:15:00 PM 6.67 44.006 0.189 7.34 4.59 11.22
11/4/2020 11:30:00 PM 6.64 43.952 0.189 7.34 4.56 11.21
11/4/2020 11:45:00 PM 6.6 43.88 0.189 7.34 4.61 11.22
11/5/2020 12:00:00 AM 6.56 43.808 0.189 7.33 4.88 11.2
11/5/2020 12:15:00 AM 6.54 43.772 0.189 7.31 4.56 11.18
11/5/2020 12:30:00 AM 6.49 43.682 0.19 7.3 4.62 11.21
11/5/2020 12:45:00 AM 6.45 43.61 0.19 7.32 4.66 11.21
11/5/2020 1:00:00 AM 6.41 43.538 0.19 7.31 4.74 11.22
11/5/2020 1:15:00 AM 6.36 43.448 0.19 7.33 4.59 11.22
11/5/2020 1:30:00 AM 6.32 43.376 0.19 7.32 4.62 11.21
11/5/2020 1:45:00 AM 6.27 43.286 0.19 7.33 4.64 11.22
11/5/2020 2:00:00 AM 6.23 43.214 0.189 7.31 4.6 11.24
11/5/2020 2:15:00 AM 6.19 43.142 0.19 7.3 4.54 11.22
11/5/2020 2:30:00 AM 6.14 43.052 0.19 7.3 4.6 11.24
11/5/2020 2:45:00 AM 6.1 42.98 0.19 7.28 4.61 11.24
11/5/2020 3:00:00 AM 6.05 42.89 0.19 7.31 5.1 11.24
11/5/2020 3:15:00 AM 6 42.8 0.19 7.32 4.93 11.26
11/5/2020 3:30:00 AM 5.95 42.71 0.189 7.29 5.03 11.27
11/5/2020 3:45:00 AM 5.92 42.656 0.19 7.3 5 11.26
11/5/2020 4:00:00 AM 5.87 42.566 0.19 7.28 5.01 11.26
11/5/2020 4:15:00 AM 5.82 42.476 0.189 7.31 4.86 11.3
11/5/2020 4:30:00 AM 5.78 42.404 0.19 7.29 4.88 11.27
11/5/2020 4:45:00 AM 5.74 42.332 0.19 7.28 4.86 11.31
11/5/2020 5:00:00 AM 5.69 42.242 0.19 7.31 5.02 11.31
11/5/2020 5:15:00 AM 5.65 42.17 0.19 7.3 5.05 11.32
11/5/2020 5:30:00 AM 5.61 42.098 0.19 7.28 4.94 11.31
11/5/2020 5:45:00 AM 5.57 42.026 0.19 7.3 4.96 11.32
11/5/2020 6:00:00 AM 5.53 41.954 0.19 7.3 4.88 11.32
11/5/2020 6:15:00 AM 5.49 41.882 0.19 7.29 4.89 11.36
11/5/2020 6:30:00 AM 5.45 41.81 0.19 7.3 4.9 11.37
11/5/2020 6:45:00 AM 5.41 41.738 0.19 7.31 4.78 11.38
11/5/2020 7:00:00 AM 5.38 41.684 0.19 7.3 4.91 11.37
11/5/2020 7:15:00 AM 5.34 41.612 0.19 7.29 4.81 11.39
11/5/2020 7:30:00 AM 5.31 41.558 0.189 7.31 4.89 11.44
11/5/2020 7:45:00 AM 5.29 41.522 0.189 7.31 4.94 11.45
11/5/2020 8:00:00 AM 5.27 41.486 0.189 7.29 4.95 11.52
11/5/2020 8:15:00 AM 5.26 41.468 0.19 7.3 4.96 11.54
11/5/2020 8:30:00 AM 5.27 41.486 0.189 7.32 4.96 11.62
11/5/2020 8:45:00 AM 5.29 41.522 0.189 7.3 5 11.64
11/5/2020 9:00:00 AM 5.34 41.612 0.19 7.31 4.83 11.69
11/5/2020 9:15:00 AM 5.4 41.72 0.19 7.32 4.92 11.77
11/5/2020 9:30:00 AM 5.5 41.9 0.19 7.35 4.83 11.83
11/5/2020 9:45:00 AM 5.6 42.08 0.19 7.34 4.69 11.86
11/5/2020 10:00:00 AM 5.73 42.314 0.19 7.36 4.68 11.92
11/5/2020 10:15:00 AM 5.88 42.584 0.189 7.37 4.83 11.97
11/5/2020 10:30:00 AM 6.04 42.872 0.189 7.37 4.76 12.04
11/5/2020 10:45:00 AM 6.2 43.16 0.189 7.39 4.74 12.09
11/5/2020 11:00:00 AM 6.35 43.43 0.189 7.38 4.54 12.15
11/5/2020 11:15:00 AM 6.48 43.664 0.189 7.41 6.87 12.14
11/5/2020 11:30:00 AM 6.63 43.934 0.189 7.41 6.22 12.17
11/5/2020 11:45:00 AM 6.83 44.294 0.189 7.41 6.03 12.2
11/5/2020 12:00:00 PM 7 44.6 0.189 7.42 5.23 12.26
11/5/2020 12:15:00 PM 7.19 44.942 0.189 7.44 4.91 12.29
11/5/2020 12:30:00 PM 7.36 45.248 0.189 7.45 4.82 12.32
11/5/2020 12:45:00 PM 7.5 45.5 0.189 7.46 6.47 12.35
11/5/2020 1:00:00 PM 7.67 45.806 0.189 7.44 5.76 12.36
11/5/2020 1:15:00 PM 7.75 45.95 0.189 7.45 5.48 12.35
11/5/2020 1:30:00 PM 7.9 46.22 0.189 7.45 5.53 12.37
11/5/2020 1:45:00 PM 8 46.4 0.189 7.46 5.22 12.38
11/5/2020 2:00:00 PM 8.11 46.598 0.189 7.47 4.68 12.37
11/5/2020 2:15:00 PM 8.22 46.796 0.189 7.48 5.19 12.39
11/5/2020 2:30:00 PM 8.27 46.886 0.189 7.49 7.59 12.37
11/5/2020 2:45:00 PM 8.35 47.03 0.189 7.51 3.92 12.36
11/5/2020 3:00:00 PM 8.4 47.12 0.189 7.5 4 12.35
11/5/2020 3:15:00 PM 8.43 47.174 0.189 7.5 4.12 12.32
11/5/2020 3:30:00 PM 8.45 47.21 0.189 7.52 4.01 12.3
11/5/2020 3:45:00 PM 8.43 47.174 0.189 7.52 3.88 12.27
11/5/2020 4:00:00 PM 8.41 47.138 0.189 7.53 4.12 12.22
11/5/2020 4:15:00 PM 8.38 47.084 0.189 7.5 4.12 12.17
11/5/2020 4:30:00 PM 8.36 47.048 0.189 7.49 3.95 12.09
11/5/2020 4:45:00 PM 8.3 46.94 0.189 7.49 4.06 12.02
11/5/2020 5:00:00 PM 8.25 46.85 0.189 7.48 4.07 11.96
11/5/2020 5:15:00 PM 8.2 46.76 0.189 7.48 3.97 11.88
11/5/2020 5:30:00 PM 8.16 46.688 0.189 7.47 4.08 11.82
11/5/2020 5:45:00 PM 8.12 46.616 0.189 7.47 4.07 11.73
11/5/2020 6:00:00 PM 8.07 46.526 0.189 7.45 4.19 11.67
11/5/2020 6:15:00 PM 8.04 46.472 0.19 7.43 4.23 11.6
11/5/2020 6:30:00 PM 8 46.4 0.19 7.42 4.46 11.53
11/5/2020 6:45:00 PM 7.97 46.346 0.19 7.41 4.27 11.5
11/5/2020 7:00:00 PM 7.94 46.292 0.19 7.41 4.5 11.43
11/5/2020 7:15:00 PM 7.91 46.238 0.19 7.42 4.33 11.39
11/5/2020 7:30:00 PM 7.88 46.184 0.19 7.41 4.36 11.33
11/5/2020 7:45:00 PM 7.86 46.148 0.191 7.38 4.27 11.3
11/5/2020 8:00:00 PM 7.84 46.112 0.19 7.4 4.37 11.25
11/5/2020 8:15:00 PM 7.82 46.076 0.19 7.39 4.39 11.19
11/5/2020 8:30:00 PM 7.8 46.04 0.191 7.38 4.41 11.16
11/5/2020 8:45:00 PM 7.78 46.004 0.191 7.37 4.63 11.12
11/5/2020 9:00:00 PM 7.76 45.968 0.191 7.38 4.58 11.08
11/5/2020 9:15:00 PM 7.74 45.932 0.191 7.36 4.85 11.05
11/5/2020 9:30:00 PM 7.73 45.914 0.191 7.35 4.77 11.01
11/5/2020 9:45:00 PM 7.72 45.896 0.191 7.34 4.5 10.99
11/5/2020 10:00:00 PM 7.71 45.878 0.191 7.36 4.47 10.98
11/5/2020 10:15:00 PM 7.71 45.878 0.191 7.33 4.51 10.95
11/5/2020 10:30:00 PM 7.7 45.86 0.191 7.34 4.44 10.92
11/5/2020 10:45:00 PM 7.7 45.86 0.191 7.33 4.41 10.9
11/5/2020 11:00:00 PM 7.7 45.86 0.191 7.32 4.27 10.88
11/5/2020 11:15:00 PM 7.69 45.842 0.191 7.32 4.28 10.86
11/5/2020 11:30:00 PM 7.68 45.824 0.191 7.34 4.3 10.84
11/5/2020 11:45:00 PM 7.67 45.806 0.191 7.32 4.45 10.85
11/6/2020 12:00:00 AM 7.67 45.806 0.191 7.33 4.36 10.84
11/6/2020 12:15:00 AM 7.65 45.77 0.191 7.33 4.35 10.83
11/6/2020 12:30:00 AM 7.65 45.77 0.191 7.3 4.32 10.8
11/6/2020 12:45:00 AM 7.64 45.752 0.191 7.3 4.24 10.81
11/6/2020 1:00:00 AM 7.63 45.734 0.191 7.31 4.41 10.81
11/6/2020 1:15:00 AM 7.63 45.734 0.191 7.3 4.26 10.81
11/6/2020 1:30:00 AM 7.62 45.716 0.191 7.32 4.28 10.78
11/6/2020 1:45:00 AM 7.61 45.698 0.191 7.29 4.23 10.8
11/6/2020 2:00:00 AM 7.59 45.662 0.191 7.3 4.36 10.81
11/6/2020 2:15:00 AM 7.57 45.626 0.191 7.31 4.3 10.79
11/6/2020 2:30:00 AM 7.54 45.572 0.19 7.29 4.17 10.81
11/6/2020 2:45:00 AM 7.51 45.518 0.19 7.29 4.2 10.81
11/6/2020 3:00:00 AM 7.47 45.446 0.191 7.3 4.26 10.8
11/6/2020 3:15:00 AM 7.43 45.374 0.191 7.29 4.2 10.82
11/6/2020 3:30:00 AM 7.38 45.284 0.191 7.3 4.2 10.79
11/6/2020 3:45:00 AM 7.33 45.194 0.191 7.27 4.39 10.8
11/6/2020 4:00:00 AM 7.28 45.104 0.19 7.3 4.26 10.82
11/6/2020 4:15:00 AM 7.23 45.014 0.19 7.29 4.29 10.81
11/6/2020 4:30:00 AM 7.18 44.924 0.19 7.27 4.16 10.84
11/6/2020 4:45:00 AM 7.13 44.834 0.19 7.27 4.15 10.8
11/6/2020 5:00:00 AM 7.08 44.744 0.19 7.27 4.14 10.83
11/6/2020 5:15:00 AM 7.03 44.654 0.191 7.26 4.22 10.81
11/6/2020 5:30:00 AM 6.97 44.546 0.19 7.27 4.13 10.86
11/6/2020 5:45:00 AM 6.92 44.456 0.191 7.28 4.2 10.84
11/6/2020 6:00:00 AM 6.86 44.348 0.19 7.27 4.22 10.84
11/6/2020 6:15:00 AM 6.8 44.24 0.19 7.29 4.18 10.88
11/6/2020 6:30:00 AM 6.76 44.168 0.19 7.28 4.34 10.88
11/6/2020 6:45:00 AM 6.71 44.078 0.19 7.25 4.28 10.89
11/6/2020 7:00:00 AM 6.66 43.988 0.19 7.26 4.27 10.87
11/6/2020 7:15:00 AM 6.61 43.898 0.19 7.26 4.27 10.9
11/6/2020 7:30:00 AM 6.58 43.844 0.19 7.25 4.31 10.89
11/6/2020 7:45:00 AM 6.54 43.772 0.19 7.25 4.28 10.95
11/6/2020 8:00:00 AM 6.51 43.718 0.189 7.26 4.19 11.05
11/6/2020 8:15:00 AM 6.51 43.718 0.19 7.27 4.14 11.06
11/6/2020 8:30:00 AM 6.5 43.7 0.189 7.27 4.15 11.17
11/6/2020 8:45:00 AM 6.52 43.736 0.189 7.27 4.11 11.23
11/6/2020 9:00:00 AM 6.55 43.79 0.189 7.29 4.24 11.34
11/6/2020 9:15:00 AM 6.63 43.934 0.189 7.31 4.03 11.36
11/6/2020 9:30:00 AM 6.72 44.096 0.189 7.32 4.13 11.46
11/6/2020 9:45:00 AM 6.82 44.276 0.189 7.33 4.16 11.52
11/6/2020 10:00:00 AM 6.93 44.474 0.19 7.32 4.21 11.57
11/6/2020 10:15:00 AM 7.09 44.762 0.19 7.35 3.95 11.65
11/6/2020 10:30:00 AM 7.26 45.068 0.19 7.34 4.24 11.7
11/6/2020 10:45:00 AM 7.41 45.338 0.19 7.39 4.18 11.81
11/6/2020 11:00:00 AM 7.57 45.626 0.19 7.38 4.16 11.85
11/6/2020 11:15:00 AM 7.77 45.986 0.19 7.39 4.14 11.87
11/6/2020 11:30:00 AM 7.89 46.202 0.19 7.41 4.26 11.91
11/6/2020 11:45:00 AM 8.07 46.526 0.19 7.4 4.08 11.96
11/6/2020 12:00:00 PM 8.23 46.814 0.19 7.41 4.02 12
11/6/2020 12:15:00 PM 8.43 47.174 0.19 7.43 4.09 12.02
11/6/2020 12:30:00 PM 8.58 47.444 0.19 7.43 4.03 12.08
11/6/2020 12:45:00 PM 8.73 47.714 0.19 7.45 16.13 12.11
11/6/2020 1:00:00 PM 8.85 47.93 0.191 7.45 3.97 12.13
11/6/2020 1:15:00 PM 8.98 48.164 0.191 7.46 3.99 12.13
11/6/2020 1:30:00 PM 9.11 48.398 0.191 7.47 3.92 12.15
11/6/2020 1:45:00 PM 9.22 48.596 0.191 7.5 3.94 12.17
11/6/2020 2:00:00 PM 9.34 48.812 0.191 7.48 4.02 12.16
11/6/2020 2:15:00 PM 9.43 48.974 0.191 7.51 4.03 12.17
11/6/2020 2:30:00 PM 9.52 49.136 0.191 7.51 3.89 12.15
11/6/2020 2:45:00 PM 9.57 49.226 0.191 7.51 3.88 12.15
11/6/2020 3:00:00 PM 9.62 49.316 0.192 7.53 3.88 12.12
11/6/2020 3:15:00 PM 9.65 49.37 0.192 7.52 4.49 12.11
11/6/2020 3:30:00 PM 9.67 49.406 0.192 7.52 4.07 12.09
11/6/2020 3:45:00 PM 9.67 49.406 0.192 7.53 3.99 12.04
11/6/2020 4:00:00 PM 9.63 49.334 0.192 7.52 3.91 12
11/6/2020 4:15:00 PM 9.59 49.262 0.192 7.51 4 11.94
11/6/2020 4:30:00 PM 9.53 49.154 0.192 7.5 3.94 11.87
11/6/2020 4:45:00 PM 9.46 49.028 0.192 7.49 4.01 11.78
11/6/2020 5:00:00 PM 9.38 48.884 0.192 7.48 3.87 11.7
11/6/2020 5:15:00 PM 9.31 48.758 0.192 7.47 3.88 11.6
11/6/2020 5:30:00 PM 9.23 48.614 0.192 7.48 4.02 11.53
11/6/2020 5:45:00 PM 9.17 48.506 0.192 7.46 4.29 11.43
11/6/2020 6:00:00 PM 9.11 48.398 0.193 7.45 4.02 11.35
11/6/2020 6:15:00 PM 9.06 48.308 0.193 7.41 4.12 11.29
11/6/2020 6:30:00 PM 8.98 48.164 0.192 7.43 4.2 11.24
11/6/2020 6:45:00 PM 8.92 48.056 0.192 7.4 4.21 11.21
11/6/2020 7:00:00 PM 8.86 47.948 0.192 7.4 4.35 11.17
11/6/2020 7:15:00 PM 8.82 47.876 0.192 7.41 4.19 11.13
11/6/2020 7:30:00 PM 8.78 47.804 0.192 7.38 4.27 11.07
11/6/2020 7:45:00 PM 8.75 47.75 0.192 7.4 4.48 11.02
11/6/2020 8:00:00 PM 8.71 47.678 0.192 7.38 4.49 10.98
11/6/2020 8:15:00 PM 8.68 47.624 0.192 7.38 4.29 10.93
11/6/2020 8:30:00 PM 8.65 47.57 0.192 7.38 4.18 10.89
11/6/2020 8:45:00 PM 8.62 47.516 0.192 7.35 4.25 10.84
11/6/2020 9:00:00 PM 8.59 47.462 0.193 7.35 4.34 10.8
11/6/2020 9:15:00 PM 8.56 47.408 0.192 7.33 4.32 10.76
11/6/2020 9:30:00 PM 8.53 47.354 0.193 7.35 4.58 10.73
11/6/2020 9:45:00 PM 8.5 47.3 0.192 7.32 4.31 10.69
11/6/2020 10:00:00 PM 8.48 47.264 0.192 7.33 4.28 10.66
11/6/2020 10:15:00 PM 8.45 47.21 0.192 7.3 4.35 10.63
11/6/2020 10:30:00 PM 8.42 47.156 0.192 7.31 4.29 10.59
11/6/2020 10:45:00 PM 8.39 47.102 0.191 7.3 4.46 10.58
11/6/2020 11:00:00 PM 8.37 47.066 0.191 7.31 4.36 10.54
11/6/2020 11:15:00 PM 8.34 47.012 0.19 7.29 4.28 10.55
11/6/2020 11:30:00 PM 8.32 46.976 0.189 7.28 4.43 10.53
11/6/2020 11:45:00 PM 8.29 46.922 0.189 7.27 4.56 10.47
11/7/2020 12:00:00 AM 8.25 46.85 0.189 7.29 4.3 10.48
11/7/2020 12:15:00 AM 8.22 46.796 0.189 7.27 4.65 10.47
11/7/2020 12:30:00 AM 8.18 46.724 0.188 7.26 4.39 10.49
11/7/2020 12:45:00 AM 8.15 46.67 0.189 7.28 4.29 10.47
11/7/2020 1:00:00 AM 8.11 46.598 0.188 7.25 4.2 10.47
11/7/2020 1:15:00 AM 8.06 46.508 0.189 7.25 4.15 10.45
11/7/2020 1:30:00 AM 8.02 46.436 0.189 7.25 4.06 10.45
11/7/2020 1:45:00 AM 7.97 46.346 0.189 7.25 4.34 10.46
11/7/2020 2:00:00 AM 7.92 46.256 0.19 7.25 4.27 10.45
11/7/2020 2:15:00 AM 7.87 46.166 0.19 7.27 4.44 10.47
11/7/2020 2:30:00 AM 7.82 46.076 0.191 7.24 4.27 10.46
11/7/2020 2:45:00 AM 7.77 45.986 0.192 7.24 4.32 10.46
11/7/2020 3:00:00 AM 7.71 45.878 0.192 7.25 4.19 10.46
11/7/2020 3:15:00 AM 7.68 45.824 0.193 7.24 4.1 10.45
11/7/2020 3:30:00 AM 7.61 45.698 0.193 7.26 4.33 10.46
11/7/2020 3:45:00 AM 7.55 45.59 0.194 7.26 4.12 10.52
11/7/2020 4:00:00 AM 7.5 45.5 0.194 7.27 4.1 10.49
11/7/2020 4:15:00 AM 7.44 45.392 0.194 7.25 4.09 10.53
11/7/2020 4:30:00 AM 7.39 45.302 0.195 7.24 4.12 10.5
11/7/2020 4:45:00 AM 7.34 45.212 0.195 7.27 5.17 10.54
11/7/2020 5:00:00 AM 7.28 45.104 0.196 7.25 4.57 10.52
11/7/2020 5:15:00 AM 7.23 45.014 0.196 7.24 4.63 10.54
11/7/2020 5:30:00 AM 7.18 44.924 0.196 7.25 5.25 10.54
11/7/2020 5:45:00 AM 7.11 44.798 0.196 7.26 4.47 10.59
11/7/2020 6:00:00 AM 7.06 44.708 0.197 7.24 4.45 10.59
11/7/2020 6:15:00 AM 7.01 44.618 0.197 7.25 4.33 10.58
11/7/2020 6:30:00 AM 6.97 44.546 0.197 7.24 4.31 10.59
11/7/2020 6:45:00 AM 6.91 44.438 0.197 7.24 4.37 10.63
11/7/2020 7:00:00 AM 6.86 44.348 0.197 7.26 4.13 10.64
11/7/2020 7:15:00 AM 6.81 44.258 0.197 7.26 4.09 10.66
11/7/2020 7:30:00 AM 6.77 44.186 0.197 7.24 4.21 10.7
11/7/2020 7:45:00 AM 6.72 44.096 0.197 7.26 4.26 10.73
11/7/2020 8:00:00 AM 6.69 44.042 0.197 7.27 4.2 10.81
11/7/2020 8:15:00 AM 6.67 44.006 0.197 7.27 4.3 10.87
11/7/2020 8:30:00 AM 6.67 44.006 0.197 7.27 4.22 10.95
11/7/2020 8:45:00 AM 6.67 44.006 0.197 7.29 4.23 11.01
11/7/2020 9:00:00 AM 6.69 44.042 0.198 7.3 4.22 11.11
11/7/2020 9:15:00 AM 6.74 44.132 0.198 7.28 4.21 11.19
11/7/2020 9:30:00 AM 6.82 44.276 0.197 7.31 4 11.34
11/7/2020 9:45:00 AM 6.92 44.456 0.197 7.33 4.2 11.4
11/7/2020 10:00:00 AM 7.03 44.654 0.198 7.35 5.31 11.51
11/7/2020 10:15:00 AM 7.16 44.888 0.197 7.34 8.51 11.59
11/7/2020 10:30:00 AM 7.31 45.158 0.197 7.38 4.23 11.69
11/7/2020 10:45:00 AM 7.47 45.446 0.197 7.38 3.83 11.76
11/7/2020 11:00:00 AM 7.66 45.788 0.197 7.37 3.97 11.83
11/7/2020 11:15:00 AM 7.83 46.094 0.196 7.43 4.48 11.93
11/7/2020 11:30:00 AM 8 46.4 0.197 7.42 3.91 11.96
11/7/2020 11:45:00 AM 8.17 46.706 0.196 7.45 3.81 12.05
11/7/2020 12:00:00 PM 8.39 47.102 0.197 7.46 3.79 12.09
11/7/2020 12:15:00 PM 8.5 47.3 0.196 7.47 3.71 12.14
11/7/2020 12:30:00 PM 8.64 47.552 0.196 7.48 3.84 12.2
11/7/2020 12:45:00 PM 8.76 47.768 0.196 7.47 4.27 12.23
11/7/2020 1:00:00 PM 8.93 48.074 0.195 7.52 3.8 12.29
11/7/2020 1:15:00 PM 9.03 48.254 0.195 7.51 3.81 12.34
11/7/2020 1:30:00 PM 9.15 48.47 0.194 7.52 3.78 12.36
11/7/2020 1:45:00 PM 9.25 48.65 0.194 7.54 3.93 12.39
11/7/2020 2:00:00 PM 9.34 48.812 0.193 7.56 3.69 12.39
11/7/2020 2:15:00 PM 9.43 48.974 0.193 7.56 3.72 12.4
11/7/2020 2:30:00 PM 9.53 49.154 0.193 7.59 3.8 12.4
11/7/2020 2:45:00 PM 9.57 49.226 0.193 7.57 3.84 12.39
11/7/2020 3:00:00 PM 9.61 49.298 0.193 7.58 3.97 12.38
11/7/2020 3:15:00 PM 9.65 49.37 0.193 7.59 3.91 12.36
11/7/2020 3:30:00 PM 9.67 49.406 0.193 7.59 3.94 12.34
11/7/2020 3:45:00 PM 9.67 49.406 0.193 7.61 3.95 12.3
11/7/2020 4:00:00 PM 9.63 49.334 0.193 7.59 3.89 12.27
11/7/2020 4:15:00 PM 9.59 49.262 0.193 7.59 3.92 12.2
11/7/2020 4:30:00 PM 9.54 49.172 0.193 7.6 3.91 12.12
11/7/2020 4:45:00 PM 9.46 49.028 0.193 7.56 4.04 12.01
11/7/2020 5:00:00 PM 9.38 48.884 0.193 7.55 4.05 11.91
11/7/2020 5:15:00 PM 9.32 48.776 0.193 7.53 4.12 11.82
11/7/2020 5:30:00 PM 9.23 48.614 0.192 7.53 4.08 11.73
11/7/2020 5:45:00 PM 9.16 48.488 0.192 7.51 6.69 11.62
11/7/2020 6:00:00 PM 9.08 48.344 0.192 7.5 4.2 11.53
11/7/2020 6:15:00 PM 9.01 48.218 0.191 7.46 4.12 11.46
11/7/2020 6:30:00 PM 8.95 48.11 0.191 7.44 4.33 11.39
11/7/2020 6:45:00 PM 8.89 48.002 0.19 7.45 4.35 11.32
11/7/2020 7:00:00 PM 8.83 47.894 0.19 7.41 4.32 11.26
11/7/2020 7:15:00 PM 8.78 47.804 0.19 7.4 4.35 11.21
11/7/2020 7:30:00 PM 8.72 47.696 0.19 7.39 4.35 11.18
11/7/2020 7:45:00 PM 8.66 47.588 0.19 7.39 4.31 11.13
11/7/2020 8:00:00 PM 8.62 47.516 0.19 7.39 4.5 11.08
11/7/2020 8:15:00 PM 8.58 47.444 0.191 7.39 4.31 11.03
11/7/2020 8:30:00 PM 8.52 47.336 0.19 7.35 4.38 10.98
11/7/2020 8:45:00 PM 8.47 47.246 0.19 7.37 4.45 10.94
11/7/2020 9:00:00 PM 8.44 47.192 0.191 7.35 4.53 10.9
11/7/2020 9:15:00 PM 8.39 47.102 0.191 7.34 4.47 10.86
11/7/2020 9:30:00 PM 8.36 47.048 0.191 7.34 4.33 10.82
11/7/2020 9:45:00 PM 8.32 46.976 0.192 7.35 4.48 10.79
11/7/2020 10:00:00 PM 8.28 46.904 0.192 7.35 4.34 10.77
11/7/2020 10:15:00 PM 8.23 46.814 0.193 7.34 4.43 10.74
11/7/2020 10:30:00 PM 8.19 46.742 0.193 7.32 4.37 10.71
11/7/2020 10:45:00 PM 8.16 46.688 0.194 7.31 4.42 10.68
11/7/2020 11:00:00 PM 8.12 46.616 0.194 7.31 4.6 10.66
11/7/2020 11:15:00 PM 8.08 46.544 0.194 7.33 4.4 10.63
11/7/2020 11:30:00 PM 8.04 46.472 0.195 7.33 4.65 10.62
11/7/2020 11:45:00 PM 8 46.4 0.195 7.32 4.58 10.59
11/8/2020 12:00:00 AM 7.96 46.328 0.195 7.3 4.59 10.57
11/8/2020 12:15:00 AM 7.93 46.274 0.196 7.31 6.05 10.55
11/8/2020 12:30:00 AM 7.88 46.184 0.196 7.29 5.08 10.54
11/8/2020 12:45:00 AM 7.84 46.112 0.196 7.31 4.86 10.55
11/8/2020 1:00:00 AM 7.8 46.04 0.196 7.31 4.54 10.54
11/8/2020 1:15:00 AM 7.75 45.95 0.196 7.3 4.61 10.53
11/8/2020 1:30:00 AM 7.72 45.896 0.197 7.31 4.6 10.52
11/8/2020 1:45:00 AM 7.67 45.806 0.197 7.28 4.48 10.51
11/8/2020 2:00:00 AM 7.63 45.734 0.197 7.3 4.58 10.5
11/8/2020 2:15:00 AM 7.58 45.644 0.198 7.29 4.39 10.48
11/8/2020 2:30:00 AM 7.54 45.572 0.197 7.27 4.49 10.5
11/8/2020 2:45:00 AM 7.49 45.482 0.198 7.27 4.53 10.51
11/8/2020 3:00:00 AM 7.45 45.41 0.198 7.29 4.4 10.51
11/8/2020 3:15:00 AM 7.4 45.32 0.198 7.27 4.42 10.52
11/8/2020 3:30:00 AM 7.35 45.23 0.198 7.29 4.28 10.54
11/8/2020 3:45:00 AM 7.3 45.14 0.198 7.28 4.35 10.52
11/8/2020 4:00:00 AM 7.25 45.05 0.199 7.29 4.31 10.54
11/8/2020 4:15:00 AM 7.21 44.978 0.199 7.28 4.41 10.55
11/8/2020 4:30:00 AM 7.15 44.87 0.199 7.28 4.44 10.54
11/8/2020 4:45:00 AM 7.1 44.78 0.199 7.26 4.26 10.57
11/8/2020 5:00:00 AM 7.06 44.708 0.199 7.29 4.22 10.57
11/8/2020 5:15:00 AM 6.99 44.582 0.199 7.29 4.27 10.59
11/8/2020 5:30:00 AM 6.94 44.492 0.2 7.28 4.65 10.57
11/8/2020 5:45:00 AM 6.89 44.402 0.2 7.26 4.36 10.61
11/8/2020 6:00:00 AM 6.83 44.294 0.2 7.27 4.53 10.63
11/8/2020 6:15:00 AM 6.77 44.186 0.2 7.29 4.34 10.67
11/8/2020 6:30:00 AM 6.73 44.114 0.201 7.28 4.49 10.62
11/8/2020 6:45:00 AM 6.67 44.006 0.2 7.28 4.4 10.66
11/8/2020 7:00:00 AM 6.62 43.916 0.2 7.25 4.34 10.68
11/8/2020 7:15:00 AM 6.58 43.844 0.2 7.25 4.48 10.68
11/8/2020 7:30:00 AM 6.53 43.754 0.201 7.26 4.51 10.71
11/8/2020 7:45:00 AM 6.5 43.7 0.201 7.26 4.36 10.72
11/8/2020 8:00:00 AM 6.46 43.628 0.201 7.27 4.48 10.81
11/8/2020 8:15:00 AM 6.44 43.592 0.201 7.27 4.47 10.9
11/8/2020 8:30:00 AM 6.42 43.556 0.201 7.3 4.12 11
11/8/2020 8:45:00 AM 6.43 43.574 0.201 7.29 4.42 11.06
11/8/2020 9:00:00 AM 6.44 43.592 0.201 7.32 4.26 11.16
11/8/2020 9:15:00 AM 6.48 43.664 0.201 7.33 4.08 11.3
11/8/2020 9:30:00 AM 6.55 43.79 0.201 7.35 4.02 11.45
11/8/2020 9:45:00 AM 6.64 43.952 0.201 7.36 4.01 11.52
11/8/2020 10:00:00 AM 6.76 44.168 0.2 7.38 3.96 11.68
11/8/2020 10:15:00 AM 6.89 44.402 0.201 7.39 4.11 11.71
11/8/2020 10:30:00 AM 7.05 44.69 0.2 7.41 3.92 11.85
11/8/2020 10:45:00 AM 7.2 44.96 0.2 7.41 4.05 11.93
11/8/2020 11:00:00 AM 7.39 45.302 0.2 7.42 3.84 11.98
11/8/2020 11:15:00 AM 7.54 45.572 0.2 7.46 3.81 12.08
11/8/2020 11:30:00 AM 7.71 45.878 0.199 7.45 3.76 12.16
11/8/2020 11:45:00 AM 7.88 46.184 0.199 7.46 3.68 12.22
11/8/2020 12:00:00 PM 8.03 46.454 0.199 7.47 3.71 12.27
11/8/2020 12:15:00 PM 8.15 46.67 0.199 7.49 3.69 12.36
11/8/2020 12:30:00 PM 8.4 47.12 0.199 7.49 3.79 12.39
11/8/2020 12:45:00 PM 8.47 47.246 0.198 7.52 3.63 12.47
11/8/2020 1:00:00 PM 8.67 47.606 0.199 7.52 3.72 12.49
11/8/2020 1:15:00 PM 8.75 47.75 0.198 7.54 4.18 12.55
11/8/2020 1:30:00 PM 8.9 48.02 0.198 7.56 4.27 12.56
11/8/2020 1:45:00 PM 9.03 48.254 0.198 7.56 4.22 12.58
11/8/2020 2:00:00 PM 9.14 48.452 0.198 7.59 4.17 12.6
11/8/2020 2:15:00 PM 9.24 48.632 0.198 7.59 4.33 12.61
11/8/2020 2:30:00 PM 9.35 48.83 0.198 7.6 4.32 12.61
11/8/2020 2:45:00 PM 9.42 48.956 0.198 7.6 4.42 12.61
11/8/2020 3:00:00 PM 9.48 49.064 0.198 7.63 7.79 12.59
11/8/2020 3:15:00 PM 9.53 49.154 0.198 7.64 3.66 12.58
11/8/2020 3:30:00 PM 9.55 49.19 0.198 7.62 3.77 12.56
11/8/2020 3:45:00 PM 9.56 49.208 0.197 7.65 3.67 12.54
11/8/2020 4:00:00 PM 9.54 49.172 0.198 7.63 3.68 12.5
11/8/2020 4:15:00 PM 9.5 49.1 0.198 7.63 3.74 12.46
11/8/2020 4:30:00 PM 9.43 48.974 0.198 7.62 3.7 12.38
11/8/2020 4:45:00 PM 9.35 48.83 0.198 7.62 3.75 12.31
11/8/2020 5:00:00 PM 9.25 48.65 0.198 7.59 3.87 12.21
11/8/2020 5:15:00 PM 9.17 48.506 0.198 7.58 3.7 12.09
11/8/2020 5:30:00 PM 9.06 48.308 0.198 7.55 3.73 11.99
11/8/2020 5:45:00 PM 8.98 48.164 0.198 7.54 3.84 11.87
11/8/2020 6:00:00 PM 8.88 47.984 0.198 7.52 3.95 11.77
11/8/2020 6:15:00 PM 8.79 47.822 0.198 7.52 3.83 11.67
11/8/2020 6:30:00 PM 8.71 47.678 0.198 7.48 3.81 11.59
11/8/2020 6:45:00 PM 8.62 47.516 0.198 7.49 3.99 11.52
11/8/2020 7:00:00 PM 8.55 47.39 0.199 7.47 3.89 11.46
11/8/2020 7:15:00 PM 8.48 47.264 0.198 7.45 3.81 11.42
11/8/2020 7:30:00 PM 8.41 47.138 0.199 7.43 3.86 11.36
11/8/2020 7:45:00 PM 8.34 47.012 0.199 7.44 3.99 11.32
11/8/2020 8:00:00 PM 8.28 46.904 0.199 7.43 3.95 11.28
11/8/2020 8:15:00 PM 8.22 46.796 0.199 7.43 3.87 11.23
11/8/2020 8:30:00 PM 8.16 46.688 0.199 7.41 4.2 11.19
11/8/2020 8:45:00 PM 8.09 46.562 0.199 7.41 3.94 11.14
11/8/2020 9:00:00 PM 8.05 46.49 0.2 7.38 3.93 11.1
11/8/2020 9:15:00 PM 7.99 46.382 0.2 7.39 4.11 11.06
11/8/2020 9:30:00 PM 7.93 46.274 0.2 7.39 4.16 11.02
11/8/2020 9:45:00 PM 7.89 46.202 0.2 7.36 4.22 10.98
11/8/2020 10:00:00 PM 7.83 46.094 0.199 7.36 3.88 10.95
11/8/2020 10:15:00 PM 7.79 46.022 0.2 7.35 4.1 10.92
11/8/2020 10:30:00 PM 7.74 45.932 0.2 7.36 4.15 10.88
11/8/2020 10:45:00 PM 7.69 45.842 0.2 7.33 4.34 10.85
11/8/2020 11:00:00 PM 7.66 45.788 0.2 7.35 4.17 10.83
11/8/2020 11:15:00 PM 7.61 45.698 0.201 7.33 4.3 10.81
11/8/2020 11:30:00 PM 7.57 45.626 0.2 7.33 4.22 10.81
11/8/2020 11:45:00 PM 7.52 45.536 0.201 7.34 4.6 10.77
11/9/2020 12:00:00 AM 7.48 45.464 0.201 7.32 4.19 10.76
11/9/2020 12:15:00 AM 7.44 45.392 0.201 7.34 4.42 10.75
11/9/2020 12:30:00 AM 7.4 45.32 0.2 7.31 4.33 10.75
11/9/2020 12:45:00 AM 7.36 45.248 0.201 7.33 4.33 10.73
11/9/2020 1:00:00 AM 7.32 45.176 0.201 7.33 4.29 10.71
11/9/2020 1:15:00 AM 7.28 45.104 0.201 7.33 4.23 10.71
11/9/2020 1:30:00 AM 7.25 45.05 0.201 7.3 4.22 10.71
11/9/2020 1:45:00 AM 7.21 44.978 0.201 7.32 4.04 10.67
11/9/2020 2:00:00 AM 7.17 44.906 0.201 7.29 4.26 10.69
11/9/2020 2:15:00 AM 7.13 44.834 0.202 7.31 4.34 10.65
11/9/2020 2:30:00 AM 7.1 44.78 0.201 7.31 4.12 10.69
11/9/2020 2:45:00 AM 7.06 44.708 0.201 7.3 4.22 10.67
11/9/2020 3:00:00 AM 7.02 44.636 0.201 7.3 4.28 10.66
11/9/2020 3:15:00 AM 6.98 44.564 0.202 7.29 4.66 10.65
11/9/2020 3:30:00 AM 6.95 44.51 0.202 7.28 4.16 10.66
11/9/2020 3:45:00 AM 6.91 44.438 0.202 7.27 5.65 10.68
11/9/2020 4:00:00 AM 6.87 44.366 0.202 7.27 4.38 10.68
11/9/2020 4:15:00 AM 6.82 44.276 0.202 7.3 4.35 10.67
11/9/2020 4:30:00 AM 6.79 44.222 0.202 7.27 4.3 10.67
11/9/2020 4:45:00 AM 6.74 44.132 0.202 7.29 4.24 10.67
11/9/2020 5:00:00 AM 6.7 44.06 0.202 7.27 4.43 10.69
11/9/2020 5:15:00 AM 6.66 43.988 0.202 7.29 4.27 10.7
11/9/2020 5:30:00 AM 6.62 43.916 0.202 7.27 4.06 10.7
11/9/2020 5:45:00 AM 6.57 43.826 0.202 7.3 4.24 10.7
11/9/2020 6:00:00 AM 6.52 43.736 0.202 7.3 4.57 10.73
11/9/2020 6:15:00 AM 6.48 43.664 0.202 7.27 4.41 10.74
11/9/2020 6:30:00 AM 6.43 43.574 0.202 7.3 4.36 10.76
11/9/2020 6:45:00 AM 6.39 43.502 0.202 7.3 4.19 10.78
11/9/2020 7:00:00 AM 6.35 43.43 0.203 7.3 4.23 10.8
11/9/2020 7:15:00 AM 6.31 43.358 0.202 7.27 4.46 10.78
11/9/2020 7:30:00 AM 6.26 43.268 0.203 7.28 4.42 10.83
11/9/2020 7:45:00 AM 6.22 43.196 0.202 7.3 4.2 10.86
11/9/2020 8:00:00 AM 6.19 43.142 0.202 7.32 4.2 10.95
11/9/2020 8:15:00 AM 6.16 43.088 0.202 7.31 4.02 11
11/9/2020 8:30:00 AM 6.15 43.07 0.202 7.33 4.1 11.09
11/9/2020 8:45:00 AM 6.15 43.07 0.202 7.32 4.1 11.24
11/9/2020 9:00:00 AM 6.17 43.106 0.202 7.34 4.16 11.32
11/9/2020 9:15:00 AM 6.22 43.196 0.202 7.35 3.98 11.4
11/9/2020 9:30:00 AM 6.29 43.322 0.202 7.37 4 11.51
11/9/2020 9:45:00 AM 6.38 43.484 0.203 7.37 4.76 11.6
11/9/2020 10:00:00 AM 6.5 43.7 0.203 7.39 3.84 11.69
11/9/2020 10:15:00 AM 6.63 43.934 0.203 7.41 3.79 11.87
11/9/2020 10:30:00 AM 6.77 44.186 0.203 7.41 3.87 11.94
11/9/2020 10:45:00 AM 6.94 44.492 0.204 7.44 3.85 12.03
11/9/2020 11:00:00 AM 7.13 44.834 0.204 7.43 3.76 12.07
11/9/2020 11:15:00 AM 7.26 45.068 0.204 7.48 3.78 12.21
11/9/2020 11:30:00 AM 7.44 45.392 0.205 7.5 3.84 12.29
11/9/2020 11:45:00 AM 7.61 45.698 0.205 7.52 3.68 12.36
11/9/2020 12:00:00 PM 7.78 46.004 0.205 7.51 3.82 12.4
11/9/2020 12:15:00 PM 7.92 46.256 0.205 7.53 4.5 12.43
11/9/2020 12:30:00 PM 8.09 46.562 0.206 7.56 3.71 12.54
11/9/2020 12:45:00 PM 8.25 46.85 0.206 7.58 3.91 12.62
11/9/2020 1:00:00 PM 8.4 47.12 0.206 7.6 3.56 12.67
11/9/2020 1:15:00 PM 8.5 47.3 0.207 7.61 3.84 12.71
11/9/2020 1:30:00 PM 8.63 47.534 0.207 7.61 3.94 12.74
11/9/2020 1:45:00 PM 8.78 47.804 0.207 7.63 3.76 12.76
11/9/2020 2:00:00 PM 8.93 48.074 0.207 7.66 3.82 12.78
11/9/2020 2:15:00 PM 9.05 48.29 0.207 7.68 3.79 12.78
11/9/2020 2:30:00 PM 9.17 48.506 0.208 7.66 3.87 12.8
11/9/2020 2:45:00 PM 9.25 48.65 0.208 7.69 3.87 12.79
11/9/2020 3:00:00 PM 9.33 48.794 0.208 7.68 4.04 12.77
11/9/2020 3:15:00 PM 9.38 48.884 0.208 7.69 4.04 12.77
11/9/2020 3:30:00 PM 9.42 48.956 0.208 7.7 3.81 12.75
11/9/2020 3:45:00 PM 9.44 48.992 0.208 7.72 3.95 12.72
11/9/2020 4:00:00 PM 9.43 48.974 0.209 7.72 4.11 12.68
11/9/2020 4:15:00 PM 9.41 48.938 0.209 7.7 4.2 12.64
11/9/2020 4:30:00 PM 9.36 48.848 0.209 7.71 3.9 12.57
11/9/2020 4:45:00 PM 9.3 48.74 0.209 7.7 4.17 12.49
11/9/2020 5:00:00 PM 9.22 48.596 0.21 7.67 3.79 12.36
11/9/2020 5:15:00 PM 9.13 48.434 0.21 7.64 3.9 12.27
11/9/2020 5:30:00 PM 9.04 48.272 0.21 7.64 3.99 12.16
11/9/2020 5:45:00 PM 8.96 48.128 0.21 7.62 4.01 12.05
11/9/2020 6:00:00 PM 8.88 47.984 0.21 7.59 4.04 11.93
11/9/2020 6:15:00 PM 8.78 47.804 0.21 7.59 3.98 11.8
11/9/2020 6:30:00 PM 8.7 47.66 0.21 7.54 4 11.7
11/9/2020 6:45:00 PM 8.63 47.534 0.21 7.52 4.13 11.63
11/9/2020 7:00:00 PM 8.55 47.39 0.21 7.51 4.08 11.55
11/9/2020 7:15:00 PM 8.48 47.264 0.21 7.52 4.27 11.5
11/9/2020 7:30:00 PM 8.43 47.174 0.211 7.49 4.4 11.44
11/9/2020 7:45:00 PM 8.35 47.03 0.211 7.49 4.13 11.39
11/9/2020 8:00:00 PM 8.29 46.922 0.211 7.46 4.17 11.33
11/9/2020 8:15:00 PM 8.21 46.778 0.211 7.45 4.18 11.31
11/9/2020 8:30:00 PM 8.17 46.706 0.211 7.45 4.08 11.26
11/9/2020 8:45:00 PM 8.1 46.58 0.211 7.43 4.01 11.22
11/9/2020 9:00:00 PM 8.05 46.49 0.211 7.42 4.05 11.16
11/9/2020 9:15:00 PM 8.02 46.436 0.212 7.42 4.24 11.12
11/9/2020 9:30:00 PM 7.93 46.274 0.211 7.43 4.24 11.07
11/9/2020 9:45:00 PM 7.88 46.184 0.211 7.4 4.14 11.04
11/9/2020 10:00:00 PM 7.84 46.112 0.212 7.41 4.2 11
11/9/2020 10:15:00 PM 7.8 46.04 0.212 7.4 4.12 10.97
11/9/2020 10:30:00 PM 7.76 45.968 0.212 7.4 4.17 10.92
11/9/2020 10:45:00 PM 7.71 45.878 0.211 7.38 4.17 10.89
11/9/2020 11:00:00 PM 7.66 45.788 0.211 7.36 4.3 10.87
11/9/2020 11:15:00 PM 7.62 45.716 0.211 7.38 4.68 10.85
11/9/2020 11:30:00 PM 7.59 45.662 0.211 7.37 4.88 10.83
11/9/2020 11:45:00 PM 7.55 45.59 0.211 7.37 4.56 10.8
11/10/2020 12:00:00 AM 7.52 45.536 0.211 7.34 4.31 10.77
11/10/2020 12:15:00 AM 7.48 45.464 0.211 7.36 4.2 10.76
11/10/2020 12:30:00 AM 7.45 45.41 0.211 7.36 4.23 10.74
11/10/2020 12:45:00 AM 7.42 45.356 0.211 7.33 4.18 10.71
11/10/2020 1:00:00 AM 7.38 45.284 0.211 7.35 4.36 10.69
11/10/2020 1:15:00 AM 7.35 45.23 0.211 7.34 4.3 10.69
11/10/2020 1:30:00 AM 7.31 45.158 0.211 7.33 4.31 10.66
11/10/2020 1:45:00 AM 7.28 45.104 0.211 7.34 4.59 10.65
11/10/2020 2:00:00 AM 7.25 45.05 0.211 7.31 4.86 10.64
11/10/2020 2:15:00 AM 7.21 44.978 0.211 7.33 5.18 10.62
11/10/2020 2:30:00 AM 7.16 44.888 0.211 7.31 4.51 10.58
11/10/2020 2:45:00 AM 7.15 44.87 0.21 7.33 4.89 10.61
11/10/2020 3:00:00 AM 7.12 44.816 0.211 7.32 4.68 10.61
11/10/2020 3:15:00 AM 7.1 44.78 0.21 7.33 4.45 10.6
11/10/2020 3:30:00 AM 7.07 44.726 0.211 7.32 4.47 10.6
11/10/2020 3:45:00 AM 7.04 44.672 0.211 7.31 4.53 10.59
11/10/2020 4:00:00 AM 7.01 44.618 0.21 7.32 4.31 10.59
11/10/2020 4:15:00 AM 6.98 44.564 0.211 7.3 4.41 10.57
11/10/2020 4:30:00 AM 6.95 44.51 0.21 7.29 4.59 10.56
11/10/2020 4:45:00 AM 6.92 44.456 0.21 7.32 4.36 10.57
11/10/2020 5:00:00 AM 6.89 44.402 0.211 7.29 4.42 10.56
11/10/2020 5:15:00 AM 6.86 44.348 0.211 7.29 4.32 10.56
11/10/2020 5:30:00 AM 6.83 44.294 0.211 7.31 4.78 10.56
11/10/2020 5:45:00 AM 6.8 44.24 0.211 7.28 4.51 10.56
11/10/2020 6:00:00 AM 6.77 44.186 0.211 7.28 4.23 10.55
11/10/2020 6:15:00 AM 6.75 44.15 0.211 7.29 4.35 10.57
11/10/2020 6:30:00 AM 6.71 44.078 0.211 7.27 4.26 10.57
11/10/2020 6:45:00 AM 6.68 44.024 0.211 7.28 4.28 10.58
11/10/2020 7:00:00 AM 6.65 43.97 0.211 7.29 4.16 10.59
11/10/2020 7:15:00 AM 6.62 43.916 0.211 7.27 4.32 10.59
11/10/2020 7:30:00 AM 6.6 43.88 0.211 7.3 4.15 10.61
11/10/2020 7:45:00 AM 6.58 43.844 0.211 7.29 4.21 10.63
11/10/2020 8:00:00 AM 6.57 43.826 0.211 7.29 4.21 10.67
11/10/2020 8:15:00 AM 6.56 43.808 0.211 7.28 4.17 10.73
11/10/2020 8:30:00 AM 6.57 43.826 0.211 7.3 4.1 10.78
11/10/2020 8:45:00 AM 6.58 43.844 0.21 7.3 4.04 10.93
11/10/2020 9:00:00 AM 6.62 43.916 0.21 7.33 4.17 11.08
11/10/2020 9:15:00 AM 6.68 44.024 0.21 7.32 3.94 11.19
11/10/2020 9:30:00 AM 6.76 44.168 0.21 7.35 3.92 11.27
11/10/2020 9:45:00 AM 6.86 44.348 0.21 7.35 4.18 11.44
11/10/2020 10:00:00 AM 7.01 44.618 0.209 7.37 3.96 11.61
11/10/2020 10:15:00 AM 7.16 44.888 0.21 7.42 3.74 11.69
11/10/2020 10:30:00 AM 7.35 45.23 0.209 7.43 3.85 11.84
11/10/2020 10:45:00 AM 7.58 45.644 0.208 7.44 3.88 11.96
11/10/2020 11:00:00 AM 7.74 45.932 0.209 7.46 3.89 12.05
11/10/2020 11:15:00 AM 7.94 46.292 0.208 7.5 3.84 12.16
11/10/2020 11:30:00 AM 8.21 46.778 0.209 7.51 3.76 12.21
11/10/2020 11:45:00 AM 8.46 47.228 0.208 7.52 3.71 12.23
11/10/2020 12:00:00 PM 8.5 47.3 0.208 7.53 3.66 12.29
11/10/2020 12:15:00 PM 8.83 47.894 0.208 7.53 3.46 12.32
11/10/2020 12:30:00 PM 8.9 48.02 0.209 7.54 3.55 12.43
11/10/2020 12:45:00 PM 9.05 48.29 0.208 7.57 3.47 12.52
11/10/2020 1:00:00 PM 9.19 48.542 0.208 7.57 3.55 12.56
11/10/2020 1:15:00 PM 9.35 48.83 0.208 7.6 3.46 12.6
11/10/2020 1:30:00 PM 9.56 49.208 0.208 7.61 3.61 12.66
11/10/2020 1:45:00 PM 9.67 49.406 0.208 7.64 3.56 12.65
11/10/2020 2:00:00 PM 9.88 49.784 0.207 7.64 3.6 12.69
11/10/2020 2:15:00 PM 10.06 50.108 0.184 7.64 3400.36 12.69
11/10/2020 2:30:00 PM 10.16 50.288 0.207 7.66 30376.24 12.7
11/10/2020 2:45:00 PM 10.31 50.558 0.205 7.67 20224.48 12.68
11/10/2020 3:00:00 PM 10.43 50.774 0.205 7.69 15752.55 12.68
11/10/2020 3:15:00 PM 10.48 50.864 0.204 7.7 7010.78 12.67
11/10/2020 3:30:00 PM 10.53 50.954 0.205 7.7 6.78 12.67
11/10/2020 3:45:00 PM 10.59 51.062 0.207 7.7 3.59 12.65
11/10/2020 4:00:00 PM 10.61 51.098 0.206 7.71 3.5 12.62
11/10/2020 4:15:00 PM 10.6 51.08 0.207 7.7 3.48 12.59
11/10/2020 4:30:00 PM 10.56 51.008 0.207 7.7 3.75 12.54
11/10/2020 4:45:00 PM 10.51 50.918 0.207 7.69 3.92 12.43
11/10/2020 5:00:00 PM 10.44 50.792 0.206 7.67 4.46 12.28
11/10/2020 5:15:00 PM 10.39 50.702 0.206 7.64 4.13 12.15
11/10/2020 5:30:00 PM 10.32 50.576 0.206 7.62 3.94 11.99
11/10/2020 5:45:00 PM 10.25 50.45 0.206 7.59 3.97 11.88
11/10/2020 6:00:00 PM 10.19 50.342 0.206 7.57 3.79 11.75
11/10/2020 6:15:00 PM 10.13 50.234 0.206 7.56 3.93 11.66
11/10/2020 6:30:00 PM 10.04 50.072 0.206 7.53 3.89 11.52
11/10/2020 6:45:00 PM 9.99 49.982 0.206 7.54 3.66 11.42
11/10/2020 7:00:00 PM 9.91 49.838 0.206 7.5 4.01 11.32
11/10/2020 7:15:00 PM 9.84 49.712 0.205 7.49 4.05 11.22
11/10/2020 7:30:00 PM 9.78 49.604 0.206 7.47 4.06 11.16
11/10/2020 7:45:00 PM 9.71 49.478 0.206 7.48 4.02 11.08
11/10/2020 8:00:00 PM 9.63 49.334 0.205 7.46 4.04 11.01
11/10/2020 8:15:00 PM 9.56 49.208 0.205 7.45 3.9 10.97
11/10/2020 8:30:00 PM 9.52 49.136 0.205 7.41 3.99 10.9
11/10/2020 8:45:00 PM 9.44 48.992 0.205 7.43 3.94 10.85
11/10/2020 9:00:00 PM 9.39 48.902 0.205 7.4 4.11 10.81
11/10/2020 9:15:00 PM 9.33 48.794 0.204 7.39 4.09 10.76
11/10/2020 9:30:00 PM 9.28 48.704 0.205 7.38 4.09 10.73
11/10/2020 9:45:00 PM 9.24 48.632 0.205 7.37 4.06 10.69
11/10/2020 10:00:00 PM 9.19 48.542 0.205 7.39 4.19 10.67
11/10/2020 10:15:00 PM 9.15 48.47 0.204 7.36 4.08 10.61
11/10/2020 10:30:00 PM 9.11 48.398 0.204 7.38 4.53 10.58
11/10/2020 10:45:00 PM 9.08 48.344 0.204 7.37 4.05 10.54
11/10/2020 11:00:00 PM 9.05 48.29 0.204 7.35 4.16 10.5
11/10/2020 11:15:00 PM 9.01 48.218 0.204 7.36 4.21 10.48
11/10/2020 11:30:00 PM 8.99 48.182 0.204 7.37 4.2 10.45
11/10/2020 11:45:00 PM 8.97 48.146 0.205 7.34 4.14 10.41
11/11/2020 12:00:00 AM 8.95 48.11 0.204 7.33 4.14 10.39
11/11/2020 12:15:00 AM 8.93 48.074 0.203 7.35 4.08 10.38
11/11/2020 12:30:00 AM 8.91 48.038 0.203 7.35 4.17 10.35
11/11/2020 12:45:00 AM 8.89 48.002 0.204 7.32 4.09 10.33
11/11/2020 1:00:00 AM 8.87 47.966 0.203 7.34 8 10.33
11/11/2020 1:15:00 AM 8.86 47.948 0.203 7.31 4.39 10.3
11/11/2020 1:30:00 AM 8.84 47.912 0.203 7.33 4.31 10.28
11/11/2020 1:45:00 AM 8.83 47.894 0.203 7.31 4.35 10.26
11/11/2020 2:00:00 AM 8.82 47.876 0.203 7.3 4.83 10.25
11/11/2020 2:15:00 AM 8.8 47.84 0.204 7.32 4.45 10.23
11/11/2020 2:30:00 AM 8.8 47.84 0.204 7.3 4.36 10.21
11/11/2020 2:45:00 AM 8.79 47.822 0.204 7.31 4.69 10.2
11/11/2020 3:00:00 AM 8.78 47.804 0.204 7.32 4.33 10.18
11/11/2020 3:15:00 AM 8.78 47.804 0.205 7.32 4.79 10.17
11/11/2020 3:30:00 AM 8.77 47.786 0.205 7.32 4.38 10.15
11/11/2020 3:45:00 AM 8.76 47.768 0.206 7.31 4.46 10.13
11/11/2020 4:00:00 AM 8.76 47.768 0.206 7.29 4.38 10.12
11/11/2020 4:15:00 AM 8.76 47.768 0.207 7.31 4.31 10.12
11/11/2020 4:30:00 AM 8.75 47.75 0.208 7.31 4.28 10.09
11/11/2020 4:45:00 AM 8.74 47.732 0.209 7.31 4.2 10.08
11/11/2020 5:00:00 AM 8.74 47.732 0.209 7.31 4.48 10.07
11/11/2020 5:15:00 AM 8.73 47.714 0.211 7.28 4.4 10.06
11/11/2020 5:30:00 AM 8.73 47.714 0.211 7.28 4.22 10.06
11/11/2020 5:45:00 AM 8.72 47.696 0.212 7.3 4.26 10.04
11/11/2020 6:00:00 AM 8.73 47.714 0.214 7.31 4.2 10.05
11/11/2020 6:15:00 AM 8.73 47.714 0.215 7.31 4.08 10.04
11/11/2020 6:30:00 AM 8.73 47.714 0.215 7.28 4.33 10.02
11/11/2020 6:45:00 AM 8.75 47.75 0.216 7.29 4.19 10.01
11/11/2020 7:00:00 AM 8.77 47.786 0.217 7.28 4.09 9.96
11/11/2020 7:15:00 AM 8.8 47.84 0.218 7.31 3.76 10.01
11/11/2020 7:30:00 AM 8.83 47.894 0.219 7.32 3.75 10.02
11/11/2020 7:45:00 AM 8.89 48.002 0.22 7.3 4.3 10.05
11/11/2020 8:00:00 AM 8.94 48.092 0.221 7.32 3.82 10.06
11/11/2020 8:15:00 AM 8.97 48.146 0.221 7.29 4.34 10.09
11/11/2020 8:30:00 AM 9.02 48.236 0.222 7.34 4 10.16
11/11/2020 8:45:00 AM 9.09 48.362 0.221 7.35 3.93 10.28
11/11/2020 9:00:00 AM 9.16 48.488 0.222 7.36 3.87 10.42
11/11/2020 9:15:00 AM 9.23 48.614 0.223 7.36 4.09 10.52
11/11/2020 9:30:00 AM 9.3 48.74 0.224 7.37 4.66 10.59
11/11/2020 9:45:00 AM 9.36 48.848 0.223 7.39 4.74 10.6
11/11/2020 10:00:00 AM 9.47 49.046 0.222 7.41 5.26 10.59
11/11/2020 10:15:00 AM 9.55 49.19 0.219 7.41 5.18 10.58
11/11/2020 10:30:00 AM 9.68 49.424 0.217 7.44 6.4 10.61
11/11/2020 10:45:00 AM 9.74 49.532 0.215 7.43 5.91 10.6
11/11/2020 11:00:00 AM 9.84 49.712 0.214 7.43 6.82 10.62
11/11/2020 11:15:00 AM 9.88 49.784 0.214 7.42 5.63 10.62
11/11/2020 11:30:00 AM 9.96 49.928 0.213 7.42 5.43 10.65
11/11/2020 11:45:00 AM 10.06 50.108 0.211 7.43 5.53 10.69
11/11/2020 12:00:00 PM 10.13 50.234 0.209 7.45 5.65 10.71
11/11/2020 12:15:00 PM 10.19 50.342 0.208 7.42 5.99 10.78
11/11/2020 12:30:00 PM 10.28 50.504 0.207 7.45 7.33 10.83
11/11/2020 12:45:00 PM 10.31 50.558 0.207 7.44 6.17 10.86
11/11/2020 1:00:00 PM 10.32 50.576 0.208 7.45 5.72 10.89
11/11/2020 1:15:00 PM 10.36 50.648 0.208 7.44 5.78 10.9
11/11/2020 1:30:00 PM 10.39 50.702 0.208 7.46 5.34 10.93
11/11/2020 1:45:00 PM 10.42 50.756 0.207 7.44 5.3 10.99
11/11/2020 2:00:00 PM 10.46 50.828 0.207 7.46 5.49 10.99
11/11/2020 2:15:00 PM 10.59 51.062 0.202 7.47 9.93 11.02
11/11/2020 2:30:00 PM 10.59 51.062 0.205 7.45 6.22 11.05
11/11/2020 2:45:00 PM 10.61 51.098 0.205 7.44 5.28 11.02
11/11/2020 3:00:00 PM 10.62 51.116 0.199 7.46 5.28 10.98
11/11/2020 3:15:00 PM 10.62 51.116 0.198 7.44 5.68 10.95
11/11/2020 3:30:00 PM 10.58 51.044 0.196 7.46 5.73 10.96
11/11/2020 3:45:00 PM 10.55 50.99 0.194 7.44 7.22 10.92
11/11/2020 4:00:00 PM 10.53 50.954 0.192 7.46 8.8 10.83
11/11/2020 4:15:00 PM 10.55 50.99 0.189 7.43 11.75 10.7
11/11/2020 4:30:00 PM 10.63 51.134 0.192 7.39 17.02 10.53
11/11/2020 4:45:00 PM 10.73 51.314 0.198 7.35 21.16 10.37
11/11/2020 5:00:00 PM 10.83 51.494 0.204 7.28 27.33 10.27
11/11/2020 5:15:00 PM 10.94 51.692 0.2 7.31 49.74 10.23
11/11/2020 5:30:00 PM 11.02 51.836 0.194 7.33 87.2 10.2
11/11/2020 5:45:00 PM 11.07 51.926 0.189 7.31 88.47 10.19
11/11/2020 6:00:00 PM 11.08 51.944 0.186 7.32 70.81 10.2
11/11/2020 6:15:00 PM 11.05 51.89 0.181 7.25 54.61 10.21
11/11/2020 6:30:00 PM 10.99 51.782 0.178 7.26 65.37 10.21
11/11/2020 6:45:00 PM 10.95 51.71 0.176 7.25 71.54 10.19
11/11/2020 7:00:00 PM 10.94 51.692 0.176 7.2 63.73 10.18
11/11/2020 7:15:00 PM 10.94 51.692 0.175 7.2 59.55 10.14
11/11/2020 7:30:00 PM 10.94 51.692 0.172 7.22 57.31 10.13
11/11/2020 7:45:00 PM 10.93 51.674 0.169 7.15 47.94 10.12
11/11/2020 8:00:00 PM 10.92 51.656 0.167 7.14 44.96 10.11
11/11/2020 8:15:00 PM 10.91 51.638 0.164 7.14 42.65 10.12
11/11/2020 8:30:00 PM 10.91 51.638 0.16 7.17 42.62 10.12
11/11/2020 8:45:00 PM 10.92 51.656 0.156 7.16 40.37 10.13
11/11/2020 9:00:00 PM 10.94 51.692 0.154 7.12 38.22 10.13
11/11/2020 9:15:00 PM 10.96 51.728 0.152 7.13 36.63 10.13
11/11/2020 9:30:00 PM 10.98 51.764 0.151 7.16 34.77 10.13
11/11/2020 9:45:00 PM 11 51.8 0.151 7.15 33.74 10.12
11/11/2020 10:00:00 PM 11.01 51.818 0.151 7.12 30.2 10.12
11/11/2020 10:15:00 PM 11.02 51.836 0.15 7.09 24.48 10.11
11/11/2020 10:30:00 PM 11.03 51.854 0.15 7.1 28.59 10.11
11/11/2020 10:45:00 PM 11.04 51.872 0.149 7.07 28.1 10.11
11/11/2020 11:00:00 PM 11.04 51.872 0.149 7.06 29.09 10.11
11/11/2020 11:15:00 PM 11.04 51.872 0.149 7.07 25.88 10.1
11/11/2020 11:30:00 PM 11.03 51.854 0.149 7.11 28.46 10.11
11/11/2020 11:45:00 PM 11.02 51.836 0.148 7.09 26.11 10.11
11/12/2020 12:00:00 AM 11 51.8 0.148 7.07 25.62 10.11
11/12/2020 12:15:00 AM 10.99 51.782 0.148 7.07 26.19 10.12
11/12/2020 12:30:00 AM 10.97 51.746 0.148 7.1 24.36 10.12
11/12/2020 12:45:00 AM 10.95 51.71 0.147 7.1 24.31 10.12
11/12/2020 1:00:00 AM 10.93 51.674 0.147 7.11 24.8 10.13
11/12/2020 1:15:00 AM 10.91 51.638 0.146 7.12 25.92 10.12
11/12/2020 1:30:00 AM 10.89 51.602 0.146 7.13 25.42 10.13
11/12/2020 1:45:00 AM 10.87 51.566 0.145 7.12 25.67 10.13
11/12/2020 2:00:00 AM 10.84 51.512 0.145 7.08 25.04 10.14
11/12/2020 2:15:00 AM 10.81 51.458 0.144 7.11 23.77 10.14
11/12/2020 2:30:00 AM 10.79 51.422 0.144 7.12 23.63 10.16
11/12/2020 2:45:00 AM 10.76 51.368 0.143 7.12 22.95 10.16
11/12/2020 3:00:00 AM 10.73 51.314 0.143 7.08 23.58 10.16
11/12/2020 3:15:00 AM 10.7 51.26 0.142 7.09 21.94 10.17
11/12/2020 3:30:00 AM 10.67 51.206 0.142 7.11 21.32 10.18
11/12/2020 3:45:00 AM 10.64 51.152 0.142 7.11 21.31 10.19
11/12/2020 4:00:00 AM 10.6 51.08 0.141 7.11 20.9 10.19
11/12/2020 4:15:00 AM 10.56 51.008 0.141 7.11 20.81 10.2
11/12/2020 4:30:00 AM 10.52 50.936 0.141 7.11 20.41 10.22
11/12/2020 4:45:00 AM 10.49 50.882 0.141 7.13 19.41 10.22
11/12/2020 5:00:00 AM 10.45 50.81 0.141 7.12 19.45 10.24
11/12/2020 5:15:00 AM 10.42 50.756 0.141 7.1 19.38 10.24
11/12/2020 5:30:00 AM 10.38 50.684 0.141 7.11 18.29 10.26
11/12/2020 5:45:00 AM 10.34 50.612 0.141 7.08 17.87 10.26
11/12/2020 6:00:00 AM 10.3 50.54 0.141 6.97 19.51 10.27
11/12/2020 6:15:00 AM 10.26 50.468 0.141 6.95 17.86 10.28
11/12/2020 6:30:00 AM 10.21 50.378 0.141 6.94 17.16 10.3
11/12/2020 6:45:00 AM 10.17 50.306 0.14 6.96 16.73 10.31
11/12/2020 7:00:00 AM 10.13 50.234 0.14 6.99 16.88 10.32
11/12/2020 7:15:00 AM 10.09 50.162 0.14 7.03 15.22 10.34
11/12/2020 7:30:00 AM 10.05 50.09 0.14 6.97 15.31 10.34
11/12/2020 7:45:00 AM 10.02 50.036 0.139 7.01 14.77 10.35
11/12/2020 8:00:00 AM 9.99 49.982 0.139 7 14.83 10.37
11/12/2020 8:15:00 AM 9.96 49.928 0.139 7.03 15 10.38
11/12/2020 8:30:00 AM 9.93 49.874 0.138 7.01 13.63 10.41
11/12/2020 8:45:00 AM 9.9 49.82 0.138 7.03 13.25 10.43
11/12/2020 9:00:00 AM 9.87 49.766 0.138 7.05 13.12 10.46
11/12/2020 9:15:00 AM 9.84 49.712 0.138 7.08 12.55 10.48
11/12/2020 9:30:00 AM 9.81 49.658 0.137 7.08 12.83 10.51
11/12/2020 9:45:00 AM 9.78 49.604 0.137 7.09 11.98 10.53
11/12/2020 10:00:00 AM 9.74 49.532 0.137 7.14 11.71 10.58
11/12/2020 10:15:00 AM 9.72 49.496 0.137 7.14 11.68 10.59
11/12/2020 10:30:00 AM 9.7 49.46 0.137 7.18 11.24 10.61
11/12/2020 10:45:00 AM 9.67 49.406 0.137 7.21 10.95 10.66
11/12/2020 11:00:00 AM 9.65 49.37 0.136 7.16 13.05 10.67
11/12/2020 11:15:00 AM 9.63 49.334 0.136 7.09 12.46 10.71
11/12/2020 11:30:00 AM 9.61 49.298 0.136 7.07 10.49 10.73
11/12/2020 11:45:00 AM 9.6 49.28 0.136 7.09 10.68 10.76
11/12/2020 12:00:00 PM 9.59 49.262 0.136 7.1 10.32 10.81
11/12/2020 12:15:00 PM 9.58 49.244 0.136 7.13 12.02 10.84
11/12/2020 12:30:00 PM 9.57 49.226 0.136 7.17 9.79 10.87
11/12/2020 12:45:00 PM 9.57 49.226 0.136 7.15 9.89 10.9
11/12/2020 1:00:00 PM 9.57 49.226 0.136 7.17 10.9 10.93
11/12/2020 1:15:00 PM 9.57 49.226 0.136 7.18 10.08 10.97
11/12/2020 1:30:00 PM 9.58 49.244 0.136 7.18 9.74 11
11/12/2020 1:45:00 PM 9.59 49.262 0.136 7.24 9.72 11.03
11/12/2020 2:00:00 PM 9.6 49.28 0.136 7.22 9.45 11.07
11/12/2020 2:15:00 PM 9.59 49.262 0.135 7.26 9.56 11.09
11/12/2020 2:30:00 PM 9.58 49.244 0.135 7.26 9.43 11.09
11/12/2020 2:45:00 PM 9.57 49.226 0.135 7.27 9.32 11.12
11/12/2020 3:00:00 PM 9.56 49.208 0.135 7.28 9.53 11.11
11/12/2020 3:15:00 PM 9.54 49.172 0.135 7.28 9.4 11.11
11/12/2020 3:30:00 PM 9.53 49.154 0.135 7.3 9.33 11.11
11/12/2020 3:45:00 PM 9.51 49.118 0.135 7.27 9.75 11.1
11/12/2020 4:00:00 PM 9.48 49.064 0.134 7.28 15.56 11.08
11/12/2020 4:15:00 PM 9.45 49.01 0.135 7.29 9.34 11.05
11/12/2020 4:30:00 PM 9.43 48.974 0.135 7.26 8.78 11.02
11/12/2020 4:45:00 PM 9.39 48.902 0.135 7.26 8.51 10.99
11/12/2020 5:00:00 PM 9.34 48.812 0.135 7.28 9.08 10.95
11/12/2020 5:15:00 PM 9.29 48.722 0.135 7.25 8.86 10.92
11/12/2020 5:30:00 PM 9.24 48.632 0.135 7.25 9.42 10.89
11/12/2020 5:45:00 PM 9.18 48.524 0.135 7.24 9.36 10.87
11/12/2020 6:00:00 PM 9.12 48.416 0.135 7.2 9.89 10.85
11/12/2020 6:15:00 PM 9.06 48.308 0.135 7.16 9.63 10.83
11/12/2020 6:30:00 PM 9 48.2 0.135 7.16 9.93 10.81
11/12/2020 6:45:00 PM 8.94 48.092 0.135 7.17 13.33 10.8
11/12/2020 7:00:00 PM 8.88 47.984 0.135 7.16 10.5 10.79
11/12/2020 7:15:00 PM 8.82 47.876 0.135 7.13 10.94 10.78
11/12/2020 7:30:00 PM 8.75 47.75 0.135 7.13 11.6 10.78
11/12/2020 7:45:00 PM 8.68 47.624 0.134 7.12 12.81 10.78
11/12/2020 8:00:00 PM 8.61 47.498 0.135 7.12 13.72 10.79
11/12/2020 8:15:00 PM 8.53 47.354 0.135 7.13 15.03 10.79
11/12/2020 8:30:00 PM 8.46 47.228 0.135 7.15 15.59 10.79
11/12/2020 8:45:00 PM 8.39 47.102 0.135 7.15 15.48 10.79
11/12/2020 9:00:00 PM 8.31 46.958 0.135 7.15 15.19 10.8
11/12/2020 9:15:00 PM 8.25 46.85 0.135 7.15 14.53 10.8
11/12/2020 9:30:00 PM 8.17 46.706 0.135 7.14 21.03 10.82
11/12/2020 9:45:00 PM 8.1 46.58 0.135 7.14 13.02 10.82
11/12/2020 10:00:00 PM 8.03 46.454 0.136 7.1 20.32 10.84
11/12/2020 10:15:00 PM 7.96 46.328 0.135 7.11 13.63 10.86
11/12/2020 10:30:00 PM 7.89 46.202 0.136 7.11 13.27 10.87
11/12/2020 10:45:00 PM 7.82 46.076 0.136 7.11 12.02 10.88
11/12/2020 11:00:00 PM 7.75 45.95 0.136 7.15 11.78 10.89
11/12/2020 11:15:00 PM 7.68 45.824 0.136 7.1 11.05 10.91
11/12/2020 11:30:00 PM 7.61 45.698 0.136 7.1 9.75 10.93
11/12/2020 11:45:00 PM 7.55 45.59 0.137 7.14 10.38 10.94
11/13/2020 12:00:00 AM 7.48 45.464 0.137 7.12 13.18 10.95
11/13/2020 12:15:00 AM 7.41 45.338 0.137 7.13 15.9 10.97
11/13/2020 12:30:00 AM 7.35 45.23 0.137 7.11 8.99 10.99
11/13/2020 12:45:00 AM 7.28 45.104 0.137 7.1 9.26 11
11/13/2020 1:00:00 AM 7.22 44.996 0.138 7.14 8.74 11.02
11/13/2020 1:15:00 AM 7.16 44.888 0.138 7.13 8.95 11.02
11/13/2020 1:30:00 AM 7.09 44.762 0.138 7.11 8.64 11.05
11/13/2020 1:45:00 AM 7.02 44.636 0.138 7.14 10 11.06
11/13/2020 2:00:00 AM 6.96 44.528 0.138 7.12 8.39 11.06
11/13/2020 2:15:00 AM 6.9 44.42 0.138 7.12 8.23 11.08
11/13/2020 2:30:00 AM 6.84 44.312 0.138 7.1 8.49 11.12
11/13/2020 2:45:00 AM 6.78 44.204 0.139 7.14 8.24 11.14
11/13/2020 3:00:00 AM 6.72 44.096 0.138 7.13 8.59 11.15
11/13/2020 3:15:00 AM 6.66 43.988 0.139 7.13 8.26 11.16
11/13/2020 3:30:00 AM 6.6 43.88 0.139 7.14 8.11 11.17
11/13/2020 3:45:00 AM 6.55 43.79 0.139 7.13 8.28 11.19
11/13/2020 4:00:00 AM 6.49 43.682 0.139 7.15 8.13 11.22
11/13/2020 4:15:00 AM 6.45 43.61 0.139 7.13 8.4 11.22
11/13/2020 4:30:00 AM 6.41 43.538 0.139 7.11 8.28 11.24
11/13/2020 4:45:00 AM 6.38 43.484 0.139 7.12 8.19 11.26
11/13/2020 5:00:00 AM 6.35 43.43 0.14 7.15 8 11.27
11/13/2020 5:15:00 AM 6.32 43.376 0.14 7.11 8.21 11.28
11/13/2020 5:30:00 AM 6.3 43.34 0.14 7.15 7.99 11.28
11/13/2020 5:45:00 AM 6.27 43.286 0.14 7.15 7.88 11.3
11/13/2020 6:00:00 AM 6.24 43.232 0.14 7.11 8.15 11.33
11/13/2020 6:15:00 AM 6.21 43.178 0.14 7.14 8.24 11.33
11/13/2020 6:30:00 AM 6.19 43.142 0.14 7.16 7.9 11.34
11/13/2020 6:45:00 AM 6.17 43.106 0.141 7.16 7.61 11.33
11/13/2020 7:00:00 AM 6.15 43.07 0.141 7.12 8.5 11.35
11/13/2020 7:15:00 AM 6.13 43.034 0.141 7.15 7.79 11.37
11/13/2020 7:30:00 AM 6.12 43.016 0.141 7.12 7.43 11.37
11/13/2020 7:45:00 AM 6.11 42.998 0.141 7.15 7.63 11.38
11/13/2020 8:00:00 AM 6.1 42.98 0.141 7.16 7.77 11.41
11/13/2020 8:15:00 AM 6.1 42.98 0.141 7.16 7.64 11.42
11/13/2020 8:30:00 AM 6.12 43.016 0.142 7.13 7.3 11.46
11/13/2020 8:45:00 AM 6.15 43.07 0.142 7.14 7.59 11.53
11/13/2020 9:00:00 AM 6.17 43.106 0.142 7.18 7.1 11.58
11/13/2020 9:15:00 AM 6.18 43.124 0.142 7.19 7.34 11.6
11/13/2020 9:30:00 AM 6.21 43.178 0.142 7.19 7.18 11.63